PWSweather.com
Personal Weather Stations
Station Observations
HVALPSUND
Hvalpsund, FarsoeDK 9640

HvalpsundFarsoeDK 9640

Lat: 56.705311, Lon: 9.203638

Elevation: 5

Station Type: Vantage Pro2

http://hvalpsundvejr.dk

High Low Average
Temperature 81.9°F27.7°C 63.2°F17.3°C 73.5°F23.1°C
Dew Point 61.4°F16.3°C 54.5°F12.5°C 57.9°F14.4°C
Winds 22.0 mph 35.4 kmh 3.0 mph 4.8 kmh 11.0 mph E17.7 kmh E
Wind Gusts 32.0 mph51.5 kmh 4.0 mph6.4 kmh 14.0 mph22.5 kmh
Humidity 81% 43% 60%
Pressure 30.06 in1017.9 mb 30.01 in1016.3 mb -
Precipitation 0.00 in0.0 mm - -
Hour Temp Dew Point Humidity Winds Wind Gusts Pressure Precip Precip Rate Daily Precip Total
12:00 AM 65.3°F18.5°C 59.3°F15.2°C 81% 10.0 mph E16.1 kmh E 12.0 mph19.3 kmh 30.05 in1017.6 mb 0.00 in0.0 mm 0.00 in0.0 mm 0.00 in0.0 mm
12:01 AM 65.4°F18.6°C 59.4°F15.2°C 81% 7.0 mph ESE11.3 kmh ESE 11.0 mph17.7 kmh 30.05 in1017.6 mb 0.00 in0.0 mm 0.00 in0.0 mm 0.00 in0.0 mm
12:02 AM 65.4°F18.6°C 59.4°F15.2°C 81% 8.0 mph E12.9 kmh E 11.0 mph17.7 kmh 30.05 in1017.6 mb 0.00 in0.0 mm 0.00 in0.0 mm 0.00 in0.0 mm
12:03 AM 65.4°F18.6°C 59.4°F15.2°C 81% 8.0 mph E12.9 kmh E 10.0 mph16.1 kmh 30.05 in1017.6 mb 0.00 in0.0 mm 0.00 in0.0 mm 0.00 in0.0 mm
12:04 AM 65.4°F18.6°C 59.4°F15.2°C 81% 9.0 mph E14.5 kmh E 11.0 mph17.7 kmh 30.05 in1017.6 mb 0.00 in0.0 mm 0.00 in0.0 mm 0.00 in0.0 mm
12:05 AM 65.4°F18.6°C 59.4°F15.2°C 81% 8.0 mph E12.9 kmh E 9.0 mph14.5 kmh 30.05 in1017.6 mb 0.00 in0.0 mm 0.00 in0.0 mm 0.00 in0.0 mm
12:06 AM 65.4°F18.6°C 59.4°F15.2°C 81% 8.0 mph E12.9 kmh E 10.0 mph16.1 kmh 30.05 in1017.6 mb 0.00 in0.0 mm 0.00 in0.0 mm 0.00 in0.0 mm
12:07 AM 65.5°F18.6°C 59.5°F15.3°C 81% 8.0 mph E12.9 kmh E 10.0 mph16.1 kmh 30.05 in1017.6 mb 0.00 in0.0 mm 0.00 in0.0 mm 0.00 in0.0 mm
12:08 AM 65.5°F18.6°C 59.5°F15.3°C 81% 8.0 mph E12.9 kmh E 10.0 mph16.1 kmh 30.05 in1017.6 mb 0.00 in0.0 mm 0.00 in0.0 mm 0.00 in0.0 mm
12:09 AM 65.4°F18.6°C 59.4°F15.2°C 81% 9.0 mph E14.5 kmh E 12.0 mph19.3 kmh 30.05 in1017.6 mb 0.00 in0.0 mm 0.00 in0.0 mm 0.00 in0.0 mm
12:10 AM 65.5°F18.6°C 59.5°F15.3°C 81% 9.0 mph E14.5 kmh E 12.0 mph19.3 kmh 30.05 in1017.6 mb 0.00 in0.0 mm 0.00 in0.0 mm 0.00 in0.0 mm
12:11 AM 65.5°F18.6°C 59.2°F15.1°C 80% 9.0 mph E14.5 kmh E 12.0 mph19.3 kmh 30.05 in1017.6 mb 0.00 in0.0 mm 0.00 in0.0 mm 0.00 in0.0 mm
12:12 AM 65.5°F18.6°C 59.2°F15.1°C 80% 8.0 mph E12.9 kmh E 10.0 mph16.1 kmh 30.05 in1017.6 mb 0.00 in0.0 mm 0.00 in0.0 mm 0.00 in0.0 mm
12:13 AM 65.5°F18.6°C 59.2°F15.1°C 80% 9.0 mph E14.5 kmh E 10.0 mph16.1 kmh 30.05 in1017.6 mb 0.00 in0.0 mm 0.00 in0.0 mm 0.00 in0.0 mm
12:14 AM 65.5°F18.6°C 59.2°F15.1°C 80% 8.0 mph E12.9 kmh E 11.0 mph17.7 kmh 30.05 in1017.6 mb 0.00 in0.0 mm 0.00 in0.0 mm 0.00 in0.0 mm
12:15 AM 65.6°F18.7°C 59.3°F15.2°C 80% 9.0 mph E14.5 kmh E 11.0 mph17.7 kmh 30.05 in1017.6 mb 0.00 in0.0 mm 0.00 in0.0 mm 0.00 in0.0 mm
12:16 AM 65.6°F18.7°C 59.3°F15.2°C 80% 8.0 mph E12.9 kmh E 10.0 mph16.1 kmh 30.05 in1017.6 mb 0.00 in0.0 mm 0.00 in0.0 mm 0.00 in0.0 mm
12:17 AM 65.5°F18.6°C 59.2°F15.1°C 80% 7.0 mph E11.3 kmh E 10.0 mph16.1 kmh 30.05 in1017.6 mb 0.00 in0.0 mm 0.00 in0.0 mm 0.00 in0.0 mm
12:18 AM 65.6°F18.7°C 59.3°F15.2°C 80% 7.0 mph E11.3 kmh E 10.0 mph16.1 kmh 30.05 in1017.6 mb 0.00 in0.0 mm 0.00 in0.0 mm 0.00 in0.0 mm
12:19 AM 65.6°F18.7°C 59.3°F15.2°C 80% 7.0 mph E11.3 kmh E 9.0 mph14.5 kmh 30.05 in1017.6 mb 0.00 in0.0 mm 0.00 in0.0 mm 0.00 in0.0 mm
12:20 AM 65.5°F18.6°C 59.2°F15.1°C 80% 7.0 mph E11.3 kmh E 10.0 mph16.1 kmh 30.05 in1017.6 mb 0.00 in0.0 mm 0.00 in0.0 mm 0.00 in0.0 mm
12:21 AM 65.5°F18.6°C 59.2°F15.1°C 80% 7.0 mph E11.3 kmh E 9.0 mph14.5 kmh 30.05 in1017.6 mb 0.00 in0.0 mm 0.00 in0.0 mm 0.00 in0.0 mm
12:22 AM 65.6°F18.7°C 59.3°F15.2°C 80% 9.0 mph E14.5 kmh E 12.0 mph19.3 kmh 30.05 in1017.6 mb 0.00 in0.0 mm 0.00 in0.0 mm 0.00 in0.0 mm
12:23 AM 65.5°F18.6°C 59.2°F15.1°C 80% 7.0 mph E11.3 kmh E 10.0 mph16.1 kmh 30.05 in1017.6 mb 0.00 in0.0 mm 0.00 in0.0 mm 0.00 in0.0 mm
12:24 AM 65.6°F18.7°C 59.3°F15.2°C 80% 8.0 mph E12.9 kmh E 11.0 mph17.7 kmh 30.05 in1017.6 mb 0.00 in0.0 mm 0.00 in0.0 mm 0.00 in0.0 mm
12:25 AM 65.6°F18.7°C 59.3°F15.2°C 80% 7.0 mph E11.3 kmh E 9.0 mph14.5 kmh 30.05 in1017.6 mb 0.00 in0.0 mm 0.00 in0.0 mm 0.00 in0.0 mm
12:26 AM 65.6°F18.7°C 59.3°F15.2°C 80% 8.0 mph E12.9 kmh E 11.0 mph17.7 kmh 30.05 in1017.6 mb 0.00 in0.0 mm 0.00 in0.0 mm 0.00 in0.0 mm
12:27 AM 65.6°F18.7°C 59.3°F15.2°C 80% 7.0 mph E11.3 kmh E 10.0 mph16.1 kmh 30.05 in1017.6 mb 0.00 in0.0 mm 0.00 in0.0 mm 0.00 in0.0 mm
12:28 AM 65.5°F18.6°C 59.2°F15.1°C 80% 8.0 mph E12.9 kmh E 10.0 mph16.1 kmh 30.05 in1017.6 mb 0.00 in0.0 mm 0.00 in0.0 mm 0.00 in0.0 mm
12:29 AM 65.5°F18.6°C 59.2°F15.1°C 80% 8.0 mph E12.9 kmh E 9.0 mph14.5 kmh 30.05 in1017.6 mb 0.00 in0.0 mm 0.00 in0.0 mm 0.00 in0.0 mm
12:30 AM 65.5°F18.6°C 59.2°F15.1°C 80% 8.0 mph E12.9 kmh E 11.0 mph17.7 kmh 30.05 in1017.6 mb 0.00 in0.0 mm 0.00 in0.0 mm 0.00 in0.0 mm
12:31 AM 65.5°F18.6°C 59.2°F15.1°C 80% 8.0 mph E12.9 kmh E 10.0 mph16.1 kmh 30.05 in1017.6 mb 0.00 in0.0 mm 0.00 in0.0 mm 0.00 in0.0 mm
12:32 AM 65.4°F18.6°C 59.1°F15.1°C 80% 8.0 mph E12.9 kmh E 10.0 mph16.1 kmh 30.05 in1017.6 mb 0.00 in0.0 mm 0.00 in0.0 mm 0.00 in0.0 mm
12:33 AM 65.4°F18.6°C 59.1°F15.1°C 80% 7.0 mph E11.3 kmh E 9.0 mph14.5 kmh 30.05 in1017.6 mb 0.00 in0.0 mm 0.00 in0.0 mm 0.00 in0.0 mm
12:34 AM 65.4°F18.6°C 59.1°F15.1°C 80% 7.4 mph E11.9 kmh E 10.0 mph16.1 kmh 30.05 in1017.6 mb 0.00 in0.0 mm 0.00 in0.0 mm 0.00 in0.0 mm
12:35 AM 65.3°F18.5°C 59.0°F15.0°C 80% 8.0 mph E12.9 kmh E 10.0 mph16.1 kmh 30.05 in1017.6 mb 0.00 in0.0 mm 0.00 in0.0 mm 0.00 in0.0 mm
12:36 AM 65.3°F18.5°C 59.0°F15.0°C 80% 8.0 mph E12.9 kmh E 10.0 mph16.1 kmh 30.05 in1017.6 mb 0.00 in0.0 mm 0.00 in0.0 mm 0.00 in0.0 mm
12:37 AM 65.3°F18.5°C 59.0°F15.0°C 80% 7.0 mph E11.3 kmh E 9.0 mph14.5 kmh 30.05 in1017.6 mb 0.00 in0.0 mm 0.00 in0.0 mm 0.00 in0.0 mm
12:38 AM 65.2°F18.4°C 58.9°F14.9°C 80% 6.0 mph E9.7 kmh E 8.0 mph12.9 kmh 30.05 in1017.6 mb 0.00 in0.0 mm 0.00 in0.0 mm 0.00 in0.0 mm
12:39 AM 65.2°F18.4°C 58.9°F14.9°C 80% 6.2 mph E10.0 kmh E 9.0 mph14.5 kmh 30.05 in1017.6 mb 0.00 in0.0 mm 0.00 in0.0 mm 0.00 in0.0 mm
12:40 AM 65.2°F18.4°C 58.9°F14.9°C 80% 7.0 mph E11.3 kmh E 9.0 mph14.5 kmh 30.05 in1017.6 mb 0.00 in0.0 mm 0.00 in0.0 mm 0.00 in0.0 mm
12:41 AM 65.2°F18.4°C 58.9°F14.9°C 80% 8.0 mph E12.9 kmh E 11.0 mph17.7 kmh 30.05 in1017.6 mb 0.00 in0.0 mm 0.00 in0.0 mm 0.00 in0.0 mm
12:42 AM 65.2°F18.4°C 58.9°F14.9°C 80% 8.0 mph E12.9 kmh E 10.0 mph16.1 kmh 30.05 in1017.6 mb 0.00 in0.0 mm 0.00 in0.0 mm 0.00 in0.0 mm
12:43 AM 65.1°F18.4°C 58.8°F14.9°C 80% 9.0 mph E14.5 kmh E 11.0 mph17.7 kmh 30.05 in1017.6 mb 0.00 in0.0 mm 0.00 in0.0 mm 0.00 in0.0 mm
12:44 AM 65.2°F18.4°C 58.9°F14.9°C 80% 8.0 mph E12.9 kmh E 9.0 mph14.5 kmh 30.05 in1017.6 mb 0.00 in0.0 mm 0.00 in0.0 mm 0.00 in0.0 mm
12:45 AM 65.2°F18.4°C 58.9°F14.9°C 80% 8.9 mph E14.3 kmh E 11.0 mph17.7 kmh 30.05 in1017.6 mb 0.00 in0.0 mm 0.00 in0.0 mm 0.00 in0.0 mm
12:46 AM 65.2°F18.4°C 58.9°F14.9°C 80% 9.0 mph E14.5 kmh E 10.0 mph16.1 kmh 30.05 in1017.6 mb 0.00 in0.0 mm 0.00 in0.0 mm 0.00 in0.0 mm
12:47 AM 65.2°F18.4°C 58.9°F14.9°C 80% 7.0 mph E11.3 kmh E 10.0 mph16.1 kmh 30.05 in1017.6 mb 0.00 in0.0 mm 0.00 in0.0 mm 0.00 in0.0 mm
12:48 AM 65.2°F18.4°C 58.9°F14.9°C 80% 9.0 mph E14.5 kmh E 11.0 mph17.7 kmh 30.05 in1017.6 mb 0.00 in0.0 mm 0.00 in0.0 mm 0.00 in0.0 mm
12:49 AM 65.2°F18.4°C 58.5°F14.7°C 79% 6.0 mph E9.7 kmh E 9.0 mph14.5 kmh 30.05 in1017.6 mb 0.00 in0.0 mm 0.00 in0.0 mm 0.00 in0.0 mm
12:50 AM 65.2°F18.4°C 58.5°F14.7°C 79% 7.0 mph E11.3 kmh E 9.0 mph14.5 kmh 30.05 in1017.6 mb 0.00 in0.0 mm 0.00 in0.0 mm 0.00 in0.0 mm
12:51 AM 65.1°F18.4°C 58.4°F14.7°C 79% 8.0 mph E12.9 kmh E 9.0 mph14.5 kmh 30.05 in1017.6 mb 0.00 in0.0 mm 0.00 in0.0 mm 0.00 in0.0 mm
12:52 AM 65.1°F18.4°C 58.4°F14.7°C 79% 7.0 mph E11.3 kmh E 10.0 mph16.1 kmh 30.05 in1017.6 mb 0.00 in0.0 mm 0.00 in0.0 mm 0.00 in0.0 mm
12:53 AM 65.1°F18.4°C 58.8°F14.9°C 80% 7.0 mph E11.3 kmh E 9.0 mph14.5 kmh 30.05 in1017.6 mb 0.00 in0.0 mm 0.00 in0.0 mm 0.00 in0.0 mm
12:54 AM 65.0°F18.3°C 58.7°F14.8°C 80% 7.0 mph E11.3 kmh E 9.0 mph14.5 kmh 30.05 in1017.6 mb 0.00 in0.0 mm 0.00 in0.0 mm 0.00 in0.0 mm
12:55 AM 65.0°F18.3°C 58.7°F14.8°C 80% 8.0 mph E12.9 kmh E 11.0 mph17.7 kmh 30.05 in1017.6 mb 0.00 in0.0 mm 0.00 in0.0 mm 0.00 in0.0 mm
12:56 AM 64.9°F18.3°C 58.6°F14.8°C 80% 7.0 mph E11.3 kmh E 9.0 mph14.5 kmh 30.05 in1017.6 mb 0.00 in0.0 mm 0.00 in0.0 mm 0.00 in0.0 mm
12:57 AM 64.9°F18.3°C 58.6°F14.8°C 80% 7.0 mph E11.3 kmh E 9.0 mph14.5 kmh 30.05 in1017.6 mb 0.00 in0.0 mm 0.00 in0.0 mm 0.00 in0.0 mm
12:58 AM 64.9°F18.3°C 58.6°F14.8°C 80% 7.0 mph E11.3 kmh E 11.0 mph17.7 kmh 30.05 in1017.6 mb 0.00 in0.0 mm 0.00 in0.0 mm 0.00 in0.0 mm
12:59 AM 64.8°F18.2°C 58.5°F14.7°C 80% 6.0 mph E9.7 kmh E 9.0 mph14.5 kmh 30.05 in1017.6 mb 0.00 in0.0 mm 0.00 in0.0 mm 0.00 in0.0 mm
01:00 AM 64.8°F18.2°C 58.5°F14.7°C 80% 6.0 mph E9.7 kmh E 9.0 mph14.5 kmh 30.05 in1017.6 mb 0.00 in0.0 mm 0.00 in0.0 mm 0.00 in0.0 mm
01:01 AM 64.8°F18.2°C 58.5°F14.7°C 80% 6.0 mph E9.7 kmh E 8.0 mph12.9 kmh 30.05 in1017.6 mb 0.00 in0.0 mm 0.00 in0.0 mm 0.00 in0.0 mm
01:02 AM 64.7°F18.2°C 58.4°F14.7°C 80% 7.0 mph E11.3 kmh E 9.0 mph14.5 kmh 30.05 in1017.6 mb 0.00 in0.0 mm 0.00 in0.0 mm 0.00 in0.0 mm
01:03 AM 64.7°F18.2°C 58.4°F14.7°C 80% 7.0 mph E11.3 kmh E 8.0 mph12.9 kmh 30.05 in1017.6 mb 0.00 in0.0 mm 0.00 in0.0 mm 0.00 in0.0 mm
01:04 AM 64.7°F18.2°C 58.4°F14.7°C 80% 5.0 mph E8.0 kmh E 7.0 mph11.3 kmh 30.05 in1017.6 mb 0.00 in0.0 mm 0.00 in0.0 mm 0.00 in0.0 mm
01:05 AM 64.6°F18.1°C 58.3°F14.6°C 80% 6.3 mph E10.1 kmh E 9.0 mph14.5 kmh 30.05 in1017.6 mb 0.00 in0.0 mm 0.00 in0.0 mm 0.00 in0.0 mm
01:06 AM 64.6°F18.1°C 58.3°F14.6°C 80% 6.0 mph E9.7 kmh E 9.0 mph14.5 kmh 30.05 in1017.6 mb 0.00 in0.0 mm 0.00 in0.0 mm 0.00 in0.0 mm
01:07 AM 64.6°F18.1°C 58.3°F14.6°C 80% 5.0 mph E8.0 kmh E 7.0 mph11.3 kmh 30.05 in1017.6 mb 0.00 in0.0 mm 0.00 in0.0 mm 0.00 in0.0 mm
01:08 AM 64.5°F18.1°C 58.2°F14.6°C 80% 3.0 mph E4.8 kmh E 4.0 mph6.4 kmh 30.05 in1017.6 mb 0.00 in0.0 mm 0.00 in0.0 mm 0.00 in0.0 mm
01:09 AM 64.5°F18.1°C 58.2°F14.6°C 80% 5.0 mph E8.0 kmh E 7.0 mph11.3 kmh 30.05 in1017.6 mb 0.00 in0.0 mm 0.00 in0.0 mm 0.00 in0.0 mm
01:10 AM 64.4°F18.0°C 58.1°F14.5°C 80% 5.1 mph E8.2 kmh E 8.0 mph12.9 kmh 30.05 in1017.6 mb 0.00 in0.0 mm 0.00 in0.0 mm 0.00 in0.0 mm
01:11 AM 64.4°F18.0°C 58.1°F14.5°C 80% 6.0 mph E9.7 kmh E 8.0 mph12.9 kmh 30.05 in1017.6 mb 0.00 in0.0 mm 0.00 in0.0 mm 0.00 in0.0 mm
01:12 AM 64.4°F18.0°C 58.1°F14.5°C 80% 6.0 mph E9.7 kmh E 7.0 mph11.3 kmh 30.05 in1017.6 mb 0.00 in0.0 mm 0.00 in0.0 mm 0.00 in0.0 mm
01:13 AM 64.4°F18.0°C 58.1°F14.5°C 80% 7.0 mph E11.3 kmh E 10.0 mph16.1 kmh 30.05 in1017.6 mb 0.00 in0.0 mm 0.00 in0.0 mm 0.00 in0.0 mm
01:14 AM 64.4°F18.0°C 58.1°F14.5°C 80% 7.0 mph E11.3 kmh E 8.0 mph12.9 kmh 30.05 in1017.6 mb 0.00 in0.0 mm 0.00 in0.0 mm 0.00 in0.0 mm
01:15 AM 64.4°F18.0°C 58.1°F14.5°C 80% 6.0 mph E9.7 kmh E 9.0 mph14.5 kmh 30.05 in1017.6 mb 0.00 in0.0 mm 0.00 in0.0 mm 0.00 in0.0 mm
01:16 AM 64.4°F18.0°C 58.1°F14.5°C 80% 7.0 mph E11.3 kmh E 9.0 mph14.5 kmh 30.05 in1017.6 mb 0.00 in0.0 mm 0.00 in0.0 mm 0.00 in0.0 mm
01:17 AM 64.4°F18.0°C 58.1°F14.5°C 80% 7.0 mph E11.3 kmh E 10.0 mph16.1 kmh 30.05 in1017.6 mb 0.00 in0.0 mm 0.00 in0.0 mm 0.00 in0.0 mm
01:18 AM 64.4°F18.0°C 58.1°F14.5°C 80% 7.0 mph E11.3 kmh E 8.0 mph12.9 kmh 30.05 in1017.6 mb 0.00 in0.0 mm 0.00 in0.0 mm 0.00 in0.0 mm
01:19 AM 64.4°F18.0°C 58.1°F14.5°C 80% 6.0 mph E9.7 kmh E 8.0 mph12.9 kmh 30.05 in1017.6 mb 0.00 in0.0 mm 0.00 in0.0 mm 0.00 in0.0 mm
01:20 AM 64.4°F18.0°C 58.1°F14.5°C 80% 7.0 mph E11.3 kmh E 9.0 mph14.5 kmh 30.05 in1017.6 mb 0.00 in0.0 mm 0.00 in0.0 mm 0.00 in0.0 mm
01:21 AM 64.4°F18.0°C 58.1°F14.5°C 80% 7.0 mph E11.3 kmh E 8.0 mph12.9 kmh 30.05 in1017.6 mb 0.00 in0.0 mm 0.00 in0.0 mm 0.00 in0.0 mm
01:22 AM 64.4°F18.0°C 58.1°F14.5°C 80% 7.6 mph E12.2 kmh E 9.0 mph14.5 kmh 30.05 in1017.6 mb 0.00 in0.0 mm 0.00 in0.0 mm 0.00 in0.0 mm
01:23 AM 64.3°F17.9°C 58.0°F14.4°C 80% 6.0 mph E9.7 kmh E 8.0 mph12.9 kmh 30.05 in1017.6 mb 0.00 in0.0 mm 0.00 in0.0 mm 0.00 in0.0 mm
01:24 AM 64.3°F17.9°C 58.0°F14.4°C 80% 6.0 mph E9.7 kmh E 8.0 mph12.9 kmh 30.05 in1017.6 mb 0.00 in0.0 mm 0.00 in0.0 mm 0.00 in0.0 mm
01:25 AM 64.3°F17.9°C 58.0°F14.4°C 80% 6.0 mph E9.7 kmh E 8.0 mph12.9 kmh 30.05 in1017.6 mb 0.00 in0.0 mm 0.00 in0.0 mm 0.00 in0.0 mm
01:26 AM 64.2°F17.9°C 57.9°F14.4°C 80% 7.0 mph E11.3 kmh E 8.0 mph12.9 kmh 30.05 in1017.6 mb 0.00 in0.0 mm 0.00 in0.0 mm 0.00 in0.0 mm
01:27 AM 64.2°F17.9°C 57.9°F14.4°C 80% 7.6 mph E12.2 kmh E 9.0 mph14.5 kmh 30.05 in1017.6 mb 0.00 in0.0 mm 0.00 in0.0 mm 0.00 in0.0 mm
01:28 AM 64.2°F17.9°C 57.9°F14.4°C 80% 8.0 mph E12.9 kmh E 9.0 mph14.5 kmh 30.05 in1017.6 mb 0.00 in0.0 mm 0.00 in0.0 mm 0.00 in0.0 mm
01:29 AM 64.2°F17.9°C 58.2°F14.6°C 81% 6.0 mph E9.7 kmh E 9.0 mph14.5 kmh 30.05 in1017.6 mb 0.00 in0.0 mm 0.00 in0.0 mm 0.00 in0.0 mm
01:30 AM 64.1°F17.8°C 58.1°F14.5°C 81% 7.0 mph E11.3 kmh E 9.0 mph14.5 kmh 30.05 in1017.6 mb 0.00 in0.0 mm 0.00 in0.0 mm 0.00 in0.0 mm
01:31 AM 64.1°F17.8°C 58.1°F14.5°C 81% 7.0 mph E11.3 kmh E 10.0 mph16.1 kmh 30.05 in1017.6 mb 0.00 in0.0 mm 0.00 in0.0 mm 0.00 in0.0 mm
01:32 AM 64.1°F17.8°C 58.1°F14.5°C 81% 7.0 mph E11.3 kmh E 11.0 mph17.7 kmh 30.05 in1017.6 mb 0.00 in0.0 mm 0.00 in0.0 mm 0.00 in0.0 mm
01:33 AM 64.1°F17.8°C 58.1°F14.5°C 81% 8.0 mph E12.9 kmh E 10.0 mph16.1 kmh 30.05 in1017.6 mb 0.00 in0.0 mm 0.00 in0.0 mm 0.00 in0.0 mm
01:34 AM 64.1°F17.8°C 58.1°F14.5°C 81% 7.0 mph E11.3 kmh E 10.0 mph16.1 kmh 30.05 in1017.6 mb 0.00 in0.0 mm 0.00 in0.0 mm 0.00 in0.0 mm
01:35 AM 64.0°F17.8°C 58.0°F14.4°C 81% 7.0 mph E11.3 kmh E 9.0 mph14.5 kmh 30.05 in1017.6 mb 0.00 in0.0 mm 0.00 in0.0 mm 0.00 in0.0 mm
01:36 AM 64.0°F17.8°C 58.0°F14.4°C 81% 7.0 mph E11.3 kmh E 9.0 mph14.5 kmh 30.05 in1017.6 mb 0.00 in0.0 mm 0.00 in0.0 mm 0.00 in0.0 mm
01:37 AM 64.0°F17.8°C 58.0°F14.4°C 81% 8.0 mph E12.9 kmh E 11.0 mph17.7 kmh 30.05 in1017.6 mb 0.00 in0.0 mm 0.00 in0.0 mm 0.00 in0.0 mm
01:38 AM 64.0°F17.8°C 58.0°F14.4°C 81% 7.0 mph E11.3 kmh E 8.0 mph12.9 kmh 30.05 in1017.6 mb 0.00 in0.0 mm 0.00 in0.0 mm 0.00 in0.0 mm
01:39 AM 63.9°F17.7°C 57.9°F14.4°C 81% 7.2 mph E11.6 kmh E 9.0 mph14.5 kmh 30.05 in1017.6 mb 0.00 in0.0 mm 0.00 in0.0 mm 0.00 in0.0 mm
01:40 AM 63.9°F17.7°C 57.9°F14.4°C 81% 6.2 mph E10.0 kmh E 9.0 mph14.5 kmh 30.05 in1017.6 mb 0.00 in0.0 mm 0.00 in0.0 mm 0.00 in0.0 mm
01:41 AM 63.9°F17.7°C 57.9°F14.4°C 81% 6.0 mph E9.7 kmh E 9.0 mph14.5 kmh 30.05 in1017.6 mb 0.00 in0.0 mm 0.00 in0.0 mm 0.00 in0.0 mm
01:42 AM 63.8°F17.7°C 57.9°F14.4°C 81% 7.0 mph E11.3 kmh E 9.0 mph14.5 kmh 30.05 in1017.6 mb 0.00 in0.0 mm 0.00 in0.0 mm 0.00 in0.0 mm
01:43 AM 63.7°F17.6°C 57.8°F14.3°C 81% 7.0 mph E11.3 kmh E 10.0 mph16.1 kmh 30.05 in1017.6 mb 0.00 in0.0 mm 0.00 in0.0 mm 0.00 in0.0 mm
01:44 AM 63.7°F17.6°C 57.8°F14.3°C 81% 7.0 mph E11.3 kmh E 9.0 mph14.5 kmh 30.05 in1017.6 mb 0.00 in0.0 mm 0.00 in0.0 mm 0.00 in0.0 mm
01:45 AM 63.8°F17.7°C 57.9°F14.4°C 81% 7.0 mph E11.3 kmh E 8.0 mph12.9 kmh 30.05 in1017.6 mb 0.00 in0.0 mm 0.00 in0.0 mm 0.00 in0.0 mm
01:46 AM 63.7°F17.6°C 57.8°F14.3°C 81% 7.0 mph E11.3 kmh E 9.0 mph14.5 kmh 30.05 in1017.6 mb 0.00 in0.0 mm 0.00 in0.0 mm 0.00 in0.0 mm
01:47 AM 63.6°F17.6°C 57.7°F14.3°C 81% 5.0 mph E8.0 kmh E 8.0 mph12.9 kmh 30.05 in1017.6 mb 0.00 in0.0 mm 0.00 in0.0 mm 0.00 in0.0 mm
01:48 AM 63.6°F17.6°C 57.7°F14.3°C 81% 6.0 mph E9.7 kmh E 9.0 mph14.5 kmh 30.05 in1017.6 mb 0.00 in0.0 mm 0.00 in0.0 mm 0.00 in0.0 mm
01:49 AM 63.6°F17.6°C 57.7°F14.3°C 81% 8.0 mph E12.9 kmh E 10.0 mph16.1 kmh 30.05 in1017.6 mb 0.00 in0.0 mm 0.00 in0.0 mm 0.00 in0.0 mm
01:50 AM 63.6°F17.6°C 57.7°F14.3°C 81% 8.0 mph E12.9 kmh E 10.0 mph16.1 kmh 30.05 in1017.6 mb 0.00 in0.0 mm 0.00 in0.0 mm 0.00 in0.0 mm
01:51 AM 63.6°F17.6°C 57.7°F14.3°C 81% 9.0 mph E14.5 kmh E 10.0 mph16.1 kmh 30.05 in1017.6 mb 0.00 in0.0 mm 0.00 in0.0 mm 0.00 in0.0 mm
01:52 AM 63.6°F17.6°C 57.7°F14.3°C 81% 7.0 mph E11.3 kmh E 9.0 mph14.5 kmh 30.05 in1017.6 mb 0.00 in0.0 mm 0.00 in0.0 mm 0.00 in0.0 mm
01:53 AM 63.6°F17.6°C 57.7°F14.3°C 81% 7.0 mph E11.3 kmh E 10.0 mph16.1 kmh 30.05 in1017.6 mb 0.00 in0.0 mm 0.00 in0.0 mm 0.00 in0.0 mm
01:54 AM 63.6°F17.6°C 57.7°F14.3°C 81% 8.0 mph E12.9 kmh E 10.0 mph16.1 kmh 30.05 in1017.6 mb 0.00 in0.0 mm 0.00 in0.0 mm 0.00 in0.0 mm
01:55 AM 63.6°F17.6°C 57.7°F14.3°C 81% 8.0 mph E12.9 kmh E 10.0 mph16.1 kmh 30.05 in1017.6 mb 0.00 in0.0 mm 0.00 in0.0 mm 0.00 in0.0 mm
01:56 AM 63.6°F17.6°C 57.7°F14.3°C 81% 8.0 mph E12.9 kmh E 9.0 mph14.5 kmh 30.05 in1017.6 mb 0.00 in0.0 mm 0.00 in0.0 mm 0.00 in0.0 mm
01:57 AM 63.6°F17.6°C 57.7°F14.3°C 81% 7.0 mph E11.3 kmh E 10.0 mph16.1 kmh 30.05 in1017.6 mb 0.00 in0.0 mm 0.00 in0.0 mm 0.00 in0.0 mm
01:58 AM 63.6°F17.6°C 57.7°F14.3°C 81% 8.0 mph E12.9 kmh E 11.0 mph17.7 kmh 30.05 in1017.6 mb 0.00 in0.0 mm 0.00 in0.0 mm 0.00 in0.0 mm
01:59 AM 63.6°F17.6°C 57.7°F14.3°C 81% 7.7 mph E12.4 kmh E 9.0 mph14.5 kmh 30.05 in1017.6 mb 0.00 in0.0 mm 0.00 in0.0 mm 0.00 in0.0 mm
02:00 AM 63.6°F17.6°C 57.7°F14.3°C 81% 8.0 mph E12.9 kmh E 10.0 mph16.1 kmh 30.05 in1017.6 mb 0.00 in0.0 mm 0.00 in0.0 mm 0.00 in0.0 mm
02:01 AM 63.6°F17.6°C 57.7°F14.3°C 81% 8.0 mph E12.9 kmh E 10.0 mph16.1 kmh 30.05 in1017.6 mb 0.00 in0.0 mm 0.00 in0.0 mm 0.00 in0.0 mm
02:02 AM 63.7°F17.6°C 57.8°F14.3°C 81% 8.0 mph E12.9 kmh E 11.0 mph17.7 kmh 30.05 in1017.6 mb 0.00 in0.0 mm 0.00 in0.0 mm 0.00 in0.0 mm
02:03 AM 63.7°F17.6°C 57.8°F14.3°C 81% 7.0 mph E11.3 kmh E 11.0 mph17.7 kmh 30.05 in1017.6 mb 0.00 in0.0 mm 0.00 in0.0 mm 0.00 in0.0 mm
02:04 AM 63.7°F17.6°C 57.8°F14.3°C 81% 8.0 mph E12.9 kmh E 10.0 mph16.1 kmh 30.05 in1017.6 mb 0.00 in0.0 mm 0.00 in0.0 mm 0.00 in0.0 mm
02:05 AM 63.7°F17.6°C 57.8°F14.3°C 81% 7.8 mph E12.6 kmh E 9.0 mph14.5 kmh 30.05 in1017.6 mb 0.00 in0.0 mm 0.00 in0.0 mm 0.00 in0.0 mm
02:06 AM 63.8°F17.7°C 57.9°F14.4°C 81% 7.0 mph E11.3 kmh E 9.0 mph14.5 kmh 30.05 in1017.6 mb 0.00 in0.0 mm 0.00 in0.0 mm 0.00 in0.0 mm
02:07 AM 63.7°F17.6°C 57.8°F14.3°C 81% 7.0 mph E11.3 kmh E 10.0 mph16.1 kmh 30.05 in1017.6 mb 0.00 in0.0 mm 0.00 in0.0 mm 0.00 in0.0 mm
02:08 AM 63.7°F17.6°C 57.8°F14.3°C 81% 6.6 mph E10.6 kmh E 9.0 mph14.5 kmh 30.05 in1017.6 mb 0.00 in0.0 mm 0.00 in0.0 mm 0.00 in0.0 mm
02:09 AM 63.8°F17.7°C 57.9°F14.4°C 81% 7.7 mph E12.4 kmh E 10.0 mph16.1 kmh 30.05 in1017.6 mb 0.00 in0.0 mm 0.00 in0.0 mm 0.00 in0.0 mm
02:10 AM 63.7°F17.6°C 57.8°F14.3°C 81% 7.8 mph E12.6 kmh E 11.0 mph17.7 kmh 30.05 in1017.6 mb 0.00 in0.0 mm 0.00 in0.0 mm 0.00 in0.0 mm
02:11 AM 63.7°F17.6°C 57.8°F14.3°C 81% 8.0 mph E12.9 kmh E 10.0 mph16.1 kmh 30.05 in1017.6 mb 0.00 in0.0 mm 0.00 in0.0 mm 0.00 in0.0 mm
02:12 AM 63.7°F17.6°C 57.8°F14.3°C 81% 8.0 mph E12.9 kmh E 10.0 mph16.1 kmh 30.05 in1017.6 mb 0.00 in0.0 mm 0.00 in0.0 mm 0.00 in0.0 mm
02:13 AM 63.7°F17.6°C 57.8°F14.3°C 81% 8.0 mph E12.9 kmh E 10.0 mph16.1 kmh 30.05 in1017.6 mb 0.00 in0.0 mm 0.00 in0.0 mm 0.00 in0.0 mm
02:14 AM 63.7°F17.6°C 57.8°F14.3°C 81% 8.9 mph E14.3 kmh E 12.0 mph19.3 kmh 30.05 in1017.6 mb 0.00 in0.0 mm 0.00 in0.0 mm 0.00 in0.0 mm
02:15 AM 63.6°F17.6°C 57.7°F14.3°C 81% 8.0 mph E12.9 kmh E 11.0 mph17.7 kmh 30.05 in1017.6 mb 0.00 in0.0 mm 0.00 in0.0 mm 0.00 in0.0 mm
02:16 AM 63.6°F17.6°C 57.7°F14.3°C 81% 8.0 mph E12.9 kmh E 11.0 mph17.7 kmh 30.05 in1017.6 mb 0.00 in0.0 mm 0.00 in0.0 mm 0.00 in0.0 mm
02:17 AM 63.7°F17.6°C 57.4°F14.1°C 80% 9.0 mph E14.5 kmh E 12.0 mph19.3 kmh 30.05 in1017.6 mb 0.00 in0.0 mm 0.00 in0.0 mm 0.00 in0.0 mm
02:18 AM 63.8°F17.7°C 57.5°F14.2°C 80% 8.0 mph E12.9 kmh E 10.0 mph16.1 kmh 30.05 in1017.6 mb 0.00 in0.0 mm 0.00 in0.0 mm 0.00 in0.0 mm
02:19 AM 63.8°F17.7°C 57.5°F14.2°C 80% 8.0 mph E12.9 kmh E 9.0 mph14.5 kmh 30.05 in1017.6 mb 0.00 in0.0 mm 0.00 in0.0 mm 0.00 in0.0 mm
02:20 AM 63.8°F17.7°C 57.5°F14.2°C 80% 8.0 mph E12.9 kmh E 10.0 mph16.1 kmh 30.05 in1017.6 mb 0.00 in0.0 mm 0.00 in0.0 mm 0.00 in0.0 mm
02:21 AM 63.8°F17.7°C 57.5°F14.2°C 80% 7.0 mph E11.3 kmh E 9.0 mph14.5 kmh 30.05 in1017.6 mb 0.00 in0.0 mm 0.00 in0.0 mm 0.00 in0.0 mm
02:22 AM 63.8°F17.7°C 57.5°F14.2°C 80% 7.0 mph E11.3 kmh E 9.0 mph14.5 kmh 30.05 in1017.6 mb 0.00 in0.0 mm 0.00 in0.0 mm 0.00 in0.0 mm
02:23 AM 63.8°F17.7°C 57.5°F14.2°C 80% 7.0 mph E11.3 kmh E 10.0 mph16.1 kmh 30.05 in1017.6 mb 0.00 in0.0 mm 0.00 in0.0 mm 0.00 in0.0 mm
02:24 AM 63.7°F17.6°C 57.4°F14.1°C 80% 7.0 mph E11.3 kmh E 8.0 mph12.9 kmh 30.05 in1017.6 mb 0.00 in0.0 mm 0.00 in0.0 mm 0.00 in0.0 mm
02:25 AM 63.8°F17.7°C 57.5°F14.2°C 80% 8.3 mph E13.4 kmh E 10.0 mph16.1 kmh 30.05 in1017.6 mb 0.00 in0.0 mm 0.00 in0.0 mm 0.00 in0.0 mm
02:26 AM 63.7°F17.6°C 57.4°F14.1°C 80% 7.0 mph E11.3 kmh E 10.0 mph16.1 kmh 30.05 in1017.6 mb 0.00 in0.0 mm 0.00 in0.0 mm 0.00 in0.0 mm
02:27 AM 63.8°F17.7°C 57.5°F14.2°C 80% 8.0 mph E12.9 kmh E 11.0 mph17.7 kmh 30.05 in1017.6 mb 0.00 in0.0 mm 0.00 in0.0 mm 0.00 in0.0 mm
02:28 AM 63.7°F17.6°C 57.4°F14.1°C 80% 7.8 mph E12.6 kmh E 9.0 mph14.5 kmh 30.05 in1017.6 mb 0.00 in0.0 mm 0.00 in0.0 mm 0.00 in0.0 mm
02:29 AM 63.8°F17.7°C 57.5°F14.2°C 80% 7.8 mph E12.6 kmh E 10.0 mph16.1 kmh 30.05 in1017.6 mb 0.00 in0.0 mm 0.00 in0.0 mm 0.00 in0.0 mm
02:30 AM 63.7°F17.6°C 57.4°F14.1°C 80% 8.0 mph E12.9 kmh E 9.0 mph14.5 kmh 30.05 in1017.6 mb 0.00 in0.0 mm 0.00 in0.0 mm 0.00 in0.0 mm
02:31 AM 63.8°F17.7°C 57.5°F14.2°C 80% 8.0 mph E12.9 kmh E 11.0 mph17.7 kmh 30.05 in1017.6 mb 0.00 in0.0 mm 0.00 in0.0 mm 0.00 in0.0 mm
02:32 AM 63.7°F17.6°C 57.4°F14.1°C 80% 8.0 mph E12.9 kmh E 11.0 mph17.7 kmh 30.05 in1017.6 mb 0.00 in0.0 mm 0.00 in0.0 mm 0.00 in0.0 mm
02:33 AM 63.7°F17.6°C 57.4°F14.1°C 80% 8.0 mph E12.9 kmh E 10.0 mph16.1 kmh 30.05 in1017.6 mb 0.00 in0.0 mm 0.00 in0.0 mm 0.00 in0.0 mm
02:34 AM 63.6°F17.6°C 57.3°F14.1°C 80% 7.0 mph E11.3 kmh E 9.0 mph14.5 kmh 30.05 in1017.6 mb 0.00 in0.0 mm 0.00 in0.0 mm 0.00 in0.0 mm
02:35 AM 63.6°F17.6°C 57.3°F14.1°C 80% 9.0 mph E14.5 kmh E 11.0 mph17.7 kmh 30.05 in1017.6 mb 0.00 in0.0 mm 0.00 in0.0 mm 0.00 in0.0 mm
02:36 AM 63.6°F17.6°C 57.3°F14.1°C 80% 9.0 mph E14.5 kmh E 11.0 mph17.7 kmh 30.05 in1017.6 mb 0.00 in0.0 mm 0.00 in0.0 mm 0.00 in0.0 mm
02:37 AM 63.6°F17.6°C 57.3°F14.1°C 80% 8.0 mph E12.9 kmh E 9.0 mph14.5 kmh 30.05 in1017.6 mb 0.00 in0.0 mm 0.00 in0.0 mm 0.00 in0.0 mm
02:38 AM 63.6°F17.6°C 57.3°F14.1°C 80% 8.0 mph E12.9 kmh E 11.0 mph17.7 kmh 30.05 in1017.6 mb 0.00 in0.0 mm 0.00 in0.0 mm 0.00 in0.0 mm
02:39 AM 63.6°F17.6°C 57.3°F14.1°C 80% 8.0 mph E12.9 kmh E 10.0 mph16.1 kmh 30.05 in1017.6 mb 0.00 in0.0 mm 0.00 in0.0 mm 0.00 in0.0 mm
02:40 AM 63.5°F17.5°C 57.2°F14.0°C 80% 8.0 mph E12.9 kmh E 12.0 mph19.3 kmh 30.05 in1017.6 mb 0.00 in0.0 mm 0.00 in0.0 mm 0.00 in0.0 mm
02:41 AM 63.6°F17.6°C 57.3°F14.1°C 80% 8.0 mph E12.9 kmh E 12.0 mph19.3 kmh 30.05 in1017.6 mb 0.00 in0.0 mm 0.00 in0.0 mm 0.00 in0.0 mm
02:42 AM 63.6°F17.6°C 57.3°F14.1°C 80% 9.0 mph E14.5 kmh E 12.0 mph19.3 kmh 30.05 in1017.6 mb 0.00 in0.0 mm 0.00 in0.0 mm 0.00 in0.0 mm
02:43 AM 63.5°F17.5°C 57.2°F14.0°C 80% 7.0 mph E11.3 kmh E 10.0 mph16.1 kmh 30.05 in1017.6 mb 0.00 in0.0 mm 0.00 in0.0 mm 0.00 in0.0 mm
02:44 AM 63.6°F17.6°C 57.3°F14.1°C 80% 8.0 mph E12.9 kmh E 11.0 mph17.7 kmh 30.05 in1017.6 mb 0.00 in0.0 mm 0.00 in0.0 mm 0.00 in0.0 mm
02:45 AM 63.5°F17.5°C 57.2°F14.0°C 80% 8.0 mph E12.9 kmh E 8.0 mph12.9 kmh 30.05 in1017.6 mb 0.00 in0.0 mm 0.00 in0.0 mm 0.00 in0.0 mm
02:46 AM 63.5°F17.5°C 57.2°F14.0°C 80% 8.0 mph E12.9 kmh E 11.0 mph17.7 kmh 30.05 in1017.6 mb 0.00 in0.0 mm 0.00 in0.0 mm 0.00 in0.0 mm
02:47 AM 63.5°F17.5°C 57.2°F14.0°C 80% 8.0 mph E12.9 kmh E 10.0 mph16.1 kmh 30.05 in1017.6 mb 0.00 in0.0 mm 0.00 in0.0 mm 0.00 in0.0 mm
02:48 AM 63.5°F17.5°C 57.2°F14.0°C 80% 8.0 mph E12.9 kmh E 10.0 mph16.1 kmh 30.05 in1017.6 mb 0.00 in0.0 mm 0.00 in0.0 mm 0.00 in0.0 mm
02:49 AM 63.5°F17.5°C 57.2°F14.0°C 80% 8.0 mph E12.9 kmh E 10.0 mph16.1 kmh 30.05 in1017.6 mb 0.00 in0.0 mm 0.00 in0.0 mm 0.00 in0.0 mm
02:50 AM 63.5°F17.5°C 57.2°F14.0°C 80% 7.0 mph E11.3 kmh E 9.0 mph14.5 kmh 30.05 in1017.6 mb 0.00 in0.0 mm 0.00 in0.0 mm 0.00 in0.0 mm
02:51 AM 63.5°F17.5°C 57.2°F14.0°C 80% 8.0 mph E12.9 kmh E 9.0 mph14.5 kmh 30.05 in1017.6 mb 0.00 in0.0 mm 0.00 in0.0 mm 0.00 in0.0 mm
02:52 AM 63.5°F17.5°C 57.2°F14.0°C 80% 8.3 mph E13.4 kmh E 10.0 mph16.1 kmh 30.05 in1017.6 mb 0.00 in0.0 mm 0.00 in0.0 mm 0.00 in0.0 mm
02:53 AM 63.6°F17.6°C 57.3°F14.1°C 80% 7.0 mph E11.3 kmh E 9.0 mph14.5 kmh 30.05 in1017.6 mb 0.00 in0.0 mm 0.00 in0.0 mm 0.00 in0.0 mm
02:54 AM 63.5°F17.5°C 57.2°F14.0°C 80% 8.0 mph E12.9 kmh E 10.0 mph16.1 kmh 30.05 in1017.6 mb 0.00 in0.0 mm 0.00 in0.0 mm 0.00 in0.0 mm
02:55 AM 63.6°F17.6°C 57.3°F14.1°C 80% 7.0 mph E11.3 kmh E 9.0 mph14.5 kmh 30.05 in1017.6 mb 0.00 in0.0 mm 0.00 in0.0 mm 0.00 in0.0 mm
02:56 AM 63.5°F17.5°C 57.2°F14.0°C 80% 6.0 mph E9.7 kmh E 9.0 mph14.5 kmh 30.05 in1017.6 mb 0.00 in0.0 mm 0.00 in0.0 mm 0.00 in0.0 mm
02:57 AM 63.5°F17.5°C 57.2°F14.0°C 80% 7.0 mph E11.3 kmh E 9.0 mph14.5 kmh 30.05 in1017.6 mb 0.00 in0.0 mm 0.00 in0.0 mm 0.00 in0.0 mm
02:58 AM 63.5°F17.5°C 57.2°F14.0°C 80% 7.0 mph E11.3 kmh E 9.0 mph14.5 kmh 30.05 in1017.6 mb 0.00 in0.0 mm 0.00 in0.0 mm 0.00 in0.0 mm
02:59 AM 63.5°F17.5°C 57.2°F14.0°C 80% 8.0 mph E12.9 kmh E 10.0 mph16.1 kmh 30.05 in1017.6 mb 0.00 in0.0 mm 0.00 in0.0 mm 0.00 in0.0 mm
03:00 AM 63.5°F17.5°C 57.2°F14.0°C 80% 7.1 mph E11.4 kmh E 9.0 mph14.5 kmh 30.05 in1017.6 mb 0.00 in0.0 mm 0.00 in0.0 mm 0.00 in0.0 mm
03:01 AM 63.4°F17.4°C 57.1°F13.9°C 80% 8.0 mph E12.9 kmh E 10.0 mph16.1 kmh 30.05 in1017.6 mb 0.00 in0.0 mm 0.00 in0.0 mm 0.00 in0.0 mm
03:02 AM 63.5°F17.5°C 57.2°F14.0°C 80% 8.0 mph E12.9 kmh E 11.0 mph17.7 kmh 30.05 in1017.6 mb 0.00 in0.0 mm 0.00 in0.0 mm 0.00 in0.0 mm
03:03 AM 63.4°F17.4°C 57.1°F13.9°C 80% 7.0 mph E11.3 kmh E 10.0 mph16.1 kmh 30.05 in1017.6 mb 0.00 in0.0 mm 0.00 in0.0 mm 0.00 in0.0 mm
03:04 AM 63.4°F17.4°C 57.1°F13.9°C 80% 8.2 mph E13.2 kmh E 9.0 mph14.5 kmh 30.05 in1017.6 mb 0.00 in0.0 mm 0.00 in0.0 mm 0.00 in0.0 mm
03:05 AM 63.4°F17.4°C 57.1°F13.9°C 80% 9.0 mph E14.5 kmh E 10.0 mph16.1 kmh 30.05 in1017.6 mb 0.00 in0.0 mm 0.00 in0.0 mm 0.00 in0.0 mm
03:06 AM 63.3°F17.4°C 57.0°F13.9°C 80% 8.0 mph E12.9 kmh E 10.0 mph16.1 kmh 30.05 in1017.6 mb 0.00 in0.0 mm 0.00 in0.0 mm 0.00 in0.0 mm
03:07 AM 63.3°F17.4°C 57.0°F13.9°C 80% 7.9 mph E12.7 kmh E 8.0 mph12.9 kmh 30.05 in1017.6 mb 0.00 in0.0 mm 0.00 in0.0 mm 0.00 in0.0 mm
03:08 AM 63.3°F17.4°C 57.0°F13.9°C 80% 9.0 mph E14.5 kmh E 11.0 mph17.7 kmh 30.05 in1017.6 mb 0.00 in0.0 mm 0.00 in0.0 mm 0.00 in0.0 mm
03:09 AM 63.3°F17.4°C 57.0°F13.9°C 80% 8.0 mph E12.9 kmh E 9.0 mph14.5 kmh 30.05 in1017.6 mb 0.00 in0.0 mm 0.00 in0.0 mm 0.00 in0.0 mm
03:10 AM 63.2°F17.3°C 56.6°F13.7°C 79% 7.0 mph E11.3 kmh E 10.0 mph16.1 kmh 30.05 in1017.6 mb 0.00 in0.0 mm 0.00 in0.0 mm 0.00 in0.0 mm
03:11 AM 63.2°F17.3°C 56.6°F13.7°C 79% 7.0 mph E11.3 kmh E 10.0 mph16.1 kmh 30.05 in1017.6 mb 0.00 in0.0 mm 0.00 in0.0 mm 0.00 in0.0 mm
03:12 AM 63.2°F17.3°C 56.6°F13.7°C 79% 7.0 mph E11.3 kmh E 8.0 mph12.9 kmh 30.05 in1017.6 mb 0.00 in0.0 mm 0.00 in0.0 mm 0.00 in0.0 mm
03:13 AM 63.2°F17.3°C 56.6°F13.7°C 79% 8.0 mph E12.9 kmh E 12.0 mph19.3 kmh 30.04 in1017.3 mb 0.00 in0.0 mm 0.00 in0.0 mm 0.00 in0.0 mm
03:14 AM 63.2°F17.3°C 56.6°F13.7°C 79% 8.0 mph E12.9 kmh E 10.0 mph16.1 kmh 30.04 in1017.3 mb 0.00 in0.0 mm 0.00 in0.0 mm 0.00 in0.0 mm
03:15 AM 63.2°F17.3°C 56.2°F13.4°C 78% 9.0 mph E14.5 kmh E 10.0 mph16.1 kmh 30.04 in1017.3 mb 0.00 in0.0 mm 0.00 in0.0 mm 0.00 in0.0 mm
03:16 AM 63.3°F17.4°C 56.3°F13.5°C 78% 8.0 mph E12.9 kmh E 10.0 mph16.1 kmh 30.05 in1017.6 mb 0.00 in0.0 mm 0.00 in0.0 mm 0.00 in0.0 mm
03:17 AM 63.3°F17.4°C 56.3°F13.5°C 78% 9.0 mph E14.5 kmh E 12.0 mph19.3 kmh 30.04 in1017.3 mb 0.00 in0.0 mm 0.00 in0.0 mm 0.00 in0.0 mm
03:18 AM 63.3°F17.4°C 56.3°F13.5°C 78% 9.0 mph E14.5 kmh E 11.0 mph17.7 kmh 30.04 in1017.3 mb 0.00 in0.0 mm 0.00 in0.0 mm 0.00 in0.0 mm
03:19 AM 63.4°F17.4°C 56.4°F13.6°C 78% 10.1 mph E16.3 kmh E 11.0 mph17.7 kmh 30.04 in1017.3 mb 0.00 in0.0 mm 0.00 in0.0 mm 0.00 in0.0 mm
03:20 AM 63.4°F17.4°C 56.1°F13.4°C 77% 8.0 mph E12.9 kmh E 10.0 mph16.1 kmh 30.04 in1017.3 mb 0.00 in0.0 mm 0.00 in0.0 mm 0.00 in0.0 mm
03:21 AM 63.5°F17.5°C 56.2°F13.4°C 77% 8.0 mph E12.9 kmh E 10.0 mph16.1 kmh 30.04 in1017.3 mb 0.00 in0.0 mm 0.00 in0.0 mm 0.00 in0.0 mm
03:22 AM 63.6°F17.6°C 56.3°F13.5°C 77% 8.7 mph E14.0 kmh E 10.0 mph16.1 kmh 30.04 in1017.3 mb 0.00 in0.0 mm 0.00 in0.0 mm 0.00 in0.0 mm
03:23 AM 63.6°F17.6°C 55.9°F13.3°C 76% 8.0 mph E12.9 kmh E 10.0 mph16.1 kmh 30.04 in1017.3 mb 0.00 in0.0 mm 0.00 in0.0 mm 0.00 in0.0 mm
03:24 AM 63.6°F17.6°C 55.9°F13.3°C 76% 9.0 mph E14.5 kmh E 11.0 mph17.7 kmh 30.04 in1017.3 mb 0.00 in0.0 mm 0.00 in0.0 mm 0.00 in0.0 mm
03:25 AM 63.6°F17.6°C 55.9°F13.3°C 76% 6.9 mph E11.1 kmh E 10.0 mph16.1 kmh 30.04 in1017.3 mb 0.00 in0.0 mm 0.00 in0.0 mm 0.00 in0.0 mm
03:26 AM 63.7°F17.6°C 56.0°F13.3°C 76% 9.0 mph E14.5 kmh E 11.0 mph17.7 kmh 30.04 in1017.3 mb 0.00 in0.0 mm 0.00 in0.0 mm 0.00 in0.0 mm
03:27 AM 63.7°F17.6°C 56.0°F13.3°C 76% 9.0 mph E14.5 kmh E 12.0 mph19.3 kmh 30.04 in1017.3 mb 0.00 in0.0 mm 0.00 in0.0 mm 0.00 in0.0 mm
03:28 AM 63.7°F17.6°C 55.6°F13.1°C 75% 9.0 mph E14.5 kmh E 11.0 mph17.7 kmh 30.04 in1017.3 mb 0.00 in0.0 mm 0.00 in0.0 mm 0.00 in0.0 mm
03:29 AM 63.7°F17.6°C 55.6°F13.1°C 75% 9.0 mph E14.5 kmh E 11.0 mph17.7 kmh 30.04 in1017.3 mb 0.00 in0.0 mm 0.00 in0.0 mm 0.00 in0.0 mm
03:30 AM 63.8°F17.7°C 55.7°F13.2°C 75% 9.0 mph E14.5 kmh E 12.0 mph19.3 kmh 30.04 in1017.3 mb 0.00 in0.0 mm 0.00 in0.0 mm 0.00 in0.0 mm
03:31 AM 63.9°F17.7°C 55.8°F13.2°C 75% 8.0 mph E12.9 kmh E 11.0 mph17.7 kmh 30.04 in1017.3 mb 0.00 in0.0 mm 0.00 in0.0 mm 0.00 in0.0 mm
03:32 AM 63.9°F17.7°C 55.8°F13.2°C 75% 9.0 mph E14.5 kmh E 11.0 mph17.7 kmh 30.04 in1017.3 mb 0.00 in0.0 mm 0.00 in0.0 mm 0.00 in0.0 mm
03:33 AM 63.9°F17.7°C 55.8°F13.2°C 75% 8.0 mph E12.9 kmh E 10.0 mph16.1 kmh 30.04 in1017.3 mb 0.00 in0.0 mm 0.00 in0.0 mm 0.00 in0.0 mm
03:34 AM 63.9°F17.7°C 55.8°F13.2°C 75% 8.0 mph E12.9 kmh E 10.0 mph16.1 kmh 30.04 in1017.3 mb 0.00 in0.0 mm 0.00 in0.0 mm 0.00 in0.0 mm
03:35 AM 63.8°F17.7°C 55.7°F13.2°C 75% 9.0 mph E14.5 kmh E 10.0 mph16.1 kmh 30.04 in1017.3 mb 0.00 in0.0 mm 0.00 in0.0 mm 0.00 in0.0 mm
03:36 AM 63.8°F17.7°C 55.7°F13.2°C 75% 9.0 mph E14.5 kmh E 11.0 mph17.7 kmh 30.04 in1017.3 mb 0.00 in0.0 mm 0.00 in0.0 mm 0.00 in0.0 mm
03:37 AM 63.8°F17.7°C 55.7°F13.2°C 75% 7.9 mph E12.7 kmh E 9.0 mph14.5 kmh 30.04 in1017.3 mb 0.00 in0.0 mm 0.00 in0.0 mm 0.00 in0.0 mm
03:38 AM 63.8°F17.7°C 55.7°F13.2°C 75% 9.0 mph E14.5 kmh E 10.0 mph16.1 kmh 30.04 in1017.3 mb 0.00 in0.0 mm 0.00 in0.0 mm 0.00 in0.0 mm
03:39 AM 63.7°F17.6°C 55.6°F13.1°C 75% 9.0 mph E14.5 kmh E 10.0 mph16.1 kmh 30.04 in1017.3 mb 0.00 in0.0 mm 0.00 in0.0 mm 0.00 in0.0 mm
03:40 AM 63.6°F17.6°C 55.5°F13.1°C 75% 8.0 mph E12.9 kmh E 10.0 mph16.1 kmh 30.04 in1017.3 mb 0.00 in0.0 mm 0.00 in0.0 mm 0.00 in0.0 mm
03:41 AM 63.6°F17.6°C 55.5°F13.1°C 75% 8.0 mph E12.9 kmh E 11.0 mph17.7 kmh 30.04 in1017.3 mb 0.00 in0.0 mm 0.00 in0.0 mm 0.00 in0.0 mm
03:42 AM 63.6°F17.6°C 55.5°F13.1°C 75% 9.0 mph E14.5 kmh E 11.0 mph17.7 kmh 30.04 in1017.3 mb 0.00 in0.0 mm 0.00 in0.0 mm 0.00 in0.0 mm
03:43 AM 63.6°F17.6°C 55.5°F13.1°C 75% 9.0 mph E14.5 kmh E 10.0 mph16.1 kmh 30.04 in1017.3 mb 0.00 in0.0 mm 0.00 in0.0 mm 0.00 in0.0 mm
03:44 AM 63.6°F17.6°C 55.5°F13.1°C 75% 8.0 mph E12.9 kmh E 10.0 mph16.1 kmh 30.04 in1017.3 mb 0.00 in0.0 mm 0.00 in0.0 mm 0.00 in0.0 mm
03:45 AM 63.6°F17.6°C 55.5°F13.1°C 75% 7.6 mph E12.2 kmh E 9.0 mph14.5 kmh 30.04 in1017.3 mb 0.00 in0.0 mm 0.00 in0.0 mm 0.00 in0.0 mm
03:46 AM 63.5°F17.5°C 55.4°F13.0°C 75% 8.0 mph E12.9 kmh E 10.0 mph16.1 kmh 30.04 in1017.3 mb 0.00 in0.0 mm 0.00 in0.0 mm 0.00 in0.0 mm
03:47 AM 63.5°F17.5°C 55.4°F13.0°C 75% 8.0 mph E12.9 kmh E 11.0 mph17.7 kmh 30.04 in1017.3 mb 0.00 in0.0 mm 0.00 in0.0 mm 0.00 in0.0 mm
03:48 AM 63.5°F17.5°C 55.4°F13.0°C 75% 8.0 mph E12.9 kmh E 9.0 mph14.5 kmh 30.04 in1017.3 mb 0.00 in0.0 mm 0.00 in0.0 mm 0.00 in0.0 mm
03:49 AM 63.4°F17.4°C 55.3°F12.9°C 75% 9.0 mph E14.5 kmh E 11.0 mph17.7 kmh 30.04 in1017.3 mb 0.00 in0.0 mm 0.00 in0.0 mm 0.00 in0.0 mm
03:50 AM 63.4°F17.4°C 55.0°F12.8°C 74% 8.0 mph E12.9 kmh E 11.0 mph17.7 kmh 30.04 in1017.3 mb 0.00 in0.0 mm 0.00 in0.0 mm 0.00 in0.0 mm
03:51 AM 63.4°F17.4°C 55.0°F12.8°C 74% 9.0 mph E14.5 kmh E 11.0 mph17.7 kmh 30.04 in1017.3 mb 0.00 in0.0 mm 0.00 in0.0 mm 0.00 in0.0 mm
03:52 AM 63.4°F17.4°C 55.3°F12.9°C 75% 9.0 mph E14.5 kmh E 10.0 mph16.1 kmh 30.04 in1017.3 mb 0.00 in0.0 mm 0.00 in0.0 mm 0.00 in0.0 mm
03:53 AM 63.4°F17.4°C 55.0°F12.8°C 74% 9.0 mph E14.5 kmh E 10.0 mph16.1 kmh 30.04 in1017.3 mb 0.00 in0.0 mm 0.00 in0.0 mm 0.00 in0.0 mm
03:54 AM 63.5°F17.5°C 55.1°F12.8°C 74% 8.0 mph E12.9 kmh E 10.0 mph16.1 kmh 30.04 in1017.3 mb 0.00 in0.0 mm 0.00 in0.0 mm 0.00 in0.0 mm
03:55 AM 63.5°F17.5°C 55.1°F12.8°C 74% 8.0 mph E12.9 kmh E 11.0 mph17.7 kmh 30.04 in1017.3 mb 0.00 in0.0 mm 0.00 in0.0 mm 0.00 in0.0 mm
03:56 AM 63.5°F17.5°C 55.1°F12.8°C 74% 9.0 mph E14.5 kmh E 11.0 mph17.7 kmh 30.04 in1017.3 mb 0.00 in0.0 mm 0.00 in0.0 mm 0.00 in0.0 mm
03:57 AM 63.5°F17.5°C 55.1°F12.8°C 74% 9.3 mph E15.0 kmh E 10.0 mph16.1 kmh 30.04 in1017.3 mb 0.00 in0.0 mm 0.00 in0.0 mm 0.00 in0.0 mm
03:58 AM 63.5°F17.5°C 55.1°F12.8°C 74% 8.0 mph E12.9 kmh E 10.0 mph16.1 kmh 30.04 in1017.3 mb 0.00 in0.0 mm 0.00 in0.0 mm 0.00 in0.0 mm
03:59 AM 63.5°F17.5°C 55.1°F12.8°C 74% 8.0 mph E12.9 kmh E 11.0 mph17.7 kmh 30.04 in1017.3 mb 0.00 in0.0 mm 0.00 in0.0 mm 0.00 in0.0 mm
04:00 AM 63.5°F17.5°C 55.1°F12.8°C 74% 8.0 mph E12.9 kmh E 11.0 mph17.7 kmh 30.04 in1017.3 mb 0.00 in0.0 mm 0.00 in0.0 mm 0.00 in0.0 mm
04:01 AM 63.5°F17.5°C 55.1°F12.8°C 74% 10.0 mph E16.1 kmh E 13.0 mph20.9 kmh 30.04 in1017.3 mb 0.00 in0.0 mm 0.00 in0.0 mm 0.00 in0.0 mm
04:02 AM 63.4°F17.4°C 55.0°F12.8°C 74% 8.0 mph E12.9 kmh E 10.0 mph16.1 kmh 30.04 in1017.3 mb 0.00 in0.0 mm 0.00 in0.0 mm 0.00 in0.0 mm
04:03 AM 63.4°F17.4°C 55.0°F12.8°C 74% 6.9 mph E11.1 kmh E 9.0 mph14.5 kmh 30.04 in1017.3 mb 0.00 in0.0 mm 0.00 in0.0 mm 0.00 in0.0 mm
04:04 AM 63.4°F17.4°C 55.0°F12.8°C 74% 7.6 mph E12.2 kmh E 11.0 mph17.7 kmh 30.04 in1017.3 mb 0.00 in0.0 mm 0.00 in0.0 mm 0.00 in0.0 mm
04:05 AM 63.4°F17.4°C 55.0°F12.8°C 74% 9.0 mph E14.5 kmh E 12.0 mph19.3 kmh 30.04 in1017.3 mb 0.00 in0.0 mm 0.00 in0.0 mm 0.00 in0.0 mm
04:06 AM 63.4°F17.4°C 55.0°F12.8°C 74% 7.0 mph E11.3 kmh E 9.0 mph14.5 kmh 30.04 in1017.3 mb 0.00 in0.0 mm 0.00 in0.0 mm 0.00 in0.0 mm
04:07 AM 63.4°F17.4°C 55.0°F12.8°C 74% 8.0 mph E12.9 kmh E 11.0 mph17.7 kmh 30.04 in1017.3 mb 0.00 in0.0 mm 0.00 in0.0 mm 0.00 in0.0 mm
04:08 AM 63.4°F17.4°C 55.0°F12.8°C 74% 10.0 mph E16.1 kmh E 11.0 mph17.7 kmh 30.04 in1017.3 mb 0.00 in0.0 mm 0.00 in0.0 mm 0.00 in0.0 mm
04:09 AM 63.4°F17.4°C 55.0°F12.8°C 74% 10.0 mph E16.1 kmh E 12.0 mph19.3 kmh 30.04 in1017.3 mb 0.00 in0.0 mm 0.00 in0.0 mm 0.00 in0.0 mm
04:10 AM 63.5°F17.5°C 55.1°F12.8°C 74% 9.0 mph E14.5 kmh E 10.0 mph16.1 kmh 30.04 in1017.3 mb 0.00 in0.0 mm 0.00 in0.0 mm 0.00 in0.0 mm
04:11 AM 63.5°F17.5°C 55.1°F12.8°C 74% 9.0 mph E14.5 kmh E 11.0 mph17.7 kmh 30.04 in1017.3 mb 0.00 in0.0 mm 0.00 in0.0 mm 0.00 in0.0 mm
04:12 AM 63.5°F17.5°C 55.1°F12.8°C 74% 9.0 mph E14.5 kmh E 11.0 mph17.7 kmh 30.04 in1017.3 mb 0.00 in0.0 mm 0.00 in0.0 mm 0.00 in0.0 mm
04:13 AM 63.6°F17.6°C 55.2°F12.9°C 74% 9.0 mph E14.5 kmh E 11.0 mph17.7 kmh 30.04 in1017.3 mb 0.00 in0.0 mm 0.00 in0.0 mm 0.00 in0.0 mm
04:14 AM 63.5°F17.5°C 55.1°F12.8°C 74% 8.0 mph E12.9 kmh E 12.0 mph19.3 kmh 30.04 in1017.3 mb 0.00 in0.0 mm 0.00 in0.0 mm 0.00 in0.0 mm
04:15 AM 63.5°F17.5°C 55.1°F12.8°C 74% 10.0 mph E16.1 kmh E 12.0 mph19.3 kmh 30.04 in1017.3 mb 0.00 in0.0 mm 0.00 in0.0 mm 0.00 in0.0 mm
04:16 AM 63.5°F17.5°C 55.1°F12.8°C 74% 9.0 mph E14.5 kmh E 14.0 mph22.5 kmh 30.04 in1017.3 mb 0.00 in0.0 mm 0.00 in0.0 mm 0.00 in0.0 mm
04:17 AM 63.5°F17.5°C 55.1°F12.8°C 74% 10.0 mph E16.1 kmh E 12.0 mph19.3 kmh 30.04 in1017.3 mb 0.00 in0.0 mm 0.00 in0.0 mm 0.00 in0.0 mm
04:18 AM 63.5°F17.5°C 55.1°F12.8°C 74% 9.5 mph E15.3 kmh E 12.0 mph19.3 kmh 30.04 in1017.3 mb 0.00 in0.0 mm 0.00 in0.0 mm 0.00 in0.0 mm
04:19 AM 63.5°F17.5°C 55.1°F12.8°C 74% 8.0 mph E12.9 kmh E 11.0 mph17.7 kmh 30.04 in1017.3 mb 0.00 in0.0 mm 0.00 in0.0 mm 0.00 in0.0 mm
04:20 AM 63.4°F17.4°C 55.0°F12.8°C 74% 8.0 mph E12.9 kmh E 11.0 mph17.7 kmh 30.04 in1017.3 mb 0.00 in0.0 mm 0.00 in0.0 mm 0.00 in0.0 mm
04:21 AM 63.5°F17.5°C 55.1°F12.8°C 74% 9.0 mph E14.5 kmh E 11.0 mph17.7 kmh 30.04 in1017.3 mb 0.00 in0.0 mm 0.00 in0.0 mm 0.00 in0.0 mm
04:22 AM 63.4°F17.4°C 55.0°F12.8°C 74% 9.0 mph E14.5 kmh E 13.0 mph20.9 kmh 30.04 in1017.3 mb 0.00 in0.0 mm 0.00 in0.0 mm 0.00 in0.0 mm
04:23 AM 63.4°F17.4°C 55.0°F12.8°C 74% 8.0 mph E12.9 kmh E 11.0 mph17.7 kmh 30.04 in1017.3 mb 0.00 in0.0 mm 0.00 in0.0 mm 0.00 in0.0 mm
04:24 AM 63.4°F17.4°C 55.0°F12.8°C 74% 9.0 mph E14.5 kmh E 12.0 mph19.3 kmh 30.04 in1017.3 mb 0.00 in0.0 mm 0.00 in0.0 mm 0.00 in0.0 mm
04:25 AM 63.4°F17.4°C 55.0°F12.8°C 74% 10.0 mph E16.1 kmh E 13.0 mph20.9 kmh 30.04 in1017.3 mb 0.00 in0.0 mm 0.00 in0.0 mm 0.00 in0.0 mm
04:26 AM 63.4°F17.4°C 55.0°F12.8°C 74% 8.4 mph E13.5 kmh E 10.0 mph16.1 kmh 30.04 in1017.3 mb 0.00 in0.0 mm 0.00 in0.0 mm 0.00 in0.0 mm
04:27 AM 63.4°F17.4°C 55.0°F12.8°C 74% 10.0 mph E16.1 kmh E 12.0 mph19.3 kmh 30.04 in1017.3 mb 0.00 in0.0 mm 0.00 in0.0 mm 0.00 in0.0 mm
04:28 AM 63.4°F17.4°C 55.0°F12.8°C 74% 9.0 mph E14.5 kmh E 11.0 mph17.7 kmh 30.04 in1017.3 mb 0.00 in0.0 mm 0.00 in0.0 mm 0.00 in0.0 mm
04:29 AM 63.4°F17.4°C 55.0°F12.8°C 74% 9.0 mph E14.5 kmh E 12.0 mph19.3 kmh 30.04 in1017.3 mb 0.00 in0.0 mm 0.00 in0.0 mm 0.00 in0.0 mm
04:30 AM 63.4°F17.4°C 55.0°F12.8°C 74% 9.0 mph E14.5 kmh E 13.0 mph20.9 kmh 30.04 in1017.3 mb 0.00 in0.0 mm 0.00 in0.0 mm 0.00 in0.0 mm
04:31 AM 63.5°F17.5°C 54.7°F12.6°C 73% 9.0 mph E14.5 kmh E 11.0 mph17.7 kmh 30.04 in1017.3 mb 0.00 in0.0 mm 0.00 in0.0 mm 0.00 in0.0 mm
04:32 AM 63.5°F17.5°C 54.7°F12.6°C 73% 9.0 mph E14.5 kmh E 12.0 mph19.3 kmh 30.04 in1017.3 mb 0.00 in0.0 mm 0.00 in0.0 mm 0.00 in0.0 mm
04:33 AM 63.5°F17.5°C 54.7°F12.6°C 73% 10.0 mph E16.1 kmh E 11.0 mph17.7 kmh 30.04 in1017.3 mb 0.00 in0.0 mm 0.00 in0.0 mm 0.00 in0.0 mm
04:34 AM 63.6°F17.6°C 54.8°F12.7°C 73% 9.0 mph E14.5 kmh E 11.0 mph17.7 kmh 30.04 in1017.3 mb 0.00 in0.0 mm 0.00 in0.0 mm 0.00 in0.0 mm
04:35 AM 63.6°F17.6°C 54.8°F12.7°C 73% 9.0 mph E14.5 kmh E 11.0 mph17.7 kmh 30.04 in1017.3 mb 0.00 in0.0 mm 0.00 in0.0 mm 0.00 in0.0 mm
04:36 AM 63.6°F17.6°C 54.8°F12.7°C 73% 7.6 mph E12.2 kmh E 9.0 mph14.5 kmh 30.04 in1017.3 mb 0.00 in0.0 mm 0.00 in0.0 mm 0.00 in0.0 mm
04:37 AM 63.6°F17.6°C 54.8°F12.7°C 73% 9.3 mph E15.0 kmh E 13.0 mph20.9 kmh 30.04 in1017.3 mb 0.00 in0.0 mm 0.00 in0.0 mm 0.00 in0.0 mm
04:38 AM 63.6°F17.6°C 54.8°F12.7°C 73% 8.9 mph E14.3 kmh E 13.0 mph20.9 kmh 30.04 in1017.3 mb 0.00 in0.0 mm 0.00 in0.0 mm 0.00 in0.0 mm
04:39 AM 63.6°F17.6°C 54.8°F12.7°C 73% 9.0 mph E14.5 kmh E 11.0 mph17.7 kmh 30.04 in1017.3 mb 0.00 in0.0 mm 0.00 in0.0 mm 0.00 in0.0 mm
04:40 AM 63.6°F17.6°C 54.8°F12.7°C 73% 8.0 mph E12.9 kmh E 10.0 mph16.1 kmh 30.04 in1017.3 mb 0.00 in0.0 mm 0.00 in0.0 mm 0.00 in0.0 mm
04:41 AM 63.6°F17.6°C 54.8°F12.7°C 73% 7.8 mph E12.6 kmh E 9.0 mph14.5 kmh 30.04 in1017.3 mb 0.00 in0.0 mm 0.00 in0.0 mm 0.00 in0.0 mm
04:42 AM 63.6°F17.6°C 54.8°F12.7°C 73% 8.1 mph E13.0 kmh E 10.0 mph16.1 kmh 30.04 in1017.3 mb 0.00 in0.0 mm 0.00 in0.0 mm 0.00 in0.0 mm
04:43 AM 63.7°F17.6°C 54.9°F12.7°C 73% 9.1 mph E14.6 kmh E 11.0 mph17.7 kmh 30.04 in1017.3 mb 0.00 in0.0 mm 0.00 in0.0 mm 0.00 in0.0 mm
04:44 AM 63.7°F17.6°C 54.9°F12.7°C 73% 8.2 mph E13.2 kmh E 11.0 mph17.7 kmh 30.04 in1017.3 mb 0.00 in0.0 mm 0.00 in0.0 mm 0.00 in0.0 mm
04:45 AM 63.7°F17.6°C 54.9°F12.7°C 73% 8.0 mph E12.9 kmh E 11.0 mph17.7 kmh 30.04 in1017.3 mb 0.00 in0.0 mm 0.00 in0.0 mm 0.00 in0.0 mm
04:46 AM 63.7°F17.6°C 54.9°F12.7°C 73% 9.0 mph E14.5 kmh E 12.0 mph19.3 kmh 30.04 in1017.3 mb 0.00 in0.0 mm 0.00 in0.0 mm 0.00 in0.0 mm
04:47 AM 63.7°F17.6°C 54.9°F12.7°C 73% 7.6 mph E12.2 kmh E 10.0 mph16.1 kmh 30.04 in1017.3 mb 0.00 in0.0 mm 0.00 in0.0 mm 0.00 in0.0 mm
04:48 AM 63.7°F17.6°C 54.5°F12.5°C 72% 8.9 mph E14.3 kmh E 12.0 mph19.3 kmh 30.04 in1017.3 mb 0.00 in0.0 mm 0.00 in0.0 mm 0.00 in0.0 mm
04:49 AM 63.8°F17.7°C 54.6°F12.6°C 72% 9.0 mph E14.5 kmh E 12.0 mph19.3 kmh 30.04 in1017.3 mb 0.00 in0.0 mm 0.00 in0.0 mm 0.00 in0.0 mm
04:50 AM 63.9°F17.7°C 54.7°F12.6°C 72% 10.0 mph E16.1 kmh E 12.0 mph19.3 kmh 30.04 in1017.3 mb 0.00 in0.0 mm 0.00 in0.0 mm 0.00 in0.0 mm
04:51 AM 63.9°F17.7°C 54.7°F12.6°C 72% 9.8 mph E15.8 kmh E 10.0 mph16.1 kmh 30.04 in1017.3 mb 0.00 in0.0 mm 0.00 in0.0 mm 0.00 in0.0 mm
04:52 AM 64.0°F17.8°C 54.8°F12.7°C 72% 9.0 mph E14.5 kmh E 11.0 mph17.7 kmh 30.04 in1017.3 mb 0.00 in0.0 mm 0.00 in0.0 mm 0.00 in0.0 mm
04:53 AM 64.0°F17.8°C 54.8°F12.7°C 72% 9.0 mph E14.5 kmh E 10.0 mph16.1 kmh 30.04 in1017.3 mb 0.00 in0.0 mm 0.00 in0.0 mm 0.00 in0.0 mm
04:54 AM 64.0°F17.8°C 54.8°F12.7°C 72% 8.0 mph E12.9 kmh E 10.0 mph16.1 kmh 30.04 in1017.3 mb 0.00 in0.0 mm 0.00 in0.0 mm 0.00 in0.0 mm
04:55 AM 64.0°F17.8°C 54.8°F12.7°C 72% 8.0 mph E12.9 kmh E 10.0 mph16.1 kmh 30.04 in1017.3 mb 0.00 in0.0 mm 0.00 in0.0 mm 0.00 in0.0 mm
04:56 AM 64.1°F17.8°C 54.9°F12.7°C 72% 8.0 mph E12.9 kmh E 10.0 mph16.1 kmh 30.04 in1017.3 mb 0.00 in0.0 mm 0.00 in0.0 mm 0.00 in0.0 mm
04:57 AM 64.1°F17.8°C 54.9°F12.7°C 72% 7.7 mph E12.4 kmh E 12.0 mph19.3 kmh 30.04 in1017.3 mb 0.00 in0.0 mm 0.00 in0.0 mm 0.00 in0.0 mm
04:58 AM 64.1°F17.8°C 54.9°F12.7°C 72% 9.0 mph E14.5 kmh E 13.0 mph20.9 kmh 30.04 in1017.3 mb 0.00 in0.0 mm 0.00 in0.0 mm 0.00 in0.0 mm
04:59 AM 64.1°F17.8°C 54.9°F12.7°C 72% 9.0 mph E14.5 kmh E 12.0 mph19.3 kmh 30.04 in1017.3 mb 0.00 in0.0 mm 0.00 in0.0 mm 0.00 in0.0 mm
05:00 AM 64.1°F17.8°C 54.9°F12.7°C 72% 8.9 mph E14.3 kmh E 11.0 mph17.7 kmh 30.04 in1017.3 mb 0.00 in0.0 mm 0.00 in0.0 mm 0.00 in0.0 mm
05:01 AM 64.2°F17.9°C 55.0°F12.8°C 72% 9.1 mph E14.6 kmh E 12.0 mph19.3 kmh 30.04 in1017.3 mb 0.00 in0.0 mm 0.00 in0.0 mm 0.00 in0.0 mm
05:02 AM 64.2°F17.9°C 55.0°F12.8°C 72% 10.0 mph E16.1 kmh E 11.0 mph17.7 kmh 30.04 in1017.3 mb 0.00 in0.0 mm 0.00 in0.0 mm 0.00 in0.0 mm
05:03 AM 64.3°F17.9°C 55.1°F12.8°C 72% 9.0 mph E14.5 kmh E 12.0 mph19.3 kmh 30.04 in1017.3 mb 0.00 in0.0 mm 0.00 in0.0 mm 0.00 in0.0 mm
05:04 AM 64.3°F17.9°C 55.1°F12.8°C 72% 8.0 mph E12.9 kmh E 10.0 mph16.1 kmh 30.04 in1017.3 mb 0.00 in0.0 mm 0.00 in0.0 mm 0.00 in0.0 mm
05:05 AM 64.3°F17.9°C 55.1°F12.8°C 72% 10.0 mph E16.1 kmh E 12.0 mph19.3 kmh 30.04 in1017.3 mb 0.00 in0.0 mm 0.00 in0.0 mm 0.00 in0.0 mm
05:06 AM 64.3°F17.9°C 55.1°F12.8°C 72% 9.0 mph E14.5 kmh E 12.0 mph19.3 kmh 30.04 in1017.3 mb 0.00 in0.0 mm 0.00 in0.0 mm 0.00 in0.0 mm
05:07 AM 64.3°F17.9°C 55.1°F12.8°C 72% 8.4 mph E13.5 kmh E 10.0 mph16.1 kmh 30.04 in1017.3 mb 0.00 in0.0 mm 0.00 in0.0 mm 0.00 in0.0 mm
05:08 AM 64.3°F17.9°C 55.1°F12.8°C 72% 9.6 mph E15.4 kmh E 12.0 mph19.3 kmh 30.04 in1017.3 mb 0.00 in0.0 mm 0.00 in0.0 mm 0.00 in0.0 mm
05:09 AM 64.3°F17.9°C 55.1°F12.8°C 72% 10.0 mph E16.1 kmh E 12.0 mph19.3 kmh 30.04 in1017.3 mb 0.00 in0.0 mm 0.00 in0.0 mm 0.00 in0.0 mm
05:10 AM 64.3°F17.9°C 55.1°F12.8°C 72% 9.0 mph E14.5 kmh E 11.0 mph17.7 kmh 30.04 in1017.3 mb 0.00 in0.0 mm 0.00 in0.0 mm 0.00 in0.0 mm
05:11 AM 64.3°F17.9°C 55.1°F12.8°C 72% 10.0 mph E16.1 kmh E 11.0 mph17.7 kmh 30.04 in1017.3 mb 0.00 in0.0 mm 0.00 in0.0 mm 0.00 in0.0 mm
05:12 AM 64.3°F17.9°C 55.1°F12.8°C 72% 9.0 mph E14.5 kmh E 11.0 mph17.7 kmh 30.04 in1017.3 mb 0.00 in0.0 mm 0.00 in0.0 mm 0.00 in0.0 mm
05:13 AM 64.2°F17.9°C 55.0°F12.8°C 72% 10.0 mph E16.1 kmh E 14.0 mph22.5 kmh 30.04 in1017.3 mb 0.00 in0.0 mm 0.00 in0.0 mm 0.00 in0.0 mm
05:14 AM 64.3°F17.9°C 55.1°F12.8°C 72% 10.0 mph E16.1 kmh E 13.0 mph20.9 kmh 30.04 in1017.3 mb 0.00 in0.0 mm 0.00 in0.0 mm 0.00 in0.0 mm
05:15 AM 64.3°F17.9°C 55.1°F12.8°C 72% 10.0 mph E16.1 kmh E 12.0 mph19.3 kmh 30.04 in1017.3 mb 0.00 in0.0 mm 0.00 in0.0 mm 0.00 in0.0 mm
05:16 AM 64.3°F17.9°C 55.5°F13.1°C 73% 10.0 mph E16.1 kmh E 12.0 mph19.3 kmh 30.04 in1017.3 mb 0.00 in0.0 mm 0.00 in0.0 mm 0.00 in0.0 mm
05:17 AM 64.3°F17.9°C 55.5°F13.1°C 73% 9.0 mph E14.5 kmh E 12.0 mph19.3 kmh 30.04 in1017.3 mb 0.00 in0.0 mm 0.00 in0.0 mm 0.00 in0.0 mm
05:18 AM 64.3°F17.9°C 55.5°F13.1°C 73% 11.8 mph E19.0 kmh E 13.0 mph20.9 kmh 30.04 in1017.3 mb 0.00 in0.0 mm 0.00 in0.0 mm 0.00 in0.0 mm
05:19 AM 64.3°F17.9°C 55.5°F13.1°C 73% 9.5 mph E15.3 kmh E 13.0 mph20.9 kmh 30.04 in1017.3 mb 0.00 in0.0 mm 0.00 in0.0 mm 0.00 in0.0 mm
05:20 AM 64.4°F18.0°C 55.6°F13.1°C 73% 9.3 mph E15.0 kmh E 13.0 mph20.9 kmh 30.05 in1017.6 mb 0.00 in0.0 mm 0.00 in0.0 mm 0.00 in0.0 mm
05:21 AM 64.4°F18.0°C 55.6°F13.1°C 73% 9.0 mph E14.5 kmh E 11.0 mph17.7 kmh 30.05 in1017.6 mb 0.00 in0.0 mm 0.00 in0.0 mm 0.00 in0.0 mm
05:22 AM 64.4°F18.0°C 55.6°F13.1°C 73% 8.0 mph E12.9 kmh E 10.0 mph16.1 kmh 30.05 in1017.6 mb 0.00 in0.0 mm 0.00 in0.0 mm 0.00 in0.0 mm
05:23 AM 64.5°F18.1°C 55.6°F13.1°C 73% 8.0 mph E12.9 kmh E 11.0 mph17.7 kmh 30.05 in1017.6 mb 0.00 in0.0 mm 0.00 in0.0 mm 0.00 in0.0 mm
05:24 AM 64.5°F18.1°C 55.6°F13.1°C 73% 9.0 mph E14.5 kmh E 10.0 mph16.1 kmh 30.05 in1017.6 mb 0.00 in0.0 mm 0.00 in0.0 mm 0.00 in0.0 mm
05:25 AM 64.6°F18.1°C 55.7°F13.2°C 73% 10.0 mph E16.1 kmh E 12.0 mph19.3 kmh 30.05 in1017.6 mb 0.00 in0.0 mm 0.00 in0.0 mm 0.00 in0.0 mm
05:26 AM 64.6°F18.1°C 55.7°F13.2°C 73% 9.3 mph E15.0 kmh E 11.0 mph17.7 kmh 30.05 in1017.6 mb 0.00 in0.0 mm 0.00 in0.0 mm 0.00 in0.0 mm
05:27 AM 64.7°F18.2°C 55.8°F13.2°C 73% 8.0 mph E12.9 kmh E 10.0 mph16.1 kmh 30.05 in1017.6 mb 0.00 in0.0 mm 0.00 in0.0 mm 0.00 in0.0 mm
05:28 AM 64.7°F18.2°C 55.8°F13.2°C 73% 9.0 mph E14.5 kmh E 11.0 mph17.7 kmh 30.05 in1017.6 mb 0.00 in0.0 mm 0.00 in0.0 mm 0.00 in0.0 mm
05:29 AM 64.7°F18.2°C 55.8°F13.2°C 73% 8.0 mph E12.9 kmh E 10.0 mph16.1 kmh 30.05 in1017.6 mb 0.00 in0.0 mm 0.00 in0.0 mm 0.00 in0.0 mm
05:30 AM 64.7°F18.2°C 55.8°F13.2°C 73% 9.0 mph E14.5 kmh E 12.0 mph19.3 kmh 30.05 in1017.6 mb 0.00 in0.0 mm 0.00 in0.0 mm 0.00 in0.0 mm
05:31 AM 64.7°F18.2°C 55.8°F13.2°C 73% 7.0 mph E11.3 kmh E 11.0 mph17.7 kmh 30.05 in1017.6 mb 0.00 in0.0 mm 0.00 in0.0 mm 0.00 in0.0 mm
05:32 AM 64.8°F18.2°C 55.9°F13.3°C 73% 9.0 mph E14.5 kmh E 11.0 mph17.7 kmh 30.05 in1017.6 mb 0.00 in0.0 mm 0.00 in0.0 mm 0.00 in0.0 mm
05:33 AM 64.8°F18.2°C 55.9°F13.3°C 73% 9.3 mph E15.0 kmh E 10.0 mph16.1 kmh 30.05 in1017.6 mb 0.00 in0.0 mm 0.00 in0.0 mm 0.00 in0.0 mm
05:34 AM 64.8°F18.2°C 55.6°F13.1°C 72% 7.0 mph E11.3 kmh E 10.0 mph16.1 kmh 30.05 in1017.6 mb 0.00 in0.0 mm 0.00 in0.0 mm 0.00 in0.0 mm
05:35 AM 64.8°F18.2°C 55.9°F13.3°C 73% 9.0 mph E14.5 kmh E 11.0 mph17.7 kmh 30.05 in1017.6 mb 0.00 in0.0 mm 0.00 in0.0 mm 0.00 in0.0 mm
05:36 AM 64.9°F18.3°C 56.0°F13.3°C 73% 8.0 mph E12.9 kmh E 11.0 mph17.7 kmh 30.05 in1017.6 mb 0.00 in0.0 mm 0.00 in0.0 mm 0.00 in0.0 mm
05:37 AM 64.9°F18.3°C 56.0°F13.3°C 73% 8.0 mph E12.9 kmh E 11.0 mph17.7 kmh 30.05 in1017.6 mb 0.00 in0.0 mm 0.00 in0.0 mm 0.00 in0.0 mm
05:38 AM 65.0°F18.3°C 56.1°F13.4°C 73% 9.0 mph E14.5 kmh E 11.0 mph17.7 kmh 30.05 in1017.6 mb 0.00 in0.0 mm 0.00 in0.0 mm 0.00 in0.0 mm
05:39 AM 65.0°F18.3°C 56.1°F13.4°C 73% 8.0 mph E12.9 kmh E 10.0 mph16.1 kmh 30.05 in1017.6 mb 0.00 in0.0 mm 0.00 in0.0 mm 0.00 in0.0 mm
05:40 AM 65.0°F18.3°C 56.1°F13.4°C 73% 10.4 mph E16.7 kmh E 11.0 mph17.7 kmh 30.05 in1017.6 mb 0.00 in0.0 mm 0.00 in0.0 mm 0.00 in0.0 mm
05:41 AM 65.1°F18.4°C 56.2°F13.4°C 73% 8.0 mph E12.9 kmh E 10.0 mph16.1 kmh 30.05 in1017.6 mb 0.00 in0.0 mm 0.00 in0.0 mm 0.00 in0.0 mm
05:42 AM 65.1°F18.4°C 56.2°F13.4°C 73% 8.0 mph E12.9 kmh E 11.0 mph17.7 kmh 30.05 in1017.6 mb 0.00 in0.0 mm 0.00 in0.0 mm 0.00 in0.0 mm
05:43 AM 65.2°F18.4°C 56.3°F13.5°C 73% 11.0 mph E17.7 kmh E 14.0 mph22.5 kmh 30.04 in1017.3 mb 0.00 in0.0 mm 0.00 in0.0 mm 0.00 in0.0 mm
05:44 AM 65.3°F18.5°C 56.0°F13.3°C 72% 9.0 mph E14.5 kmh E 10.0 mph16.1 kmh 30.05 in1017.6 mb 0.00 in0.0 mm 0.00 in0.0 mm 0.00 in0.0 mm
05:45 AM 65.4°F18.6°C 56.1°F13.4°C 72% 7.0 mph E11.3 kmh E 9.0 mph14.5 kmh 30.05 in1017.6 mb 0.00 in0.0 mm 0.00 in0.0 mm 0.00 in0.0 mm
05:46 AM 65.5°F18.6°C 56.2°F13.4°C 72% 8.0 mph E12.9 kmh E 11.0 mph17.7 kmh 30.04 in1017.3 mb 0.00 in0.0 mm 0.00 in0.0 mm 0.00 in0.0 mm
05:47 AM 65.5°F18.6°C 56.2°F13.4°C 72% 8.0 mph E12.9 kmh E 10.0 mph16.1 kmh 30.05 in1017.6 mb 0.00 in0.0 mm 0.00 in0.0 mm 0.00 in0.0 mm
05:48 AM 65.6°F18.7°C 56.3°F13.5°C 72% 10.0 mph E16.1 kmh E 12.0 mph19.3 kmh 30.05 in1017.6 mb 0.00 in0.0 mm 0.00 in0.0 mm 0.00 in0.0 mm
05:49 AM 65.6°F18.7°C 56.3°F13.5°C 72% 9.8 mph E15.8 kmh E 12.0 mph19.3 kmh 30.05 in1017.6 mb 0.00 in0.0 mm 0.00 in0.0 mm 0.00 in0.0 mm
05:50 AM 65.6°F18.7°C 56.3°F13.5°C 72% 9.0 mph E14.5 kmh E 11.0 mph17.7 kmh 30.05 in1017.6 mb 0.00 in0.0 mm 0.00 in0.0 mm 0.00 in0.0 mm
05:51 AM 65.7°F18.7°C 56.4°F13.6°C 72% 9.0 mph E14.5 kmh E 12.0 mph19.3 kmh 30.05 in1017.6 mb 0.00 in0.0 mm 0.00 in0.0 mm 0.00 in0.0 mm
05:52 AM 65.8°F18.8°C 56.5°F13.6°C 72% 9.8 mph E15.8 kmh E 12.0 mph19.3 kmh 30.05 in1017.6 mb 0.00 in0.0 mm 0.00 in0.0 mm 0.00 in0.0 mm
05:53 AM 65.8°F18.8°C 56.5°F13.6°C 72% 9.0 mph E14.5 kmh E 12.0 mph19.3 kmh 30.05 in1017.6 mb 0.00 in0.0 mm 0.00 in0.0 mm 0.00 in0.0 mm
05:54 AM 65.9°F18.8°C 56.6°F13.7°C 72% 10.0 mph E16.1 kmh E 12.0 mph19.3 kmh 30.05 in1017.6 mb 0.00 in0.0 mm 0.00 in0.0 mm 0.00 in0.0 mm
05:55 AM 65.9°F18.8°C 56.6°F13.7°C 72% 9.9 mph E15.9 kmh E 12.0 mph19.3 kmh 30.05 in1017.6 mb 0.00 in0.0 mm 0.00 in0.0 mm 0.00 in0.0 mm
05:56 AM 66.0°F18.9°C 56.7°F13.7°C 72% 10.0 mph E16.1 kmh E 12.0 mph19.3 kmh 30.05 in1017.6 mb 0.00 in0.0 mm 0.00 in0.0 mm 0.00 in0.0 mm
05:57 AM 66.0°F18.9°C 56.7°F13.7°C 72% 9.0 mph E14.5 kmh E 11.0 mph17.7 kmh 30.05 in1017.6 mb 0.00 in0.0 mm 0.00 in0.0 mm 0.00 in0.0 mm
05:58 AM 66.0°F18.9°C 56.3°F13.5°C 71% 10.0 mph E16.1 kmh E 12.0 mph19.3 kmh 30.05 in1017.6 mb 0.00 in0.0 mm 0.00 in0.0 mm 0.00 in0.0 mm
05:59 AM 66.1°F18.9°C 56.4°F13.6°C 71% 10.0 mph E16.1 kmh E 12.0 mph19.3 kmh 30.05 in1017.6 mb 0.00 in0.0 mm 0.00 in0.0 mm 0.00 in0.0 mm
06:00 AM 66.1°F18.9°C 56.4°F13.6°C 71% 8.0 mph E12.9 kmh E 12.0 mph19.3 kmh 30.05 in1017.6 mb 0.00 in0.0 mm 0.00 in0.0 mm 0.00 in0.0 mm
06:01 AM 66.2°F19.0°C 56.5°F13.6°C 71% 9.0 mph E14.5 kmh E 13.0 mph20.9 kmh 30.05 in1017.6 mb 0.00 in0.0 mm 0.00 in0.0 mm 0.00 in0.0 mm
06:02 AM 66.2°F19.0°C 56.5°F13.6°C 71% 9.4 mph E15.1 kmh E 13.0 mph20.9 kmh 30.05 in1017.6 mb 0.00 in0.0 mm 0.00 in0.0 mm 0.00 in0.0 mm
06:03 AM 66.3°F19.1°C 56.6°F13.7°C 71% 9.0 mph E14.5 kmh E 12.0 mph19.3 kmh 30.05 in1017.6 mb 0.00 in0.0 mm 0.00 in0.0 mm 0.00 in0.0 mm
06:04 AM 66.3°F19.1°C 56.6°F13.7°C 71% 9.0 mph E14.5 kmh E 11.0 mph17.7 kmh 30.05 in1017.6 mb 0.00 in0.0 mm 0.00 in0.0 mm 0.00 in0.0 mm
06:05 AM 66.3°F19.1°C 56.6°F13.7°C 71% 5.0 mph E8.0 kmh E 7.0 mph11.3 kmh 30.05 in1017.6 mb 0.00 in0.0 mm 0.00 in0.0 mm 0.00 in0.0 mm
06:06 AM 66.4°F19.1°C 56.7°F13.7°C 71% 8.7 mph E14.0 kmh E 11.0 mph17.7 kmh 30.05 in1017.6 mb 0.00 in0.0 mm 0.00 in0.0 mm 0.00 in0.0 mm
06:07 AM 66.5°F19.2°C 56.8°F13.8°C 71% 8.0 mph E12.9 kmh E 10.0 mph16.1 kmh 30.05 in1017.6 mb 0.00 in0.0 mm 0.00 in0.0 mm 0.00 in0.0 mm
06:08 AM 66.5°F19.2°C 56.8°F13.8°C 71% 10.0 mph E16.1 kmh E 12.0 mph19.3 kmh 30.05 in1017.6 mb 0.00 in0.0 mm 0.00 in0.0 mm 0.00 in0.0 mm
06:09 AM 66.5°F19.2°C 56.8°F13.8°C 71% 9.0 mph E14.5 kmh E 11.0 mph17.7 kmh 30.05 in1017.6 mb 0.00 in0.0 mm 0.00 in0.0 mm 0.00 in0.0 mm
06:10 AM 66.5°F19.2°C 56.8°F13.8°C 71% 9.0 mph E14.5 kmh E 12.0 mph19.3 kmh 30.05 in1017.6 mb 0.00 in0.0 mm 0.00 in0.0 mm 0.00 in0.0 mm
06:11 AM 66.5°F19.2°C 56.8°F13.8°C 71% 11.0 mph E17.7 kmh E 14.0 mph22.5 kmh 30.05 in1017.6 mb 0.00 in0.0 mm 0.00 in0.0 mm 0.00 in0.0 mm
06:12 AM 66.6°F19.2°C 56.9°F13.8°C 71% 7.0 mph E11.3 kmh E 13.0 mph20.9 kmh 30.05 in1017.6 mb 0.00 in0.0 mm 0.00 in0.0 mm 0.00 in0.0 mm
06:13 AM 66.7°F19.3°C 57.0°F13.9°C 71% 9.0 mph E14.5 kmh E 12.0 mph19.3 kmh 30.05 in1017.6 mb 0.00 in0.0 mm 0.00 in0.0 mm 0.00 in0.0 mm
06:14 AM 66.7°F19.3°C 57.0°F13.9°C 71% 9.0 mph E14.5 kmh E 12.0 mph19.3 kmh 30.05 in1017.6 mb 0.00 in0.0 mm 0.00 in0.0 mm 0.00 in0.0 mm
06:15 AM 66.8°F19.3°C 57.1°F13.9°C 71% 9.0 mph E14.5 kmh E 11.0 mph17.7 kmh 30.05 in1017.6 mb 0.00 in0.0 mm 0.00 in0.0 mm 0.00 in0.0 mm
06:16 AM 66.8°F19.3°C 57.1°F13.9°C 71% 9.0 mph E14.5 kmh E 11.0 mph17.7 kmh 30.05 in1017.6 mb 0.00 in0.0 mm 0.00 in0.0 mm 0.00 in0.0 mm
06:17 AM 66.8°F19.3°C 57.1°F13.9°C 71% 8.0 mph E12.9 kmh E 10.0 mph16.1 kmh 30.05 in1017.6 mb 0.00 in0.0 mm 0.00 in0.0 mm 0.00 in0.0 mm
06:18 AM 66.8°F19.3°C 57.1°F13.9°C 71% 8.0 mph E12.9 kmh E 10.0 mph16.1 kmh 30.05 in1017.6 mb 0.00 in0.0 mm 0.00 in0.0 mm 0.00 in0.0 mm
06:19 AM 66.9°F19.4°C 57.2°F14.0°C 71% 8.8 mph E14.2 kmh E 11.0 mph17.7 kmh 30.05 in1017.6 mb 0.00 in0.0 mm 0.00 in0.0 mm 0.00 in0.0 mm
06:20 AM 67.0°F19.4°C 57.3°F14.1°C 71% 9.0 mph E14.5 kmh E 11.0 mph17.7 kmh 30.05 in1017.6 mb 0.00 in0.0 mm 0.00 in0.0 mm 0.00 in0.0 mm
06:21 AM 67.0°F19.4°C 57.3°F14.1°C 71% 6.0 mph E9.7 kmh E 8.0 mph12.9 kmh 30.05 in1017.6 mb 0.00 in0.0 mm 0.00 in0.0 mm 0.00 in0.0 mm
06:22 AM 67.1°F19.5°C 57.4°F14.1°C 71% 5.9 mph E9.5 kmh E 8.0 mph12.9 kmh 30.05 in1017.6 mb 0.00 in0.0 mm 0.00 in0.0 mm 0.00 in0.0 mm
06:23 AM 67.1°F19.5°C 57.4°F14.1°C 71% 8.9 mph E14.3 kmh E 11.0 mph17.7 kmh 30.05 in1017.6 mb 0.00 in0.0 mm 0.00 in0.0 mm 0.00 in0.0 mm
06:24 AM 67.2°F19.6°C 57.5°F14.2°C 71% 6.0 mph E9.7 kmh E 8.0 mph12.9 kmh 30.05 in1017.6 mb 0.00 in0.0 mm 0.00 in0.0 mm 0.00 in0.0 mm
06:25 AM 67.3°F19.6°C 57.6°F14.2°C 71% 6.0 mph ENE9.7 kmh ENE 8.0 mph12.9 kmh 30.05 in1017.6 mb 0.00 in0.0 mm 0.00 in0.0 mm 0.00 in0.0 mm
06:26 AM 67.4°F19.7°C 57.7°F14.3°C 71% 7.3 mph E11.7 kmh E 11.0 mph17.7 kmh 30.05 in1017.6 mb 0.00 in0.0 mm 0.00 in0.0 mm 0.00 in0.0 mm
06:27 AM 67.4°F19.7°C 57.7°F14.3°C 71% 8.5 mph E13.7 kmh E 12.0 mph19.3 kmh 30.05 in1017.6 mb 0.00 in0.0 mm 0.00 in0.0 mm 0.00 in0.0 mm
06:28 AM 67.5°F19.7°C 57.8°F14.3°C 71% 9.0 mph E14.5 kmh E 10.0 mph16.1 kmh 30.05 in1017.6 mb 0.00 in0.0 mm 0.00 in0.0 mm 0.00 in0.0 mm
06:29 AM 67.6°F19.8°C 57.9°F14.4°C 71% 7.0 mph E11.3 kmh E 10.0 mph16.1 kmh 30.05 in1017.6 mb 0.00 in0.0 mm 0.00 in0.0 mm 0.00 in0.0 mm
06:30 AM 67.6°F19.8°C 57.5°F14.2°C 70% 7.0 mph E11.3 kmh E 9.0 mph14.5 kmh 30.05 in1017.6 mb 0.00 in0.0 mm 0.00 in0.0 mm 0.00 in0.0 mm
06:31 AM 67.7°F19.8°C 57.6°F14.2°C 70% 9.0 mph E14.5 kmh E 12.0 mph19.3 kmh 30.05 in1017.6 mb 0.00 in0.0 mm 0.00 in0.0 mm 0.00 in0.0 mm
06:32 AM 67.8°F19.9°C 57.7°F14.3°C 70% 12.2 mph E19.6 kmh E 13.0 mph20.9 kmh 30.05 in1017.6 mb 0.00 in0.0 mm 0.00 in0.0 mm 0.00 in0.0 mm
06:33 AM 67.8°F19.9°C 57.2°F14.0°C 69% 10.0 mph E16.1 kmh E 12.0 mph19.3 kmh 30.05 in1017.6 mb 0.00 in0.0 mm 0.00 in0.0 mm 0.00 in0.0 mm
06:34 AM 67.9°F19.9°C 57.7°F14.3°C 70% 8.0 mph E12.9 kmh E 10.0 mph16.1 kmh 30.05 in1017.6 mb 0.00 in0.0 mm 0.00 in0.0 mm 0.00 in0.0 mm
06:35 AM 68.0°F20.0°C 57.8°F14.3°C 70% 7.0 mph E11.3 kmh E 9.0 mph14.5 kmh 30.05 in1017.6 mb 0.00 in0.0 mm 0.00 in0.0 mm 0.00 in0.0 mm
06:36 AM 68.0°F20.0°C 57.8°F14.3°C 70% 8.0 mph E12.9 kmh E 12.0 mph19.3 kmh 30.05 in1017.6 mb 0.00 in0.0 mm 0.00 in0.0 mm 0.00 in0.0 mm
06:37 AM 68.1°F20.1°C 57.9°F14.4°C 70% 8.3 mph E13.4 kmh E 11.0 mph17.7 kmh 30.05 in1017.6 mb 0.00 in0.0 mm 0.00 in0.0 mm 0.00 in0.0 mm
06:38 AM 68.1°F20.1°C 57.9°F14.4°C 70% 8.4 mph E13.5 kmh E 11.0 mph17.7 kmh 30.05 in1017.6 mb 0.00 in0.0 mm 0.00 in0.0 mm 0.00 in0.0 mm
06:39 AM 68.3°F20.2°C 57.7°F14.3°C 69% 6.5 mph E10.5 kmh E 11.0 mph17.7 kmh 30.05 in1017.6 mb 0.00 in0.0 mm 0.00 in0.0 mm 0.00 in0.0 mm
06:40 AM 68.3°F20.2°C 57.7°F14.3°C 69% 7.5 mph E12.1 kmh E 10.0 mph16.1 kmh 30.05 in1017.6 mb 0.00 in0.0 mm 0.00 in0.0 mm 0.00 in0.0 mm
06:41 AM 68.5°F20.3°C 57.9°F14.4°C 69% 7.0 mph E11.3 kmh E 10.0 mph16.1 kmh 30.05 in1017.6 mb 0.00 in0.0 mm 0.00 in0.0 mm 0.00 in0.0 mm
06:42 AM 68.5°F20.3°C 57.9°F14.4°C 69% 9.0 mph E14.5 kmh E 11.0 mph17.7 kmh 30.05 in1017.6 mb 0.00 in0.0 mm 0.00 in0.0 mm 0.00 in0.0 mm
06:43 AM 68.6°F20.3°C 58.0°F14.4°C 69% 7.5 mph E12.1 kmh E 9.0 mph14.5 kmh 30.05 in1017.6 mb 0.00 in0.0 mm 0.00 in0.0 mm 0.00 in0.0 mm
06:44 AM 68.7°F20.4°C 58.1°F14.5°C 69% 7.0 mph E11.3 kmh E 9.0 mph14.5 kmh 30.05 in1017.6 mb 0.00 in0.0 mm 0.00 in0.0 mm 0.00 in0.0 mm
06:45 AM 68.7°F20.4°C 58.1°F14.5°C 69% 6.0 mph E9.7 kmh E 8.0 mph12.9 kmh 30.06 in1017.9 mb 0.00 in0.0 mm 0.00 in0.0 mm 0.00 in0.0 mm
06:46 AM 68.8°F20.4°C 58.2°F14.6°C 69% 8.0 mph E12.9 kmh E 10.0 mph16.1 kmh 30.05 in1017.6 mb 0.00 in0.0 mm 0.00 in0.0 mm 0.00 in0.0 mm
06:47 AM 68.8°F20.4°C 57.8°F14.3°C 68% 6.7 mph E10.8 kmh E 8.0 mph12.9 kmh 30.06 in1017.9 mb 0.00 in0.0 mm 0.00 in0.0 mm 0.00 in0.0 mm
06:48 AM 68.9°F20.5°C 57.9°F14.4°C 68% 10.0 mph E16.1 kmh E 13.0 mph20.9 kmh 30.05 in1017.6 mb 0.00 in0.0 mm 0.00 in0.0 mm 0.00 in0.0 mm
06:49 AM 69.0°F20.6°C 58.0°F14.4°C 68% 8.0 mph E12.9 kmh E 10.0 mph16.1 kmh 30.06 in1017.9 mb 0.00 in0.0 mm 0.00 in0.0 mm 0.00 in0.0 mm
06:50 AM 69.0°F20.6°C 58.0°F14.4°C 68% 9.0 mph E14.5 kmh E 12.0 mph19.3 kmh 30.06 in1017.9 mb 0.00 in0.0 mm 0.00 in0.0 mm 0.00 in0.0 mm
06:51 AM 69.1°F20.6°C 57.7°F14.3°C 67% 8.7 mph E14.0 kmh E 11.0 mph17.7 kmh 30.06 in1017.9 mb 0.00 in0.0 mm 0.00 in0.0 mm 0.00 in0.0 mm
06:52 AM 69.1°F20.6°C 57.7°F14.3°C 67% 9.0 mph E14.5 kmh E 11.0 mph17.7 kmh 30.06 in1017.9 mb 0.00 in0.0 mm 0.00 in0.0 mm 0.00 in0.0 mm
06:53 AM 69.2°F20.7°C 57.8°F14.3°C 67% 10.0 mph E16.1 kmh E 15.0 mph24.1 kmh 30.06 in1017.9 mb 0.00 in0.0 mm 0.00 in0.0 mm 0.00 in0.0 mm
06:54 AM 69.2°F20.7°C 57.8°F14.3°C 67% 8.3 mph E13.4 kmh E 10.0 mph16.1 kmh 30.06 in1017.9 mb 0.00 in0.0 mm 0.00 in0.0 mm 0.00 in0.0 mm
06:55 AM 69.3°F20.7°C 57.9°F14.4°C 67% 10.0 mph E16.1 kmh E 13.0 mph20.9 kmh 30.06 in1017.9 mb 0.00 in0.0 mm 0.00 in0.0 mm 0.00 in0.0 mm
06:56 AM 69.4°F20.8°C 58.0°F14.4°C 67% 8.0 mph E12.9 kmh E 11.0 mph17.7 kmh 30.05 in1017.6 mb 0.00 in0.0 mm 0.00 in0.0 mm 0.00 in0.0 mm
06:57 AM 69.4°F20.8°C 58.0°F14.4°C 67% 6.0 mph E9.7 kmh E 10.0 mph16.1 kmh 30.05 in1017.6 mb 0.00 in0.0 mm 0.00 in0.0 mm 0.00 in0.0 mm
06:58 AM 69.5°F20.8°C 58.1°F14.5°C 67% 9.0 mph E14.5 kmh E 12.0 mph19.3 kmh 30.06 in1017.9 mb 0.00 in0.0 mm 0.00 in0.0 mm 0.00 in0.0 mm
06:59 AM 69.5°F20.8°C 58.1°F14.5°C 67% 10.0 mph E16.1 kmh E 13.0 mph20.9 kmh 30.05 in1017.6 mb 0.00 in0.0 mm 0.00 in0.0 mm 0.00 in0.0 mm
07:00 AM 69.6°F20.9°C 57.7°F14.3°C 66% 9.0 mph E14.5 kmh E 12.0 mph19.3 kmh 30.05 in1017.6 mb 0.00 in0.0 mm 0.00 in0.0 mm 0.00 in0.0 mm
07:01 AM 69.7°F20.9°C 57.8°F14.3°C 66% 12.0 mph E19.3 kmh E 15.0 mph24.1 kmh 30.05 in1017.6 mb 0.00 in0.0 mm 0.00 in0.0 mm 0.00 in0.0 mm
07:02 AM 69.7°F20.9°C 57.8°F14.3°C 66% 8.8 mph E14.2 kmh E 12.0 mph19.3 kmh 30.06 in1017.9 mb 0.00 in0.0 mm 0.00 in0.0 mm 0.00 in0.0 mm
07:03 AM 69.7°F20.9°C 57.8°F14.3°C 66% 9.0 mph E14.5 kmh E 13.0 mph20.9 kmh 30.05 in1017.6 mb 0.00 in0.0 mm 0.00 in0.0 mm 0.00 in0.0 mm
07:04 AM 69.8°F21.0°C 57.9°F14.4°C 66% 10.0 mph ESE16.1 kmh ESE 14.0 mph22.5 kmh 30.06 in1017.9 mb 0.00 in0.0 mm 0.00 in0.0 mm 0.00 in0.0 mm
07:05 AM 69.9°F21.1°C 58.0°F14.4°C 66% 10.0 mph E16.1 kmh E 13.0 mph20.9 kmh 30.06 in1017.9 mb 0.00 in0.0 mm 0.00 in0.0 mm 0.00 in0.0 mm
07:06 AM 69.9°F21.1°C 58.0°F14.4°C 66% 4.8 mph E7.7 kmh E 6.0 mph9.7 kmh 30.05 in1017.6 mb 0.00 in0.0 mm 0.00 in0.0 mm 0.00 in0.0 mm
07:07 AM 70.0°F21.1°C 58.5°F14.7°C 67% 7.0 mph E11.3 kmh E 9.0 mph14.5 kmh 30.06 in1017.9 mb 0.00 in0.0 mm 0.00 in0.0 mm 0.00 in0.0 mm
07:08 AM 70.0°F21.1°C 58.1°F14.5°C 66% 9.0 mph E14.5 kmh E 12.0 mph19.3 kmh 30.05 in1017.6 mb 0.00 in0.0 mm 0.00 in0.0 mm 0.00 in0.0 mm
07:09 AM 70.1°F21.2°C 58.2°F14.6°C 66% 12.0 mph E19.3 kmh E 16.0 mph25.7 kmh 30.06 in1017.9 mb 0.00 in0.0 mm 0.00 in0.0 mm 0.00 in0.0 mm
07:10 AM 70.1°F21.2°C 57.8°F14.3°C 65% 14.0 mph E22.5 kmh E 16.0 mph25.7 kmh 30.06 in1017.9 mb 0.00 in0.0 mm 0.00 in0.0 mm 0.00 in0.0 mm
07:11 AM 70.2°F21.2°C 57.9°F14.4°C 65% 8.0 mph E12.9 kmh E 16.0 mph25.7 kmh 30.06 in1017.9 mb 0.00 in0.0 mm 0.00 in0.0 mm 0.00 in0.0 mm
07:12 AM 70.2°F21.2°C 58.3°F14.6°C 66% 9.0 mph E14.5 kmh E 13.0 mph20.9 kmh 30.06 in1017.9 mb 0.00 in0.0 mm 0.00 in0.0 mm 0.00 in0.0 mm
07:13 AM 70.2°F21.2°C 57.9°F14.4°C 65% 9.0 mph E14.5 kmh E 11.0 mph17.7 kmh 30.05 in1017.6 mb 0.00 in0.0 mm 0.00 in0.0 mm 0.00 in0.0 mm
07:14 AM 70.3°F21.3°C 58.0°F14.4°C 65% 10.0 mph E16.1 kmh E 14.0 mph22.5 kmh 30.05 in1017.6 mb 0.00 in0.0 mm 0.00 in0.0 mm 0.00 in0.0 mm
07:15 AM 70.3°F21.3°C 57.5°F14.2°C 64% 9.6 mph E15.4 kmh E 11.0 mph17.7 kmh 30.05 in1017.6 mb 0.00 in0.0 mm 0.00 in0.0 mm 0.00 in0.0 mm
07:16 AM 70.3°F21.3°C 58.0°F14.4°C 65% 7.3 mph E11.7 kmh E 11.0 mph17.7 kmh 30.05 in1017.6 mb 0.00 in0.0 mm 0.00 in0.0 mm 0.00 in0.0 mm
07:17 AM 70.4°F21.3°C 58.1°F14.5°C 65% 9.0 mph E14.5 kmh E 12.0 mph19.3 kmh 30.05 in1017.6 mb 0.00 in0.0 mm 0.00 in0.0 mm 0.00 in0.0 mm
07:18 AM 70.4°F21.3°C 58.1°F14.5°C 65% 11.0 mph E17.7 kmh E 14.0 mph22.5 kmh 30.05 in1017.6 mb 0.00 in0.0 mm 0.00 in0.0 mm 0.00 in0.0 mm
07:19 AM 70.5°F21.4°C 57.7°F14.3°C 64% 10.0 mph E16.1 kmh E 12.0 mph19.3 kmh 30.05 in1017.6 mb 0.00 in0.0 mm 0.00 in0.0 mm 0.00 in0.0 mm
07:20 AM 70.5°F21.4°C 58.2°F14.6°C 65% 11.0 mph E17.7 kmh E 14.0 mph22.5 kmh 30.05 in1017.6 mb 0.00 in0.0 mm 0.00 in0.0 mm 0.00 in0.0 mm
07:21 AM 70.5°F21.4°C 57.7°F14.3°C 64% 9.9 mph E15.9 kmh E 12.0 mph19.3 kmh 30.05 in1017.6 mb 0.00 in0.0 mm 0.00 in0.0 mm 0.00 in0.0 mm
07:22 AM 70.6°F21.4°C 58.3°F14.6°C 65% 8.0 mph E12.9 kmh E 11.0 mph17.7 kmh 30.05 in1017.6 mb 0.00 in0.0 mm 0.00 in0.0 mm 0.00 in0.0 mm
07:23 AM 70.6°F21.4°C 58.3°F14.6°C 65% 9.0 mph E14.5 kmh E 11.0 mph17.7 kmh 30.05 in1017.6 mb 0.00 in0.0 mm 0.00 in0.0 mm 0.00 in0.0 mm
07:24 AM 70.7°F21.5°C 58.3°F14.6°C 65% 9.8 mph E15.8 kmh E 13.0 mph20.9 kmh 30.05 in1017.6 mb 0.00 in0.0 mm 0.00 in0.0 mm 0.00 in0.0 mm
07:25 AM 70.7°F21.5°C 58.3°F14.6°C 65% 12.0 mph ENE19.3 kmh ENE 15.0 mph24.1 kmh 30.05 in1017.6 mb 0.00 in0.0 mm 0.00 in0.0 mm 0.00 in0.0 mm
07:26 AM 70.8°F21.6°C 58.4°F14.7°C 65% 11.0 mph E17.7 kmh E 13.0 mph20.9 kmh 30.05 in1017.6 mb 0.00 in0.0 mm 0.00 in0.0 mm 0.00 in0.0 mm
07:27 AM 70.9°F21.6°C 58.1°F14.5°C 64% 10.5 mph E16.9 kmh E 12.0 mph19.3 kmh 30.05 in1017.6 mb 0.00 in0.0 mm 0.00 in0.0 mm 0.00 in0.0 mm
07:28 AM 71.0°F21.7°C 58.2°F14.6°C 64% 7.7 mph E12.4 kmh E 12.0 mph19.3 kmh 30.05 in1017.6 mb 0.00 in0.0 mm 0.00 in0.0 mm 0.00 in0.0 mm
07:29 AM 71.0°F21.7°C 58.6°F14.8°C 65% 11.0 mph E17.7 kmh E 15.0 mph24.1 kmh 30.05 in1017.6 mb 0.00 in0.0 mm 0.00 in0.0 mm 0.00 in0.0 mm
07:30 AM 71.0°F21.7°C 58.2°F14.6°C 64% 12.0 mph E19.3 kmh E 14.0 mph22.5 kmh 30.05 in1017.6 mb 0.00 in0.0 mm 0.00 in0.0 mm 0.00 in0.0 mm
07:31 AM 71.0°F21.7°C 58.2°F14.6°C 64% 12.0 mph ESE19.3 kmh ESE 16.0 mph25.7 kmh 30.05 in1017.6 mb 0.00 in0.0 mm 0.00 in0.0 mm 0.00 in0.0 mm
07:32 AM 71.0°F21.7°C 58.2°F14.6°C 64% 12.0 mph E19.3 kmh E 14.0 mph22.5 kmh 30.05 in1017.6 mb 0.00 in0.0 mm 0.00 in0.0 mm 0.00 in0.0 mm
07:33 AM 71.0°F21.7°C 58.2°F14.6°C 64% 10.0 mph E16.1 kmh E 12.0 mph19.3 kmh 30.05 in1017.6 mb 0.00 in0.0 mm 0.00 in0.0 mm 0.00 in0.0 mm
07:34 AM 71.0°F21.7°C 58.2°F14.6°C 64% 11.0 mph E17.7 kmh E 14.0 mph22.5 kmh 30.05 in1017.6 mb 0.00 in0.0 mm 0.00 in0.0 mm 0.00 in0.0 mm
07:35 AM 71.1°F21.7°C 58.3°F14.6°C 64% 10.0 mph E16.1 kmh E 17.0 mph27.4 kmh 30.05 in1017.6 mb 0.00 in0.0 mm 0.00 in0.0 mm 0.00 in0.0 mm
07:36 AM 71.1°F21.7°C 57.9°F14.4°C 63% 12.0 mph E19.3 kmh E 17.0 mph27.4 kmh 30.05 in1017.6 mb 0.00 in0.0 mm 0.00 in0.0 mm 0.00 in0.0 mm
07:37 AM 71.2°F21.8°C 58.4°F14.7°C 64% 9.0 mph E14.5 kmh E 11.0 mph17.7 kmh 30.05 in1017.6 mb 0.00 in0.0 mm 0.00 in0.0 mm 0.00 in0.0 mm
07:38 AM 71.3°F21.8°C 58.5°F14.7°C 64% 10.8 mph E17.4 kmh E 15.0 mph24.1 kmh 30.05 in1017.6 mb 0.00 in0.0 mm 0.00 in0.0 mm 0.00 in0.0 mm
07:39 AM 71.3°F21.8°C 58.0°F14.4°C 63% 12.0 mph E19.3 kmh E 14.0 mph22.5 kmh 30.05 in1017.6 mb 0.00 in0.0 mm 0.00 in0.0 mm 0.00 in0.0 mm
07:40 AM 71.3°F21.8°C 58.0°F14.4°C 63% 11.0 mph E17.7 kmh E 14.0 mph22.5 kmh 30.05 in1017.6 mb 0.00 in0.0 mm 0.00 in0.0 mm 0.00 in0.0 mm
07:41 AM 71.4°F21.9°C 58.1°F14.5°C 63% 14.0 mph E22.5 kmh E 18.0 mph29.0 kmh 30.05 in1017.6 mb 0.00 in0.0 mm 0.00 in0.0 mm 0.00 in0.0 mm
07:42 AM 71.4°F21.9°C 57.7°F14.3°C 62% 11.0 mph E17.7 kmh E 15.0 mph24.1 kmh 30.05 in1017.6 mb 0.00 in0.0 mm 0.00 in0.0 mm 0.00 in0.0 mm
07:43 AM 71.5°F21.9°C 58.2°F14.6°C 63% 12.9 mph E20.8 kmh E 14.0 mph22.5 kmh 30.05 in1017.6 mb 0.00 in0.0 mm 0.00 in0.0 mm 0.00 in0.0 mm
07:44 AM 71.5°F21.9°C 58.2°F14.6°C 63% 14.0 mph ENE22.5 kmh ENE 17.0 mph27.4 kmh 30.05 in1017.6 mb 0.00 in0.0 mm 0.00 in0.0 mm 0.00 in0.0 mm
07:45 AM 71.5°F21.9°C 58.2°F14.6°C 63% 13.0 mph E20.9 kmh E 16.0 mph25.7 kmh 30.05 in1017.6 mb 0.00 in0.0 mm 0.00 in0.0 mm 0.00 in0.0 mm
07:46 AM 71.5°F21.9°C 57.8°F14.3°C 62% 12.0 mph E19.3 kmh E 18.0 mph29.0 kmh 30.05 in1017.6 mb 0.00 in0.0 mm 0.00 in0.0 mm 0.00 in0.0 mm
07:47 AM 71.6°F22.0°C 57.9°F14.4°C 62% 10.0 mph E16.1 kmh E 13.0 mph20.9 kmh 30.05 in1017.6 mb 0.00 in0.0 mm 0.00 in0.0 mm 0.00 in0.0 mm
07:48 AM 71.7°F22.1°C 58.4°F14.7°C 63% 10.0 mph E16.1 kmh E 13.0 mph20.9 kmh 30.05 in1017.6 mb 0.00 in0.0 mm 0.00 in0.0 mm 0.00 in0.0 mm
07:49 AM 71.8°F22.1°C 58.5°F14.7°C 63% 10.4 mph E16.7 kmh E 13.0 mph20.9 kmh 30.05 in1017.6 mb 0.00 in0.0 mm 0.00 in0.0 mm 0.00 in0.0 mm
07:50 AM 71.8°F22.1°C 58.1°F14.5°C 62% 12.0 mph E19.3 kmh E 14.0 mph22.5 kmh 30.05 in1017.6 mb 0.00 in0.0 mm 0.00 in0.0 mm 0.00 in0.0 mm
07:51 AM 71.9°F22.2°C 58.2°F14.6°C 62% 12.0 mph E19.3 kmh E 16.0 mph25.7 kmh 30.05 in1017.6 mb 0.00 in0.0 mm 0.00 in0.0 mm 0.00 in0.0 mm
07:52 AM 71.9°F22.2°C 58.2°F14.6°C 62% 11.0 mph E17.7 kmh E 14.0 mph22.5 kmh 30.05 in1017.6 mb 0.00 in0.0 mm 0.00 in0.0 mm 0.00 in0.0 mm
07:53 AM 72.0°F22.2°C 58.3°F14.6°C 62% 11.0 mph E17.7 kmh E 16.0 mph25.7 kmh 30.05 in1017.6 mb 0.00 in0.0 mm 0.00 in0.0 mm 0.00 in0.0 mm
07:54 AM 72.1°F22.3°C 57.9°F14.4°C 61% 13.0 mph E20.9 kmh E 19.0 mph30.6 kmh 30.05 in1017.6 mb 0.00 in0.0 mm 0.00 in0.0 mm 0.00 in0.0 mm
07:55 AM 72.1°F22.3°C 57.9°F14.4°C 61% 11.0 mph E17.7 kmh E 14.0 mph22.5 kmh 30.05 in1017.6 mb 0.00 in0.0 mm 0.00 in0.0 mm 0.00 in0.0 mm
07:56 AM 72.2°F22.3°C 57.5°F14.2°C 60% 14.0 mph E22.5 kmh E 22.0 mph35.4 kmh 30.05 in1017.6 mb 0.00 in0.0 mm 0.00 in0.0 mm 0.00 in0.0 mm
07:57 AM 72.3°F22.4°C 57.2°F14.0°C 59% 15.0 mph E24.1 kmh E 19.0 mph30.6 kmh 30.05 in1017.6 mb 0.00 in0.0 mm 0.00 in0.0 mm 0.00 in0.0 mm
07:58 AM 72.3°F22.4°C 57.6°F14.2°C 60% 12.0 mph E19.3 kmh E 21.0 mph33.8 kmh 30.05 in1017.6 mb 0.00 in0.0 mm 0.00 in0.0 mm 0.00 in0.0 mm
07:59 AM 72.4°F22.4°C 57.7°F14.3°C 60% 13.0 mph ESE20.9 kmh ESE 17.0 mph27.4 kmh 30.05 in1017.6 mb 0.00 in0.0 mm 0.00 in0.0 mm 0.00 in0.0 mm
08:00 AM 72.5°F22.5°C 57.8°F14.3°C 60% 8.0 mph ENE12.9 kmh ENE 14.0 mph22.5 kmh 30.05 in1017.6 mb 0.00 in0.0 mm 0.00 in0.0 mm 0.00 in0.0 mm
08:01 AM 72.6°F22.6°C 58.4°F14.7°C 61% 10.0 mph ENE16.1 kmh ENE 15.0 mph24.1 kmh 30.05 in1017.6 mb 0.00 in0.0 mm 0.00 in0.0 mm 0.00 in0.0 mm
08:02 AM 72.7°F22.6°C 58.0°F14.4°C 60% 13.0 mph E20.9 kmh E 16.0 mph25.7 kmh 30.05 in1017.6 mb 0.00 in0.0 mm 0.00 in0.0 mm 0.00 in0.0 mm
08:03 AM 72.8°F22.7°C 58.1°F14.5°C 60% 12.0 mph E19.3 kmh E 15.0 mph24.1 kmh 30.05 in1017.6 mb 0.00 in0.0 mm 0.00 in0.0 mm 0.00 in0.0 mm
08:04 AM 72.8°F22.7°C 57.6°F14.2°C 59% 11.4 mph E18.3 kmh E 13.0 mph20.9 kmh 30.05 in1017.6 mb 0.00 in0.0 mm 0.00 in0.0 mm 0.00 in0.0 mm
08:05 AM 72.8°F22.7°C 57.6°F14.2°C 59% 11.0 mph E17.7 kmh E 15.0 mph24.1 kmh 30.05 in1017.6 mb 0.00 in0.0 mm 0.00 in0.0 mm 0.00 in0.0 mm
08:06 AM 72.8°F22.7°C 57.6°F14.2°C 59% 12.0 mph E19.3 kmh E 18.0 mph29.0 kmh 30.05 in1017.6 mb 0.00 in0.0 mm 0.00 in0.0 mm 0.00 in0.0 mm
08:07 AM 73.0°F22.8°C 57.3°F14.1°C 58% 12.3 mph E19.8 kmh E 16.0 mph25.7 kmh 30.05 in1017.6 mb 0.00 in0.0 mm 0.00 in0.0 mm 0.00 in0.0 mm
08:08 AM 73.0°F22.8°C 57.3°F14.1°C 58% 11.9 mph E19.2 kmh E 16.0 mph25.7 kmh 30.05 in1017.6 mb 0.00 in0.0 mm 0.00 in0.0 mm 0.00 in0.0 mm
08:09 AM 73.0°F22.8°C 57.3°F14.1°C 58% 12.0 mph E19.3 kmh E 18.0 mph29.0 kmh 30.05 in1017.6 mb 0.00 in0.0 mm 0.00 in0.0 mm 0.00 in0.0 mm
08:10 AM 73.0°F22.8°C 57.3°F14.1°C 58% 16.0 mph E25.7 kmh E 20.0 mph32.2 kmh 30.05 in1017.6 mb 0.00 in0.0 mm 0.00 in0.0 mm 0.00 in0.0 mm
08:11 AM 73.1°F22.8°C 57.4°F14.1°C 58% 13.5 mph E21.7 kmh E 17.0 mph27.4 kmh 30.05 in1017.6 mb 0.00 in0.0 mm 0.00 in0.0 mm 0.00 in0.0 mm
08:12 AM 73.1°F22.8°C 56.9°F13.8°C 57% 14.0 mph E22.5 kmh E 16.0 mph25.7 kmh 30.05 in1017.6 mb 0.00 in0.0 mm 0.00 in0.0 mm 0.00 in0.0 mm
08:13 AM 73.1°F22.8°C 57.4°F14.1°C 58% 14.0 mph E22.5 kmh E 19.0 mph30.6 kmh 30.05 in1017.6 mb 0.00 in0.0 mm 0.00 in0.0 mm 0.00 in0.0 mm
08:14 AM 73.1°F22.8°C 56.9°F13.8°C 57% 14.9 mph E24.0 kmh E 16.0 mph25.7 kmh 30.05 in1017.6 mb 0.00 in0.0 mm 0.00 in0.0 mm 0.00 in0.0 mm
08:15 AM 73.1°F22.8°C 56.9°F13.8°C 57% 12.0 mph E19.3 kmh E 16.0 mph25.7 kmh 30.05 in1017.6 mb 0.00 in0.0 mm 0.00 in0.0 mm 0.00 in0.0 mm
08:16 AM 73.2°F22.9°C 57.5°F14.2°C 58% 10.0 mph E16.1 kmh E 13.0 mph20.9 kmh 30.05 in1017.6 mb 0.00 in0.0 mm 0.00 in0.0 mm 0.00 in0.0 mm
08:17 AM 73.3°F22.9°C 57.6°F14.2°C 58% 13.0 mph E20.9 kmh E 18.0 mph29.0 kmh 30.05 in1017.6 mb 0.00 in0.0 mm 0.00 in0.0 mm 0.00 in0.0 mm
08:18 AM 73.3°F22.9°C 57.1°F13.9°C 57% 13.6 mph E21.9 kmh E 20.0 mph32.2 kmh 30.05 in1017.6 mb 0.00 in0.0 mm 0.00 in0.0 mm 0.00 in0.0 mm
08:19 AM 73.4°F23.0°C 57.2°F14.0°C 57% 14.0 mph E22.5 kmh E 18.0 mph29.0 kmh 30.05 in1017.6 mb 0.00 in0.0 mm 0.00 in0.0 mm 0.00 in0.0 mm
08:20 AM 73.5°F23.1°C 57.3°F14.1°C 57% 14.0 mph E22.5 kmh E 17.0 mph27.4 kmh 30.05 in1017.6 mb 0.00 in0.0 mm 0.00 in0.0 mm 0.00 in0.0 mm
08:21 AM 73.5°F23.1°C 57.3°F14.1°C 57% 14.4 mph E23.2 kmh E 17.0 mph27.4 kmh 30.04 in1017.3 mb 0.00 in0.0 mm 0.00 in0.0 mm 0.00 in0.0 mm
08:22 AM 73.5°F23.1°C 56.8°F13.8°C 56% 14.5 mph E23.3 kmh E 21.0 mph33.8 kmh 30.05 in1017.6 mb 0.00 in0.0 mm 0.00 in0.0 mm 0.00 in0.0 mm
08:23 AM 73.5°F23.1°C 56.8°F13.8°C 56% 16.9 mph E27.2 kmh E 21.0 mph33.8 kmh 30.05 in1017.6 mb 0.00 in0.0 mm 0.00 in0.0 mm 0.00 in0.0 mm
08:24 AM 73.5°F23.1°C 57.3°F14.1°C 57% 14.0 mph E22.5 kmh E 19.0 mph30.6 kmh 30.05 in1017.6 mb 0.00 in0.0 mm 0.00 in0.0 mm 0.00 in0.0 mm
08:25 AM 73.5°F23.1°C 56.8°F13.8°C 56% 15.0 mph E24.1 kmh E 19.0 mph30.6 kmh 30.05 in1017.6 mb 0.00 in0.0 mm 0.00 in0.0 mm 0.00 in0.0 mm
08:26 AM 73.5°F23.1°C 56.8°F13.8°C 56% 11.0 mph E17.7 kmh E 15.0 mph24.1 kmh 30.05 in1017.6 mb 0.00 in0.0 mm 0.00 in0.0 mm 0.00 in0.0 mm
08:27 AM 73.6°F23.1°C 57.4°F14.1°C 57% 10.0 mph E16.1 kmh E 14.0 mph22.5 kmh 30.05 in1017.6 mb 0.00 in0.0 mm 0.00 in0.0 mm 0.00 in0.0 mm
08:28 AM 73.7°F23.2°C 57.5°F14.2°C 57% 13.0 mph E20.9 kmh E 17.0 mph27.4 kmh 30.05 in1017.6 mb 0.00 in0.0 mm 0.00 in0.0 mm 0.00 in0.0 mm
08:29 AM 73.7°F23.2°C 57.0°F13.9°C 56% 16.0 mph E25.7 kmh E 23.0 mph37.0 kmh 30.05 in1017.6 mb 0.00 in0.0 mm 0.00 in0.0 mm 0.00 in0.0 mm
08:30 AM 73.7°F23.2°C 56.5°F13.6°C 55% 16.0 mph E25.7 kmh E 23.0 mph37.0 kmh 30.05 in1017.6 mb 0.00 in0.0 mm 0.00 in0.0 mm 0.00 in0.0 mm
08:31 AM 73.7°F23.2°C 56.5°F13.6°C 55% 14.0 mph E22.5 kmh E 18.0 mph29.0 kmh 30.05 in1017.6 mb 0.00 in0.0 mm 0.00 in0.0 mm 0.00 in0.0 mm
08:32 AM 73.7°F23.2°C 57.0°F13.9°C 56% 10.5 mph ESE16.9 kmh ESE 14.0 mph22.5 kmh 30.05 in1017.6 mb 0.00 in0.0 mm 0.00 in0.0 mm 0.00 in0.0 mm
08:33 AM 73.8°F23.2°C 56.6°F13.7°C 55% 14.4 mph E23.2 kmh E 18.0 mph29.0 kmh 30.05 in1017.6 mb 0.00 in0.0 mm 0.00 in0.0 mm 0.00 in0.0 mm
08:34 AM 73.9°F23.3°C 57.2°F14.0°C 56% 11.0 mph E17.7 kmh E 13.0 mph20.9 kmh 30.05 in1017.6 mb 0.00 in0.0 mm 0.00 in0.0 mm 0.00 in0.0 mm
08:35 AM 73.9°F23.3°C 56.7°F13.7°C 55% 10.0 mph E16.1 kmh E 15.0 mph24.1 kmh 30.05 in1017.6 mb 0.00 in0.0 mm 0.00 in0.0 mm 0.00 in0.0 mm
08:36 AM 74.0°F23.3°C 57.3°F14.1°C 56% 8.9 mph E14.3 kmh E 12.0 mph19.3 kmh 30.05 in1017.6 mb 0.00 in0.0 mm 0.00 in0.0 mm 0.00 in0.0 mm
08:37 AM 74.1°F23.4°C 57.4°F14.1°C 56% 12.0 mph E19.3 kmh E 20.0 mph32.2 kmh 30.05 in1017.6 mb 0.00 in0.0 mm 0.00 in0.0 mm 0.00 in0.0 mm
08:38 AM 74.2°F23.4°C 57.0°F13.9°C 55% 12.0 mph ESE19.3 kmh ESE 16.0 mph25.7 kmh 30.05 in1017.6 mb 0.00 in0.0 mm 0.00 in0.0 mm 0.00 in0.0 mm
08:39 AM 74.3°F23.5°C 57.1°F13.9°C 55% 7.8 mph E12.6 kmh E 9.0 mph14.5 kmh 30.05 in1017.6 mb 0.00 in0.0 mm 0.00 in0.0 mm 0.00 in0.0 mm
08:40 AM 74.4°F23.6°C 57.7°F14.3°C 56% 9.0 mph E14.5 kmh E 13.0 mph20.9 kmh 30.05 in1017.6 mb 0.00 in0.0 mm 0.00 in0.0 mm 0.00 in0.0 mm
08:41 AM 74.5°F23.6°C 57.3°F14.1°C 55% 16.0 mph E25.7 kmh E 21.0 mph33.8 kmh 30.05 in1017.6 mb 0.00 in0.0 mm 0.00 in0.0 mm 0.00 in0.0 mm
08:42 AM 74.5°F23.6°C 56.7°F13.7°C 54% 17.0 mph E27.4 kmh E 21.0 mph33.8 kmh 30.05 in1017.6 mb 0.00 in0.0 mm 0.00 in0.0 mm 0.00 in0.0 mm
08:43 AM 74.5°F23.6°C 56.2°F13.4°C 53% 16.0 mph E25.7 kmh E 19.0 mph30.6 kmh 30.05 in1017.6 mb 0.00 in0.0 mm 0.00 in0.0 mm 0.00 in0.0 mm
08:44 AM 74.4°F23.6°C 56.1°F13.4°C 53% 15.0 mph E24.1 kmh E 19.0 mph30.6 kmh 30.05 in1017.6 mb 0.00 in0.0 mm 0.00 in0.0 mm 0.00 in0.0 mm
08:45 AM 74.4°F23.6°C 56.7°F13.7°C 54% 12.1 mph E19.5 kmh E 17.0 mph27.4 kmh 30.05 in1017.6 mb 0.00 in0.0 mm 0.00 in0.0 mm 0.00 in0.0 mm
08:46 AM 74.4°F23.6°C 56.7°F13.7°C 54% 13.0 mph E20.9 kmh E 17.0 mph27.4 kmh 30.05 in1017.6 mb 0.00 in0.0 mm 0.00 in0.0 mm 0.00 in0.0 mm
08:47 AM 74.5°F23.6°C 56.2°F13.4°C 53% 15.0 mph E24.1 kmh E 20.0 mph32.2 kmh 30.05 in1017.6 mb 0.00 in0.0 mm 0.00 in0.0 mm 0.00 in0.0 mm
08:48 AM 74.5°F23.6°C 56.2°F13.4°C 53% 14.0 mph E22.5 kmh E 18.0 mph29.0 kmh 30.05 in1017.6 mb 0.00 in0.0 mm 0.00 in0.0 mm 0.00 in0.0 mm
08:49 AM 74.4°F23.6°C 55.6°F13.1°C 52% 17.0 mph E27.4 kmh E 19.0 mph30.6 kmh 30.05 in1017.6 mb 0.00 in0.0 mm 0.00 in0.0 mm 0.00 in0.0 mm
08:50 AM 74.4°F23.6°C 55.6°F13.1°C 52% 16.6 mph E26.7 kmh E 19.0 mph30.6 kmh 30.05 in1017.6 mb 0.00 in0.0 mm 0.00 in0.0 mm 0.00 in0.0 mm
08:51 AM 74.4°F23.6°C 56.1°F13.4°C 53% 17.0 mph E27.4 kmh E 23.0 mph37.0 kmh 30.05 in1017.6 mb 0.00 in0.0 mm 0.00 in0.0 mm 0.00 in0.0 mm
08:52 AM 74.4°F23.6°C 55.6°F13.1°C 52% 16.0 mph E25.7 kmh E 21.0 mph33.8 kmh 30.05 in1017.6 mb 0.00 in0.0 mm 0.00 in0.0 mm 0.00 in0.0 mm
08:53 AM 74.4°F23.6°C 56.1°F13.4°C 53% 12.9 mph E20.8 kmh E 14.0 mph22.5 kmh 30.05 in1017.6 mb 0.00 in0.0 mm 0.00 in0.0 mm 0.00 in0.0 mm
08:54 AM 74.4°F23.6°C 55.1°F12.8°C 51% 17.0 mph E27.4 kmh E 22.0 mph35.4 kmh 30.05 in1017.6 mb 0.00 in0.0 mm 0.00 in0.0 mm 0.00 in0.0 mm
08:55 AM 74.5°F23.6°C 55.7°F13.2°C 52% 16.0 mph E25.7 kmh E 19.0 mph30.6 kmh 30.05 in1017.6 mb 0.00 in0.0 mm 0.00 in0.0 mm 0.00 in0.0 mm
08:56 AM 74.5°F23.6°C 55.7°F13.2°C 52% 16.0 mph E25.7 kmh E 20.0 mph32.2 kmh 30.05 in1017.6 mb 0.00 in0.0 mm 0.00 in0.0 mm 0.00 in0.0 mm
08:57 AM 74.6°F23.7°C 55.8°F13.2°C 52% 11.0 mph E17.7 kmh E 15.0 mph24.1 kmh 30.05 in1017.6 mb 0.00 in0.0 mm 0.00 in0.0 mm 0.00 in0.0 mm
08:58 AM 74.7°F23.7°C 55.9°F13.3°C 52% 13.0 mph E20.9 kmh E 17.0 mph27.4 kmh 30.05 in1017.6 mb 0.00 in0.0 mm 0.00 in0.0 mm 0.00 in0.0 mm
08:59 AM 74.7°F23.7°C 55.4°F13.0°C 51% 15.0 mph E24.1 kmh E 19.0 mph30.6 kmh 30.05 in1017.6 mb 0.00 in0.0 mm 0.00 in0.0 mm 0.00 in0.0 mm
09:00 AM 74.7°F23.7°C 55.9°F13.3°C 52% 13.0 mph ENE20.9 kmh ENE 18.0 mph29.0 kmh 30.05 in1017.6 mb 0.00 in0.0 mm 0.00 in0.0 mm 0.00 in0.0 mm
09:01 AM 74.8°F23.8°C 55.4°F13.0°C 51% 18.8 mph E30.3 kmh E 23.0 mph37.0 kmh 30.05 in1017.6 mb 0.00 in0.0 mm 0.00 in0.0 mm 0.00 in0.0 mm
09:02 AM 74.9°F23.8°C 55.5°F13.1°C 51% 15.5 mph E24.9 kmh E 24.0 mph38.6 kmh 30.05 in1017.6 mb 0.00 in0.0 mm 0.00 in0.0 mm 0.00 in0.0 mm
09:03 AM 74.9°F23.8°C 56.6°F13.7°C 53% 11.2 mph E18.0 kmh E 24.0 mph38.6 kmh 30.05 in1017.6 mb 0.00 in0.0 mm 0.00 in0.0 mm 0.00 in0.0 mm
09:04 AM 75.0°F23.9°C 56.7°F13.7°C 53% 11.0 mph ESE17.7 kmh ESE 15.0 mph24.1 kmh 30.05 in1017.6 mb 0.00 in0.0 mm 0.00 in0.0 mm 0.00 in0.0 mm
09:05 AM 75.2°F24.0°C 56.3°F13.5°C 52% 12.0 mph E19.3 kmh E 20.0 mph32.2 kmh 30.05 in1017.6 mb 0.00 in0.0 mm 0.00 in0.0 mm 0.00 in0.0 mm
09:06 AM 75.2°F24.0°C 55.8°F13.2°C 51% 13.0 mph E20.9 kmh E 13.0 mph20.9 kmh 30.05 in1017.6 mb 0.00 in0.0 mm 0.00 in0.0 mm 0.00 in0.0 mm
09:07 AM 75.2°F24.0°C 56.3°F13.5°C 52% 13.0 mph E20.9 kmh E 18.0 mph29.0 kmh 30.05 in1017.6 mb 0.00 in0.0 mm 0.00 in0.0 mm 0.00 in0.0 mm
09:08 AM 75.3°F24.1°C 56.4°F13.6°C 52% 10.0 mph E16.1 kmh E 24.0 mph38.6 kmh 30.05 in1017.6 mb 0.00 in0.0 mm 0.00 in0.0 mm 0.00 in0.0 mm
09:09 AM 75.4°F24.1°C 56.5°F13.6°C 52% 12.0 mph E19.3 kmh E 15.0 mph24.1 kmh 30.05 in1017.6 mb 0.00 in0.0 mm 0.00 in0.0 mm 0.00 in0.0 mm
09:10 AM 75.5°F24.2°C 56.6°F13.7°C 52% 16.0 mph ESE25.7 kmh ESE 21.0 mph33.8 kmh 30.05 in1017.6 mb 0.00 in0.0 mm 0.00 in0.0 mm 0.00 in0.0 mm
09:11 AM 75.5°F24.2°C 56.6°F13.7°C 52% 11.5 mph E18.5 kmh E 15.0 mph24.1 kmh 30.05 in1017.6 mb 0.00 in0.0 mm 0.00 in0.0 mm 0.00 in0.0 mm
09:12 AM 75.5°F24.2°C 56.6°F13.7°C 52% 13.0 mph ESE20.9 kmh ESE 15.0 mph24.1 kmh 30.05 in1017.6 mb 0.00 in0.0 mm 0.00 in0.0 mm 0.00 in0.0 mm
09:13 AM 75.6°F24.2°C 56.2°F13.4°C 51% 12.0 mph E19.3 kmh E 16.0 mph25.7 kmh 30.05 in1017.6 mb 0.00 in0.0 mm 0.00 in0.0 mm 0.00 in0.0 mm
09:14 AM 75.7°F24.3°C 56.3°F13.5°C 51% 13.8 mph E22.2 kmh E 14.0 mph22.5 kmh 30.05 in1017.6 mb 0.00 in0.0 mm 0.00 in0.0 mm 0.00 in0.0 mm
09:15 AM 75.6°F24.2°C 56.7°F13.7°C 52% 15.3 mph E24.6 kmh E 19.0 mph30.6 kmh 30.05 in1017.6 mb 0.00 in0.0 mm 0.00 in0.0 mm 0.00 in0.0 mm
09:16 AM 75.6°F24.2°C 56.2°F13.4°C 51% 15.4 mph E24.8 kmh E 24.0 mph38.6 kmh 30.05 in1017.6 mb 0.00 in0.0 mm 0.00 in0.0 mm 0.00 in0.0 mm
09:17 AM 75.6°F24.2°C 56.7°F13.7°C 52% 14.0 mph E22.5 kmh E 19.0 mph30.6 kmh 30.05 in1017.6 mb 0.00 in0.0 mm 0.00 in0.0 mm 0.00 in0.0 mm
09:18 AM 75.6°F24.2°C 56.2°F13.4°C 51% 19.0 mph E30.6 kmh E 23.0 mph37.0 kmh 30.06 in1017.9 mb 0.00 in0.0 mm 0.00 in0.0 mm 0.00 in0.0 mm
09:19 AM 75.5°F24.2°C 56.6°F13.7°C 52% 18.4 mph E29.6 kmh E 24.0 mph38.6 kmh 30.06 in1017.9 mb 0.00 in0.0 mm 0.00 in0.0 mm 0.00 in0.0 mm
09:20 AM 75.5°F24.2°C 56.1°F13.4°C 51% 21.0 mph E33.8 kmh E 26.0 mph41.8 kmh 30.06 in1017.9 mb 0.00 in0.0 mm 0.00 in0.0 mm 0.00 in0.0 mm
09:21 AM 75.4°F24.1°C 56.0°F13.3°C 51% 15.0 mph ESE24.1 kmh ESE 20.0 mph32.2 kmh 30.06 in1017.9 mb 0.00 in0.0 mm 0.00 in0.0 mm 0.00 in0.0 mm
09:22 AM 75.5°F24.2°C 56.6°F13.7°C 52% 13.0 mph E20.9 kmh E 26.0 mph41.8 kmh 30.06 in1017.9 mb 0.00 in0.0 mm 0.00 in0.0 mm 0.00 in0.0 mm
09:23 AM 75.5°F24.2°C 56.1°F13.4°C 51% 19.5 mph E31.4 kmh E 26.0 mph41.8 kmh 30.06 in1017.9 mb 0.00 in0.0 mm 0.00 in0.0 mm 0.00 in0.0 mm
09:24 AM 75.5°F24.2°C 56.6°F13.7°C 52% 17.0 mph E27.4 kmh E 22.0 mph35.4 kmh 30.06 in1017.9 mb 0.00 in0.0 mm 0.00 in0.0 mm 0.00 in0.0 mm
09:25 AM 75.5°F24.2°C 56.6°F13.7°C 52% 17.0 mph E27.4 kmh E 23.0 mph37.0 kmh 30.06 in1017.9 mb 0.00 in0.0 mm 0.00 in0.0 mm 0.00 in0.0 mm
09:26 AM 75.6°F24.2°C 56.7°F13.7°C 52% 17.0 mph E27.4 kmh E 23.0 mph37.0 kmh 30.06 in1017.9 mb 0.00 in0.0 mm 0.00 in0.0 mm 0.00 in0.0 mm
09:27 AM 75.7°F24.3°C 56.8°F13.8°C 52% 19.6 mph E31.5 kmh E 28.0 mph45.1 kmh 30.06 in1017.9 mb 0.00 in0.0 mm 0.00 in0.0 mm 0.00 in0.0 mm
09:28 AM 75.7°F24.3°C 56.3°F13.5°C 51% 17.1 mph E27.5 kmh E 28.0 mph45.1 kmh 30.06 in1017.9 mb 0.00 in0.0 mm 0.00 in0.0 mm 0.00 in0.0 mm
09:29 AM 75.7°F24.3°C 56.8°F13.8°C 52% 13.7 mph E22.0 kmh E 21.0 mph33.8 kmh 30.06 in1017.9 mb 0.00 in0.0 mm 0.00 in0.0 mm 0.00 in0.0 mm
09:30 AM 75.7°F24.3°C 56.3°F13.5°C 51% 19.0 mph E30.6 kmh E 23.0 mph37.0 kmh 30.06 in1017.9 mb 0.00 in0.0 mm 0.00 in0.0 mm 0.00 in0.0 mm
09:31 AM 75.8°F24.3°C 56.9°F13.8°C 52% 15.0 mph E24.1 kmh E 22.0 mph35.4 kmh 30.06 in1017.9 mb 0.00 in0.0 mm 0.00 in0.0 mm 0.00 in0.0 mm
09:32 AM 75.9°F24.4°C 57.0°F13.9°C 52% 10.6 mph E17.1 kmh E 14.0 mph22.5 kmh 30.06 in1017.9 mb 0.00 in0.0 mm 0.00 in0.0 mm 0.00 in0.0 mm
09:33 AM 76.0°F24.4°C 57.1°F13.9°C 52% 19.0 mph ESE30.6 kmh ESE 28.0 mph45.1 kmh 30.06 in1017.9 mb 0.00 in0.0 mm 0.00 in0.0 mm 0.00 in0.0 mm
09:34 AM 76.0°F24.4°C 56.5°F13.6°C 51% 22.0 mph E35.4 kmh E 26.0 mph41.8 kmh 30.06 in1017.9 mb 0.00 in0.0 mm 0.00 in0.0 mm 0.00 in0.0 mm
09:35 AM 76.0°F24.4°C 56.5°F13.6°C 51% 18.0 mph E29.0 kmh E 25.0 mph40.2 kmh 30.06 in1017.9 mb 0.00 in0.0 mm 0.00 in0.0 mm 0.00 in0.0 mm
09:36 AM 75.9°F24.4°C 57.0°F13.9°C 52% 14.6 mph E23.5 kmh E 21.0 mph33.8 kmh 30.06 in1017.9 mb 0.00 in0.0 mm 0.00 in0.0 mm 0.00 in0.0 mm
09:37 AM 76.0°F24.4°C 57.1°F13.9°C 52% 16.2 mph E26.1 kmh E 23.0 mph37.0 kmh 30.06 in1017.9 mb 0.00 in0.0 mm 0.00 in0.0 mm 0.00 in0.0 mm
09:38 AM 76.0°F24.4°C 57.1°F13.9°C 52% 13.0 mph E20.9 kmh E 23.0 mph37.0 kmh 30.06 in1017.9 mb 0.00 in0.0 mm 0.00 in0.0 mm 0.00 in0.0 mm
09:39 AM 76.0°F24.4°C 57.1°F13.9°C 52% 17.0 mph E27.4 kmh E 25.0 mph40.2 kmh 30.06 in1017.9 mb 0.00 in0.0 mm 0.00 in0.0 mm 0.00 in0.0 mm
09:40 AM 76.0°F24.4°C 56.5°F13.6°C 51% 13.0 mph ESE20.9 kmh ESE 19.0 mph30.6 kmh 30.05 in1017.6 mb 0.00 in0.0 mm 0.00 in0.0 mm 0.00 in0.0 mm
09:41 AM 76.1°F24.5°C 57.7°F14.3°C 53% 13.0 mph ESE20.9 kmh ESE 18.0 mph29.0 kmh 30.06 in1017.9 mb 0.00 in0.0 mm 0.00 in0.0 mm 0.00 in0.0 mm
09:42 AM 76.2°F24.6°C 56.7°F13.7°C 51% 17.0 mph E27.4 kmh E 22.0 mph35.4 kmh 30.06 in1017.9 mb 0.00 in0.0 mm 0.00 in0.0 mm 0.00 in0.0 mm
09:43 AM 76.2°F24.6°C 57.3°F14.1°C 52% 15.3 mph E24.6 kmh E 19.0 mph30.6 kmh 30.06 in1017.9 mb 0.00 in0.0 mm 0.00 in0.0 mm 0.00 in0.0 mm
09:44 AM 76.3°F24.6°C 56.8°F13.8°C 51% 16.5 mph E26.6 kmh E 23.0 mph37.0 kmh 30.06 in1017.9 mb 0.00 in0.0 mm 0.00 in0.0 mm 0.00 in0.0 mm
09:45 AM 76.4°F24.7°C 56.9°F13.8°C 51% 15.0 mph E24.1 kmh E 20.0 mph32.2 kmh 30.06 in1017.9 mb 0.00 in0.0 mm 0.00 in0.0 mm 0.00 in0.0 mm
09:46 AM 76.4°F24.7°C 56.9°F13.8°C 51% 16.0 mph E25.7 kmh E 23.0 mph37.0 kmh 30.06 in1017.9 mb 0.00 in0.0 mm 0.00 in0.0 mm 0.00 in0.0 mm
09:47 AM 76.4°F24.7°C 56.4°F13.6°C 50% 21.0 mph E33.8 kmh E 25.0 mph40.2 kmh 30.06 in1017.9 mb 0.00 in0.0 mm 0.00 in0.0 mm 0.00 in0.0 mm
09:48 AM 76.4°F24.7°C 56.4°F13.6°C 50% 19.0 mph E30.6 kmh E 25.0 mph40.2 kmh 30.06 in1017.9 mb 0.00 in0.0 mm 0.00 in0.0 mm 0.00 in0.0 mm
09:49 AM 76.4°F24.7°C 56.4°F13.6°C 50% 20.0 mph E32.2 kmh E 26.0 mph41.8 kmh 30.06 in1017.9 mb 0.00 in0.0 mm 0.00 in0.0 mm 0.00 in0.0 mm
09:50 AM 76.4°F24.7°C 56.4°F13.6°C 50% 17.0 mph ESE27.4 kmh ESE 23.0 mph37.0 kmh 30.06 in1017.9 mb 0.00 in0.0 mm 0.00 in0.0 mm 0.00 in0.0 mm
09:51 AM 76.4°F24.7°C 56.9°F13.8°C 51% 13.0 mph E20.9 kmh E 22.0 mph35.4 kmh 30.06 in1017.9 mb 0.00 in0.0 mm 0.00 in0.0 mm 0.00 in0.0 mm
09:52 AM 76.5°F24.7°C 56.5°F13.6°C 50% 19.8 mph E31.9 kmh E 24.0 mph38.6 kmh 30.06 in1017.9 mb 0.00 in0.0 mm 0.00 in0.0 mm 0.00 in0.0 mm
09:53 AM 76.5°F24.7°C 57.0°F13.9°C 51% 16.0 mph E25.7 kmh E 21.0 mph33.8 kmh 30.06 in1017.9 mb 0.00 in0.0 mm 0.00 in0.0 mm 0.00 in0.0 mm
09:54 AM 76.5°F24.7°C 56.5°F13.6°C 50% 16.0 mph E25.7 kmh E 20.0 mph32.2 kmh 30.06 in1017.9 mb 0.00 in0.0 mm 0.00 in0.0 mm 0.00 in0.0 mm
09:55 AM 76.6°F24.8°C 56.5°F13.6°C 50% 17.7 mph E28.5 kmh E 23.0 mph37.0 kmh 30.06 in1017.9 mb 0.00 in0.0 mm 0.00 in0.0 mm 0.00 in0.0 mm
09:56 AM 76.6°F24.8°C 56.5°F13.6°C 50% 15.0 mph E24.1 kmh E 21.0 mph33.8 kmh 30.06 in1017.9 mb 0.00 in0.0 mm 0.00 in0.0 mm 0.00 in0.0 mm
09:57 AM 76.6°F24.8°C 56.5°F13.6°C 50% 15.0 mph E24.1 kmh E 21.0 mph33.8 kmh 30.06 in1017.9 mb 0.00 in0.0 mm 0.00 in0.0 mm 0.00 in0.0 mm
09:58 AM 76.5°F24.7°C 57.0°F13.9°C 51% 15.0 mph ESE24.1 kmh ESE 21.0 mph33.8 kmh 30.06 in1017.9 mb 0.00 in0.0 mm 0.00 in0.0 mm 0.00 in0.0 mm
09:59 AM 76.6°F24.8°C 57.1°F13.9°C 51% 13.4 mph E21.6 kmh E 16.0 mph25.7 kmh 30.06 in1017.9 mb 0.00 in0.0 mm 0.00 in0.0 mm 0.00 in0.0 mm
10:00 AM 76.6°F24.8°C 57.6°F14.2°C 52% 13.0 mph E20.9 kmh E 16.0 mph25.7 kmh 30.06 in1017.9 mb 0.00 in0.0 mm 0.00 in0.0 mm 0.00 in0.0 mm
10:01 AM 76.7°F24.8°C 57.7°F14.3°C 52% 13.0 mph E20.9 kmh E 18.0 mph29.0 kmh 30.06 in1017.9 mb 0.00 in0.0 mm 0.00 in0.0 mm 0.00 in0.0 mm
10:02 AM 76.7°F24.8°C 56.6°F13.7°C 50% 18.0 mph E29.0 kmh E 24.0 mph38.6 kmh 30.06 in1017.9 mb 0.00 in0.0 mm 0.00 in0.0 mm 0.00 in0.0 mm
10:03 AM 76.7°F24.8°C 56.6°F13.7°C 50% 15.0 mph E24.1 kmh E 21.0 mph33.8 kmh 30.06 in1017.9 mb 0.00 in0.0 mm 0.00 in0.0 mm 0.00 in0.0 mm
10:04 AM 76.7°F24.8°C 56.6°F13.7°C 50% 17.0 mph E27.4 kmh E 23.0 mph37.0 kmh 30.06 in1017.9 mb 0.00 in0.0 mm 0.00 in0.0 mm 0.00 in0.0 mm
10:05 AM 76.7°F24.8°C 57.2°F14.0°C 51% 17.0 mph E27.4 kmh E 24.0 mph38.6 kmh 30.06 in1017.9 mb 0.00 in0.0 mm 0.00 in0.0 mm 0.00 in0.0 mm
10:06 AM 76.6°F24.8°C 57.1°F13.9°C 51% 19.0 mph E30.6 kmh E 25.0 mph40.2 kmh 30.06 in1017.9 mb 0.00 in0.0 mm 0.00 in0.0 mm 0.00 in0.0 mm
10:07 AM 76.6°F24.8°C 56.5°F13.6°C 50% 17.0 mph E27.4 kmh E 22.0 mph35.4 kmh 30.06 in1017.9 mb 0.00 in0.0 mm 0.00 in0.0 mm 0.00 in0.0 mm
10:08 AM 76.6°F24.8°C 57.1°F13.9°C 51% 16.0 mph E25.7 kmh E 19.0 mph30.6 kmh 30.06 in1017.9 mb 0.00 in0.0 mm 0.00 in0.0 mm 0.00 in0.0 mm
10:09 AM 76.6°F24.8°C 57.1°F13.9°C 51% 14.0 mph E22.5 kmh E 21.0 mph33.8 kmh 30.06 in1017.9 mb 0.00 in0.0 mm 0.00 in0.0 mm 0.00 in0.0 mm
10:10 AM 76.8°F24.9°C 57.8°F14.3°C 52% 11.0 mph E17.7 kmh E 16.0 mph25.7 kmh 30.06 in1017.9 mb 0.00 in0.0 mm 0.00 in0.0 mm 0.00 in0.0 mm
10:11 AM 76.8°F24.9°C 56.7°F13.7°C 50% 18.0 mph E29.0 kmh E 23.0 mph37.0 kmh 30.06 in1017.9 mb 0.00 in0.0 mm 0.00 in0.0 mm 0.00 in0.0 mm
10:12 AM 76.9°F24.9°C 57.4°F14.1°C 51% 15.0 mph E24.1 kmh E 22.0 mph35.4 kmh 30.06 in1017.9 mb 0.00 in0.0 mm 0.00 in0.0 mm 0.00 in0.0 mm
10:13 AM 76.9°F24.9°C 57.4°F14.1°C 51% 9.8 mph ESE15.8 kmh ESE 13.0 mph20.9 kmh 30.06 in1017.9 mb 0.00 in0.0 mm 0.00 in0.0 mm 0.00 in0.0 mm
10:14 AM 77.0°F25.0°C 57.5°F14.2°C 51% 12.9 mph E20.8 kmh E 16.0 mph25.7 kmh 30.06 in1017.9 mb 0.00 in0.0 mm 0.00 in0.0 mm 0.00 in0.0 mm
10:15 AM 77.1°F25.1°C 58.1°F14.5°C 52% 14.0 mph E22.5 kmh E 20.0 mph32.2 kmh 30.06 in1017.9 mb 0.00 in0.0 mm 0.00 in0.0 mm 0.00 in0.0 mm
10:16 AM 77.3°F25.2°C 57.2°F14.0°C 50% 15.0 mph E24.1 kmh E 20.0 mph32.2 kmh 30.05 in1017.6 mb 0.00 in0.0 mm 0.00 in0.0 mm 0.00 in0.0 mm
10:17 AM 77.3°F25.2°C 57.2°F14.0°C 50% 15.0 mph ESE24.1 kmh ESE 21.0 mph33.8 kmh 30.05 in1017.6 mb 0.00 in0.0 mm 0.00 in0.0 mm 0.00 in0.0 mm
10:18 AM 77.3°F25.2°C 57.7°F14.3°C 51% 13.0 mph E20.9 kmh E 21.0 mph33.8 kmh 30.06 in1017.9 mb 0.00 in0.0 mm 0.00 in0.0 mm 0.00 in0.0 mm
10:19 AM 77.4°F25.2°C 57.8°F14.3°C 51% 11.0 mph E17.7 kmh E 15.0 mph24.1 kmh 30.06 in1017.9 mb 0.00 in0.0 mm 0.00 in0.0 mm 0.00 in0.0 mm
10:20 AM 77.4°F25.2°C 57.8°F14.3°C 51% 12.0 mph E19.3 kmh E 14.0 mph22.5 kmh 30.05 in1017.6 mb 0.00 in0.0 mm 0.00 in0.0 mm 0.00 in0.0 mm
10:21 AM 77.6°F25.3°C 57.5°F14.2°C 50% 12.0 mph E19.3 kmh E 15.0 mph24.1 kmh 30.05 in1017.6 mb 0.00 in0.0 mm 0.00 in0.0 mm 0.00 in0.0 mm
10:22 AM 77.6°F25.3°C 58.0°F14.4°C 51% 13.0 mph E20.9 kmh E 18.0 mph29.0 kmh 30.05 in1017.6 mb 0.00 in0.0 mm 0.00 in0.0 mm 0.00 in0.0 mm
10:23 AM 77.7°F25.4°C 58.1°F14.5°C 51% 13.0 mph E20.9 kmh E 18.0 mph29.0 kmh 30.05 in1017.6 mb 0.00 in0.0 mm 0.00 in0.0 mm 0.00 in0.0 mm
10:24 AM 77.7°F25.4°C 57.6°F14.2°C 50% 15.0 mph E24.1 kmh E 19.0 mph30.6 kmh 30.05 in1017.6 mb 0.00 in0.0 mm 0.00 in0.0 mm 0.00 in0.0 mm
10:25 AM 77.7°F25.4°C 57.6°F14.2°C 50% 16.0 mph E25.7 kmh E 24.0 mph38.6 kmh 30.06 in1017.9 mb 0.00 in0.0 mm 0.00 in0.0 mm 0.00 in0.0 mm
10:26 AM 77.5°F25.3°C 56.8°F13.8°C 49% 21.0 mph E33.8 kmh E 27.0 mph43.5 kmh 30.05 in1017.6 mb 0.00 in0.0 mm 0.00 in0.0 mm 0.00 in0.0 mm
10:27 AM 77.5°F25.3°C 56.8°F13.8°C 49% 20.2 mph E32.5 kmh E 32.0 mph51.5 kmh 30.05 in1017.6 mb 0.00 in0.0 mm 0.00 in0.0 mm 0.00 in0.0 mm
10:28 AM 77.3°F25.2°C 56.6°F13.7°C 49% 21.0 mph E33.8 kmh E 30.0 mph48.3 kmh 30.05 in1017.6 mb 0.00 in0.0 mm 0.00 in0.0 mm 0.00 in0.0 mm
10:29 AM 77.2°F25.1°C 57.1°F13.9°C 50% 17.0 mph E27.4 kmh E 32.0 mph51.5 kmh 30.06 in1017.9 mb 0.00 in0.0 mm 0.00 in0.0 mm 0.00 in0.0 mm
10:30 AM 77.2°F25.1°C 57.1°F13.9°C 50% 12.0 mph E19.3 kmh E 14.0 mph22.5 kmh 30.05 in1017.6 mb 0.00 in0.0 mm 0.00 in0.0 mm 0.00 in0.0 mm
10:31 AM 77.3°F25.2°C 57.7°F14.3°C 51% 15.0 mph ESE24.1 kmh ESE 20.0 mph32.2 kmh 30.06 in1017.9 mb 0.00 in0.0 mm 0.00 in0.0 mm 0.00 in0.0 mm
10:32 AM 77.4°F25.2°C 57.8°F14.3°C 51% 14.2 mph E22.9 kmh E 18.0 mph29.0 kmh 30.06 in1017.9 mb 0.00 in0.0 mm 0.00 in0.0 mm 0.00 in0.0 mm
10:33 AM 77.4°F25.2°C 57.8°F14.3°C 51% 14.0 mph E22.5 kmh E 18.0 mph29.0 kmh 30.06 in1017.9 mb 0.00 in0.0 mm 0.00 in0.0 mm 0.00 in0.0 mm
10:34 AM 77.5°F25.3°C 57.9°F14.4°C 51% 14.0 mph E22.5 kmh E 19.0 mph30.6 kmh 30.06 in1017.9 mb 0.00 in0.0 mm 0.00 in0.0 mm 0.00 in0.0 mm
10:35 AM 77.6°F25.3°C 58.0°F14.4°C 51% 12.0 mph E19.3 kmh E 17.0 mph27.4 kmh 30.06 in1017.9 mb 0.00 in0.0 mm 0.00 in0.0 mm 0.00 in0.0 mm
10:36 AM 77.7°F25.4°C 57.6°F14.2°C 50% 15.0 mph E24.1 kmh E 22.0 mph35.4 kmh 30.06 in1017.9 mb 0.00 in0.0 mm 0.00 in0.0 mm 0.00 in0.0 mm
10:37 AM 77.9°F25.5°C 58.3°F14.6°C 51% 15.0 mph E24.1 kmh E 23.0 mph37.0 kmh 30.06 in1017.9 mb 0.00 in0.0 mm 0.00 in0.0 mm 0.00 in0.0 mm
10:38 AM 77.9°F25.5°C 57.7°F14.3°C 50% 13.0 mph E20.9 kmh E 17.0 mph27.4 kmh 30.06 in1017.9 mb 0.00 in0.0 mm 0.00 in0.0 mm 0.00 in0.0 mm
10:39 AM 78.1°F25.6°C 57.9°F14.4°C 50% 14.0 mph E22.5 kmh E 20.0 mph32.2 kmh 30.06 in1017.9 mb 0.00 in0.0 mm 0.00 in0.0 mm 0.00 in0.0 mm
10:40 AM 78.0°F25.6°C 57.8°F14.3°C 50% 16.6 mph E26.7 kmh E 18.0 mph29.0 kmh 30.06 in1017.9 mb 0.00 in0.0 mm 0.00 in0.0 mm 0.00 in0.0 mm
10:41 AM 78.1°F25.6°C 57.9°F14.4°C 50% 15.0 mph ENE24.1 kmh ENE 17.0 mph27.4 kmh 30.05 in1017.6 mb 0.00 in0.0 mm 0.00 in0.0 mm 0.00 in0.0 mm
10:42 AM 78.0°F25.6°C 57.8°F14.3°C 50% 15.0 mph E24.1 kmh E 19.0 mph30.6 kmh 30.06 in1017.9 mb 0.00 in0.0 mm 0.00 in0.0 mm 0.00 in0.0 mm
10:43 AM 78.0°F25.6°C 57.3°F14.1°C 49% 13.9 mph E22.4 kmh E 18.0 mph29.0 kmh 30.06 in1017.9 mb 0.00 in0.0 mm 0.00 in0.0 mm 0.00 in0.0 mm
10:44 AM 78.0°F25.6°C 57.3°F14.1°C 49% 14.9 mph E24.0 kmh E 18.0 mph29.0 kmh 30.06 in1017.9 mb 0.00 in0.0 mm 0.00 in0.0 mm 0.00 in0.0 mm
10:45 AM 78.1°F25.6°C 57.9°F14.4°C 50% 13.1 mph E21.1 kmh E 20.0 mph32.2 kmh 30.06 in1017.9 mb 0.00 in0.0 mm 0.00 in0.0 mm 0.00 in0.0 mm
10:46 AM 78.0°F25.6°C 56.7°F13.7°C 48% 19.4 mph E31.2 kmh E 23.0 mph37.0 kmh 30.06 in1017.9 mb 0.00 in0.0 mm 0.00 in0.0 mm 0.00 in0.0 mm
10:47 AM 77.9°F25.5°C 56.6°F13.7°C 48% 20.0 mph E32.2 kmh E 27.0 mph43.5 kmh 30.06 in1017.9 mb 0.00 in0.0 mm 0.00 in0.0 mm 0.00 in0.0 mm
10:48 AM 77.8°F25.4°C 56.5°F13.6°C 48% 21.0 mph E33.8 kmh E 26.0 mph41.8 kmh 30.06 in1017.9 mb 0.00 in0.0 mm 0.00 in0.0 mm 0.00 in0.0 mm
10:49 AM 77.6°F25.3°C 56.3°F13.5°C 48% 20.0 mph E32.2 kmh E 26.0 mph41.8 kmh 30.06 in1017.9 mb 0.00 in0.0 mm 0.00 in0.0 mm 0.00 in0.0 mm
10:50 AM 77.6°F25.3°C 56.9°F13.8°C 49% 18.0 mph E29.0 kmh E 27.0 mph43.5 kmh 30.06 in1017.9 mb 0.00 in0.0 mm 0.00 in0.0 mm 0.00 in0.0 mm
10:51 AM 77.6°F25.3°C 56.9°F13.8°C 49% 16.0 mph E25.7 kmh E 21.0 mph33.8 kmh 30.06 in1017.9 mb 0.00 in0.0 mm 0.00 in0.0 mm 0.00 in0.0 mm
10:52 AM 77.7°F25.4°C 57.0°F13.9°C 49% 14.0 mph E22.5 kmh E 20.0 mph32.2 kmh 30.06 in1017.9 mb 0.00 in0.0 mm 0.00 in0.0 mm 0.00 in0.0 mm
10:53 AM 77.8°F25.4°C 57.1°F13.9°C 49% 17.2 mph E27.7 kmh E 24.0 mph38.6 kmh 30.06 in1017.9 mb 0.00 in0.0 mm 0.00 in0.0 mm 0.00 in0.0 mm
10:54 AM 77.8°F25.4°C 56.5°F13.6°C 48% 19.0 mph E30.6 kmh E 24.0 mph38.6 kmh 30.06 in1017.9 mb 0.00 in0.0 mm 0.00 in0.0 mm 0.00 in0.0 mm
10:55 AM 77.8°F25.4°C 56.5°F13.6°C 48% 14.0 mph ESE22.5 kmh ESE 21.0 mph33.8 kmh 30.05 in1017.6 mb 0.00 in0.0 mm 0.00 in0.0 mm 0.00 in0.0 mm
10:56 AM 77.9°F25.5°C 57.2°F14.0°C 49% 18.9 mph E30.4 kmh E 21.0 mph33.8 kmh 30.05 in1017.6 mb 0.00 in0.0 mm 0.00 in0.0 mm 0.00 in0.0 mm
10:57 AM 77.9°F25.5°C 57.2°F14.0°C 49% 12.4 mph E20.0 kmh E 21.0 mph33.8 kmh 30.05 in1017.6 mb 0.00 in0.0 mm 0.00 in0.0 mm 0.00 in0.0 mm
10:58 AM 78.0°F25.6°C 57.3°F14.1°C 49% 16.0 mph ESE25.7 kmh ESE 24.0 mph38.6 kmh 30.05 in1017.6 mb 0.00 in0.0 mm 0.00 in0.0 mm 0.00 in0.0 mm
10:59 AM 78.0°F25.6°C 57.3°F14.1°C 49% 16.0 mph E25.7 kmh E 20.0 mph32.2 kmh 30.05 in1017.6 mb 0.00 in0.0 mm 0.00 in0.0 mm 0.00 in0.0 mm
11:00 AM 78.0°F25.6°C 57.3°F14.1°C 49% 18.3 mph E29.5 kmh E 26.0 mph41.8 kmh 30.06 in1017.9 mb 0.00 in0.0 mm 0.00 in0.0 mm 0.00 in0.0 mm
11:01 AM 78.0°F25.6°C 57.3°F14.1°C 49% 17.0 mph E27.4 kmh E 26.0 mph41.8 kmh 30.06 in1017.9 mb 0.00 in0.0 mm 0.00 in0.0 mm 0.00 in0.0 mm
11:02 AM 78.0°F25.6°C 56.7°F13.7°C 48% 17.0 mph E27.4 kmh E 20.0 mph32.2 kmh 30.05 in1017.6 mb 0.00 in0.0 mm 0.00 in0.0 mm 0.00 in0.0 mm
11:03 AM 77.9°F25.5°C 57.2°F14.0°C 49% 18.0 mph E29.0 kmh E 23.0 mph37.0 kmh 30.06 in1017.9 mb 0.00 in0.0 mm 0.00 in0.0 mm 0.00 in0.0 mm
11:04 AM 78.0°F25.6°C 57.3°F14.1°C 49% 16.0 mph E25.7 kmh E 26.0 mph41.8 kmh 30.06 in1017.9 mb 0.00 in0.0 mm 0.00 in0.0 mm 0.00 in0.0 mm
11:05 AM 78.0°F25.6°C 57.3°F14.1°C 49% 16.0 mph ESE25.7 kmh ESE 20.0 mph32.2 kmh 30.05 in1017.6 mb 0.00 in0.0 mm 0.00 in0.0 mm 0.00 in0.0 mm
11:06 AM 78.0°F25.6°C 57.8°F14.3°C 50% 13.8 mph E22.2 kmh E 17.0 mph27.4 kmh 30.05 in1017.6 mb 0.00 in0.0 mm 0.00 in0.0 mm 0.00 in0.0 mm
11:07 AM 78.1°F25.6°C 58.5°F14.7°C 51% 12.0 mph E19.3 kmh E 17.0 mph27.4 kmh 30.05 in1017.6 mb 0.00 in0.0 mm 0.00 in0.0 mm 0.00 in0.0 mm
11:08 AM 78.2°F25.7°C 58.0°F14.4°C 50% 14.0 mph E22.5 kmh E 20.0 mph32.2 kmh 30.05 in1017.6 mb 0.00 in0.0 mm 0.00 in0.0 mm 0.00 in0.0 mm
11:09 AM 78.2°F25.7°C 57.5°F14.2°C 49% 17.0 mph E27.4 kmh E 24.0 mph38.6 kmh 30.06 in1017.9 mb 0.00 in0.0 mm 0.00 in0.0 mm 0.00 in0.0 mm
11:10 AM 78.3°F25.7°C 58.1°F14.5°C 50% 17.0 mph ESE27.4 kmh ESE 27.0 mph43.5 kmh 30.06 in1017.9 mb 0.00 in0.0 mm 0.00 in0.0 mm 0.00 in0.0 mm
11:11 AM 78.2°F25.7°C 58.0°F14.4°C 50% 17.6 mph E28.3 kmh E 24.0 mph38.6 kmh 30.06 in1017.9 mb 0.00 in0.0 mm 0.00 in0.0 mm 0.00 in0.0 mm
11:12 AM 78.2°F25.7°C 58.0°F14.4°C 50% 15.0 mph E24.1 kmh E 20.0 mph32.2 kmh 30.06 in1017.9 mb 0.00 in0.0 mm 0.00 in0.0 mm 0.00 in0.0 mm
11:13 AM 78.2°F25.7°C 58.6°F14.8°C 51% 13.0 mph E20.9 kmh E 17.0 mph27.4 kmh 30.05 in1017.6 mb 0.00 in0.0 mm 0.00 in0.0 mm 0.00 in0.0 mm
11:14 AM 78.4°F25.8°C 58.8°F14.9°C 51% 13.7 mph E22.0 kmh E 17.0 mph27.4 kmh 30.06 in1017.9 mb 0.00 in0.0 mm 0.00 in0.0 mm 0.00 in0.0 mm
11:15 AM 78.5°F25.8°C 58.8°F14.9°C 51% 13.0 mph E20.9 kmh E 17.0 mph27.4 kmh 30.05 in1017.6 mb 0.00 in0.0 mm 0.00 in0.0 mm 0.00 in0.0 mm
11:16 AM 78.6°F25.9°C 58.4°F14.7°C 50% 15.0 mph ESE24.1 kmh ESE 21.0 mph33.8 kmh 30.06 in1017.9 mb 0.00 in0.0 mm 0.00 in0.0 mm 0.00 in0.0 mm
11:17 AM 78.6°F25.9°C 57.8°F14.3°C 49% 15.0 mph E24.1 kmh E 21.0 mph33.8 kmh 30.06 in1017.9 mb 0.00 in0.0 mm 0.00 in0.0 mm 0.00 in0.0 mm
11:18 AM 78.6°F25.9°C 58.4°F14.7°C 50% 15.0 mph E24.1 kmh E 22.0 mph35.4 kmh 30.06 in1017.9 mb 0.00 in0.0 mm 0.00 in0.0 mm 0.00 in0.0 mm
11:19 AM 78.4°F25.8°C 58.2°F14.6°C 50% 17.0 mph E27.4 kmh E 19.0 mph30.6 kmh 30.06 in1017.9 mb 0.00 in0.0 mm 0.00 in0.0 mm 0.00 in0.0 mm
11:20 AM 78.4°F25.8°C 58.8°F14.9°C 51% 13.0 mph E20.9 kmh E 17.0 mph27.4 kmh 30.06 in1017.9 mb 0.00 in0.0 mm 0.00 in0.0 mm 0.00 in0.0 mm
11:21 AM 78.5°F25.8°C 58.8°F14.9°C 51% 14.0 mph E22.5 kmh E 16.0 mph25.7 kmh 30.06 in1017.9 mb 0.00 in0.0 mm 0.00 in0.0 mm 0.00 in0.0 mm
11:22 AM 78.4°F25.8°C 58.2°F14.6°C 50% 15.4 mph E24.8 kmh E 17.0 mph27.4 kmh 30.05 in1017.6 mb 0.00 in0.0 mm 0.00 in0.0 mm 0.00 in0.0 mm
11:23 AM 78.3°F25.7°C 58.1°F14.5°C 50% 15.6 mph E25.1 kmh E 20.0 mph32.2 kmh 30.05 in1017.6 mb 0.00 in0.0 mm 0.00 in0.0 mm 0.00 in0.0 mm
11:24 AM 78.3°F25.7°C 58.1°F14.5°C 50% 17.0 mph E27.4 kmh E 23.0 mph37.0 kmh 30.05 in1017.6 mb 0.00 in0.0 mm 0.00 in0.0 mm 0.00 in0.0 mm
11:25 AM 78.3°F25.7°C 58.1°F14.5°C 50% 15.0 mph E24.1 kmh E 19.0 mph30.6 kmh 30.05 in1017.6 mb 0.00 in0.0 mm 0.00 in0.0 mm 0.00 in0.0 mm
11:26 AM 78.3°F25.7°C 58.7°F14.8°C 51% 13.8 mph E22.2 kmh E 15.0 mph24.1 kmh 30.05 in1017.6 mb 0.00 in0.0 mm 0.00 in0.0 mm 0.00 in0.0 mm
11:27 AM 78.3°F25.7°C 58.7°F14.8°C 51% 13.0 mph E20.9 kmh E 16.0 mph25.7 kmh 30.06 in1017.9 mb 0.00 in0.0 mm 0.00 in0.0 mm 0.00 in0.0 mm
11:28 AM 78.3°F25.7°C 58.7°F14.8°C 51% 15.0 mph ESE24.1 kmh ESE 20.0 mph32.2 kmh 30.06 in1017.9 mb 0.00 in0.0 mm 0.00 in0.0 mm 0.00 in0.0 mm
11:29 AM 78.3°F25.7°C 58.7°F14.8°C 51% 14.4 mph E23.2 kmh E 17.0 mph27.4 kmh 30.06 in1017.9 mb 0.00 in0.0 mm 0.00 in0.0 mm 0.00 in0.0 mm
11:30 AM 78.3°F25.7°C 58.7°F14.8°C 51% 15.0 mph E24.1 kmh E 21.0 mph33.8 kmh 30.05 in1017.6 mb 0.00 in0.0 mm 0.00 in0.0 mm 0.00 in0.0 mm
11:31 AM 78.2°F25.7°C 58.6°F14.8°C 51% 19.0 mph E30.6 kmh E 25.0 mph40.2 kmh 30.06 in1017.9 mb 0.00 in0.0 mm 0.00 in0.0 mm 0.00 in0.0 mm
11:32 AM 78.2°F25.7°C 58.0°F14.4°C 50% 16.0 mph ESE25.7 kmh ESE 20.0 mph32.2 kmh 30.05 in1017.6 mb 0.00 in0.0 mm 0.00 in0.0 mm 0.00 in0.0 mm
11:33 AM 78.2°F25.7°C 58.0°F14.4°C 50% 19.0 mph E30.6 kmh E 25.0 mph40.2 kmh 30.05 in1017.6 mb 0.00 in0.0 mm 0.00 in0.0 mm 0.00 in0.0 mm
11:34 AM 78.1°F25.6°C 57.9°F14.4°C 50% 16.0 mph E25.7 kmh E 20.0 mph32.2 kmh 30.05 in1017.6 mb 0.00 in0.0 mm 0.00 in0.0 mm 0.00 in0.0 mm
11:35 AM 78.2°F25.7°C 58.6°F14.8°C 51% 13.0 mph E20.9 kmh E 14.0 mph22.5 kmh 30.05 in1017.6 mb 0.00 in0.0 mm 0.00 in0.0 mm 0.00 in0.0 mm
11:36 AM 78.3°F25.7°C 58.7°F14.8°C 51% 14.6 mph E23.5 kmh E 19.0 mph30.6 kmh 30.05 in1017.6 mb 0.00 in0.0 mm 0.00 in0.0 mm 0.00 in0.0 mm
11:37 AM 78.3°F25.7°C 58.7°F14.8°C 51% 18.7 mph E30.1 kmh E 23.0 mph37.0 kmh 30.06 in1017.9 mb 0.00 in0.0 mm 0.00 in0.0 mm 0.00 in0.0 mm
11:38 AM 78.2°F25.7°C 58.6°F14.8°C 51% 16.0 mph E25.7 kmh E 20.0 mph32.2 kmh 30.05 in1017.6 mb 0.00 in0.0 mm 0.00 in0.0 mm 0.00 in0.0 mm
11:39 AM 78.2°F25.7°C 58.6°F14.8°C 51% 12.0 mph ESE19.3 kmh ESE 18.0 mph29.0 kmh 30.05 in1017.6 mb 0.00 in0.0 mm 0.00 in0.0 mm 0.00 in0.0 mm
11:40 AM 78.2°F25.7°C 59.1°F15.1°C 52% 13.0 mph E20.9 kmh E 20.0 mph32.2 kmh 30.05 in1017.6 mb 0.00 in0.0 mm 0.00 in0.0 mm 0.00 in0.0 mm
11:41 AM 78.3°F25.7°C 58.7°F14.8°C 51% 15.0 mph E24.1 kmh E 21.0 mph33.8 kmh 30.05 in1017.6 mb 0.00 in0.0 mm 0.00 in0.0 mm 0.00 in0.0 mm
11:42 AM 78.3°F25.7°C 58.7°F14.8°C 51% 15.2 mph E24.5 kmh E 16.0 mph25.7 kmh 30.05 in1017.6 mb 0.00 in0.0 mm 0.00 in0.0 mm 0.00 in0.0 mm
11:43 AM 78.4°F25.8°C 58.8°F14.9°C 51% 17.7 mph E28.5 kmh E 25.0 mph40.2 kmh 30.06 in1017.9 mb 0.00 in0.0 mm 0.00 in0.0 mm 0.00 in0.0 mm
11:44 AM 78.5°F25.8°C 58.8°F14.9°C 51% 14.0 mph E22.5 kmh E 20.0 mph32.2 kmh 30.06 in1017.9 mb 0.00 in0.0 mm 0.00 in0.0 mm 0.00 in0.0 mm
11:45 AM 78.4°F25.8°C 58.2°F14.6°C 50% 14.0 mph E22.5 kmh E 19.0 mph30.6 kmh 30.06 in1017.9 mb 0.00 in0.0 mm 0.00 in0.0 mm 0.00 in0.0 mm
11:46 AM 78.4°F25.8°C 58.8°F14.9°C 51% 15.0 mph E24.1 kmh E 22.0 mph35.4 kmh 30.06 in1017.9 mb 0.00 in0.0 mm 0.00 in0.0 mm 0.00 in0.0 mm
11:47 AM 78.4°F25.8°C 58.2°F14.6°C 50% 16.0 mph ESE25.7 kmh ESE 23.0 mph37.0 kmh 30.06 in1017.9 mb 0.00 in0.0 mm 0.00 in0.0 mm 0.00 in0.0 mm
11:48 AM 78.3°F25.7°C 58.1°F14.5°C 50% 14.0 mph E22.5 kmh E 18.0 mph29.0 kmh 30.05 in1017.6 mb 0.00 in0.0 mm 0.00 in0.0 mm 0.00 in0.0 mm
11:49 AM 78.2°F25.7°C 59.1°F15.1°C 52% 11.0 mph ENE17.7 kmh ENE 14.0 mph22.5 kmh 30.05 in1017.6 mb 0.00 in0.0 mm 0.00 in0.0 mm 0.00 in0.0 mm
11:50 AM 78.3°F25.7°C 59.2°F15.1°C 52% 14.0 mph E22.5 kmh E 19.0 mph30.6 kmh 30.05 in1017.6 mb 0.00 in0.0 mm 0.00 in0.0 mm 0.00 in0.0 mm
11:51 AM 78.3°F25.7°C 58.7°F14.8°C 51% 13.9 mph ENE22.4 kmh ENE 17.0 mph27.4 kmh 30.05 in1017.6 mb 0.00 in0.0 mm 0.00 in0.0 mm 0.00 in0.0 mm
11:52 AM 78.4°F25.8°C 58.8°F14.9°C 51% 15.0 mph E24.1 kmh E 20.0 mph32.2 kmh 30.05 in1017.6 mb 0.00 in0.0 mm 0.00 in0.0 mm 0.00 in0.0 mm
11:53 AM 78.4°F25.8°C 59.3°F15.2°C 52% 12.0 mph E19.3 kmh E 15.0 mph24.1 kmh 30.05 in1017.6 mb 0.00 in0.0 mm 0.00 in0.0 mm 0.00 in0.0 mm
11:54 AM 78.4°F25.8°C 59.3°F15.2°C 52% 16.5 mph E26.6 kmh E 18.0 mph29.0 kmh 30.05 in1017.6 mb 0.00 in0.0 mm 0.00 in0.0 mm 0.00 in0.0 mm
11:55 AM 78.4°F25.8°C 58.8°F14.9°C 51% 17.0 mph E27.4 kmh E 20.0 mph32.2 kmh 30.05 in1017.6 mb 0.00 in0.0 mm 0.00 in0.0 mm 0.00 in0.0 mm
11:56 AM 78.3°F25.7°C 58.1°F14.5°C 50% 15.0 mph E24.1 kmh E 19.0 mph30.6 kmh 30.05 in1017.6 mb 0.00 in0.0 mm 0.00 in0.0 mm 0.00 in0.0 mm
11:57 AM 78.2°F25.7°C 59.1°F15.1°C 52% 12.0 mph E19.3 kmh E 16.0 mph25.7 kmh 30.05 in1017.6 mb 0.00 in0.0 mm 0.00 in0.0 mm 0.00 in0.0 mm
11:58 AM 78.2°F25.7°C 59.1°F15.1°C 52% 16.0 mph E25.7 kmh E 20.0 mph32.2 kmh 30.05 in1017.6 mb 0.00 in0.0 mm 0.00 in0.0 mm 0.00 in0.0 mm
11:59 AM 78.2°F25.7°C 59.1°F15.1°C 52% 14.0 mph ESE22.5 kmh ESE 17.0 mph27.4 kmh 30.05 in1017.6 mb 0.00 in0.0 mm 0.00 in0.0 mm 0.00 in0.0 mm
12:00 PM 78.2°F25.7°C 59.6°F15.3°C 53% 13.0 mph E20.9 kmh E 18.0 mph29.0 kmh 30.05 in1017.6 mb 0.00 in0.0 mm 0.00 in0.0 mm 0.00 in0.0 mm
12:01 PM 78.3°F25.7°C 59.7°F15.4°C 53% 13.5 mph E21.7 kmh E 18.0 mph29.0 kmh 30.05 in1017.6 mb 0.00 in0.0 mm 0.00 in0.0 mm 0.00 in0.0 mm
12:02 PM 78.3°F25.7°C 59.7°F15.4°C 53% 13.0 mph E20.9 kmh E 18.0 mph29.0 kmh 30.05 in1017.6 mb 0.00 in0.0 mm 0.00 in0.0 mm 0.00 in0.0 mm
12:03 PM 78.4°F25.8°C 59.3°F15.2°C 52% 15.0 mph ENE24.1 kmh ENE 20.0 mph32.2 kmh 30.05 in1017.6 mb 0.00 in0.0 mm 0.00 in0.0 mm 0.00 in0.0 mm
12:04 PM 78.4°F25.8°C 59.8°F15.4°C 53% 11.0 mph E17.7 kmh E 13.0 mph20.9 kmh 30.05 in1017.6 mb 0.00 in0.0 mm 0.00 in0.0 mm 0.00 in0.0 mm
12:05 PM 78.4°F25.8°C 59.8°F15.4°C 53% 14.0 mph E22.5 kmh E 21.0 mph33.8 kmh 30.05 in1017.6 mb 0.00 in0.0 mm 0.00 in0.0 mm 0.00 in0.0 mm
12:06 PM 78.4°F25.8°C 59.8°F15.4°C 53% 12.3 mph E19.8 kmh E 21.0 mph33.8 kmh 30.05 in1017.6 mb 0.00 in0.0 mm 0.00 in0.0 mm 0.00 in0.0 mm
12:07 PM 78.5°F25.8°C 59.9°F15.5°C 53% 13.6 mph ENE21.9 kmh ENE 20.0 mph32.2 kmh 30.05 in1017.6 mb 0.00 in0.0 mm 0.00 in0.0 mm 0.00 in0.0 mm
12:08 PM 78.6°F25.9°C 60.0°F15.6°C 53% 15.0 mph ENE24.1 kmh ENE 17.0 mph27.4 kmh 30.05 in1017.6 mb 0.00 in0.0 mm 0.00 in0.0 mm 0.00 in0.0 mm
12:09 PM 78.6°F25.9°C 60.0°F15.6°C 53% 13.0 mph E20.9 kmh E 16.0 mph25.7 kmh 30.05 in1017.6 mb 0.00 in0.0 mm 0.00 in0.0 mm 0.00 in0.0 mm
12:10 PM 78.6°F25.9°C 59.5°F15.3°C 52% 14.0 mph E22.5 kmh E 21.0 mph33.8 kmh 30.05 in1017.6 mb 0.00 in0.0 mm 0.00 in0.0 mm 0.00 in0.0 mm
12:11 PM 78.6°F25.9°C 60.0°F15.6°C 53% 14.0 mph E22.5 kmh E 17.0 mph27.4 kmh 30.05 in1017.6 mb 0.00 in0.0 mm 0.00 in0.0 mm 0.00 in0.0 mm
12:12 PM 78.5°F25.8°C 59.9°F15.5°C 53% 13.0 mph E20.9 kmh E 17.0 mph27.4 kmh 30.05 in1017.6 mb 0.00 in0.0 mm 0.00 in0.0 mm 0.00 in0.0 mm
12:13 PM 78.6°F25.9°C 60.5°F15.8°C 54% 11.0 mph E17.7 kmh E 15.0 mph24.1 kmh 30.05 in1017.6 mb 0.00 in0.0 mm 0.00 in0.0 mm 0.00 in0.0 mm
12:14 PM 78.6°F25.9°C 60.5°F15.8°C 54% 12.0 mph E19.3 kmh E 16.0 mph25.7 kmh 30.05 in1017.6 mb 0.00 in0.0 mm 0.00 in0.0 mm 0.00 in0.0 mm
12:15 PM 78.7°F25.9°C 60.1°F15.6°C 53% 11.3 mph ESE18.2 kmh ESE 13.0 mph20.9 kmh 30.05 in1017.6 mb 0.00 in0.0 mm 0.00 in0.0 mm 0.00 in0.0 mm
12:16 PM 78.9°F26.1°C 60.3°F15.7°C 53% 11.0 mph E17.7 kmh E 14.0 mph22.5 kmh 30.05 in1017.6 mb 0.00 in0.0 mm 0.00 in0.0 mm 0.00 in0.0 mm
12:17 PM 78.9°F26.1°C 59.8°F15.4°C 52% 14.0 mph E22.5 kmh E 17.0 mph27.4 kmh 30.05 in1017.6 mb 0.00 in0.0 mm 0.00 in0.0 mm 0.00 in0.0 mm
12:18 PM 78.9°F26.1°C 59.8°F15.4°C 52% 13.0 mph ENE20.9 kmh ENE 17.0 mph27.4 kmh 30.05 in1017.6 mb 0.00 in0.0 mm 0.00 in0.0 mm 0.00 in0.0 mm
12:19 PM 78.9°F26.1°C 59.8°F15.4°C 52% 13.0 mph E20.9 kmh E 15.0 mph24.1 kmh 30.05 in1017.6 mb 0.00 in0.0 mm 0.00 in0.0 mm 0.00 in0.0 mm
12:20 PM 78.9°F26.1°C 60.3°F15.7°C 53% 8.9 mph E14.3 kmh E 11.0 mph17.7 kmh 30.05 in1017.6 mb 0.00 in0.0 mm 0.00 in0.0 mm 0.00 in0.0 mm
12:21 PM 78.8°F26.0°C 59.1°F15.1°C 51% 13.0 mph E20.9 kmh E 17.0 mph27.4 kmh 30.05 in1017.6 mb 0.00 in0.0 mm 0.00 in0.0 mm 0.00 in0.0 mm
12:22 PM 78.9°F26.1°C 60.3°F15.7°C 53% 12.0 mph E19.3 kmh E 17.0 mph27.4 kmh 30.05 in1017.6 mb 0.00 in0.0 mm 0.00 in0.0 mm 0.00 in0.0 mm
12:23 PM 78.9°F26.1°C 60.3°F15.7°C 53% 16.0 mph ENE25.7 kmh ENE 22.0 mph35.4 kmh 30.05 in1017.6 mb 0.00 in0.0 mm 0.00 in0.0 mm 0.00 in0.0 mm
12:24 PM 78.9°F26.1°C 59.8°F15.4°C 52% 15.0 mph E24.1 kmh E 20.0 mph32.2 kmh 30.05 in1017.6 mb 0.00 in0.0 mm 0.00 in0.0 mm 0.00 in0.0 mm
12:25 PM 78.9°F26.1°C 60.3°F15.7°C 53% 15.0 mph ESE24.1 kmh ESE 19.0 mph30.6 kmh 30.05 in1017.6 mb 0.00 in0.0 mm 0.00 in0.0 mm 0.00 in0.0 mm
12:26 PM 78.9°F26.1°C 59.8°F15.4°C 52% 12.0 mph ESE19.3 kmh ESE 17.0 mph27.4 kmh 30.05 in1017.6 mb 0.00 in0.0 mm 0.00 in0.0 mm 0.00 in0.0 mm
12:27 PM 78.9°F26.1°C 59.8°F15.4°C 52% 12.0 mph E19.3 kmh E 15.0 mph24.1 kmh 30.05 in1017.6 mb 0.00 in0.0 mm 0.00 in0.0 mm 0.00 in0.0 mm
12:28 PM 79.0°F26.1°C 59.8°F15.4°C 52% 11.0 mph E17.7 kmh E 13.0 mph20.9 kmh 30.05 in1017.6 mb 0.00 in0.0 mm 0.00 in0.0 mm 0.00 in0.0 mm
12:29 PM 79.0°F26.1°C 59.3°F15.2°C 51% 15.0 mph ESE24.1 kmh ESE 19.0 mph30.6 kmh 30.05 in1017.6 mb 0.00 in0.0 mm 0.00 in0.0 mm 0.00 in0.0 mm
12:30 PM 78.9°F26.1°C 59.8°F15.4°C 52% 15.0 mph ESE24.1 kmh ESE 19.0 mph30.6 kmh 30.05 in1017.6 mb 0.00 in0.0 mm 0.00 in0.0 mm 0.00 in0.0 mm
12:31 PM 78.9°F26.1°C 60.3°F15.7°C 53% 15.6 mph E25.1 kmh E 20.0 mph32.2 kmh 30.05 in1017.6 mb 0.00 in0.0 mm 0.00 in0.0 mm 0.00 in0.0 mm
12:32 PM 78.7°F25.9°C 60.1°F15.6°C 53% 13.0 mph E20.9 kmh E 17.0 mph27.4 kmh 30.05 in1017.6 mb 0.00 in0.0 mm 0.00 in0.0 mm 0.00 in0.0 mm
12:33 PM 78.6°F25.9°C 60.0°F15.6°C 53% 16.0 mph E25.7 kmh E 23.0 mph37.0 kmh 30.05 in1017.6 mb 0.00 in0.0 mm 0.00 in0.0 mm 0.00 in0.0 mm
12:34 PM 78.5°F25.8°C 59.4°F15.2°C 52% 17.0 mph E27.4 kmh E 24.0 mph38.6 kmh 30.05 in1017.6 mb 0.00 in0.0 mm 0.00 in0.0 mm 0.00 in0.0 mm
12:35 PM 78.4°F25.8°C 59.8°F15.4°C 53% 17.0 mph E27.4 kmh E 22.0 mph35.4 kmh 30.05 in1017.6 mb 0.00 in0.0 mm 0.00 in0.0 mm 0.00 in0.0 mm
12:36 PM 78.3°F25.7°C 60.3°F15.7°C 54% 17.0 mph E27.4 kmh E 22.0 mph35.4 kmh 30.05 in1017.6 mb 0.00 in0.0 mm 0.00 in0.0 mm 0.00 in0.0 mm
12:37 PM 78.3°F25.7°C 59.7°F15.4°C 53% 16.0 mph E25.7 kmh E 19.0 mph30.6 kmh 30.05 in1017.6 mb 0.00 in0.0 mm 0.00 in0.0 mm 0.00 in0.0 mm
12:38 PM 78.2°F25.7°C 60.2°F15.7°C 54% 12.0 mph E19.3 kmh E 16.0 mph25.7 kmh 30.05 in1017.6 mb 0.00 in0.0 mm 0.00 in0.0 mm 0.00 in0.0 mm
12:39 PM 78.2°F25.7°C 60.2°F15.7°C 54% 12.0 mph E19.3 kmh E 16.0 mph25.7 kmh 30.05 in1017.6 mb 0.00 in0.0 mm 0.00 in0.0 mm 0.00 in0.0 mm
12:40 PM 78.3°F25.7°C 59.7°F15.4°C 53% 10.0 mph E16.1 kmh E 11.0 mph17.7 kmh 30.05 in1017.6 mb 0.00 in0.0 mm 0.00 in0.0 mm 0.00 in0.0 mm
12:41 PM 78.4°F25.8°C 60.4°F15.8°C 54% 15.9 mph E25.6 kmh E 17.0 mph27.4 kmh 30.05 in1017.6 mb 0.00 in0.0 mm 0.00 in0.0 mm 0.00 in0.0 mm
12:42 PM 78.4°F25.8°C 59.8°F15.4°C 53% 13.0 mph E20.9 kmh E 17.0 mph27.4 kmh 30.05 in1017.6 mb 0.00 in0.0 mm 0.00 in0.0 mm 0.00 in0.0 mm
12:43 PM 78.4°F25.8°C 59.8°F15.4°C 53% 16.0 mph E25.7 kmh E 22.0 mph35.4 kmh 30.05 in1017.6 mb 0.00 in0.0 mm 0.00 in0.0 mm 0.00 in0.0 mm
12:44 PM 78.4°F25.8°C 59.8°F15.4°C 53% 15.0 mph E24.1 kmh E 18.0 mph29.0 kmh 30.05 in1017.6 mb 0.00 in0.0 mm 0.00 in0.0 mm 0.00 in0.0 mm
12:45 PM 78.4°F25.8°C 59.8°F15.4°C 53% 13.0 mph E20.9 kmh E 16.0 mph25.7 kmh 30.05 in1017.6 mb 0.00 in0.0 mm 0.00 in0.0 mm 0.00 in0.0 mm
12:46 PM 78.5°F25.8°C 59.9°F15.5°C 53% 12.0 mph ESE19.3 kmh ESE 12.0 mph19.3 kmh 30.05 in1017.6 mb 0.00 in0.0 mm 0.00 in0.0 mm 0.00 in0.0 mm
12:47 PM 78.6°F25.9°C 60.0°F15.6°C 53% 10.8 mph E17.4 kmh E 13.0 mph20.9 kmh 30.05 in1017.6 mb 0.00 in0.0 mm 0.00 in0.0 mm 0.00 in0.0 mm
12:48 PM 78.7°F25.9°C 60.1°F15.6°C 53% 11.5 mph E18.5 kmh E 14.0 mph22.5 kmh 30.05 in1017.6 mb 0.00 in0.0 mm 0.00 in0.0 mm 0.00 in0.0 mm
12:49 PM 78.7°F25.9°C 60.1°F15.6°C 53% 9.0 mph E14.5 kmh E 11.0 mph17.7 kmh 30.05 in1017.6 mb 0.00 in0.0 mm 0.00 in0.0 mm 0.00 in0.0 mm
12:50 PM 78.9°F26.1°C 60.8°F16.0°C 54% 9.0 mph ESE14.5 kmh ESE 13.0 mph20.9 kmh 30.05 in1017.6 mb 0.00 in0.0 mm 0.00 in0.0 mm 0.00 in0.0 mm
12:51 PM 79.0°F26.1°C 59.8°F15.4°C 52% 15.4 mph E24.8 kmh E 18.0 mph29.0 kmh 30.05 in1017.6 mb 0.00 in0.0 mm 0.00 in0.0 mm 0.00 in0.0 mm
12:52 PM 79.0°F26.1°C 59.3°F15.2°C 51% 13.0 mph E20.9 kmh E 17.0 mph27.4 kmh 30.05 in1017.6 mb 0.00 in0.0 mm 0.00 in0.0 mm 0.00 in0.0 mm
12:53 PM 78.9°F26.1°C 59.8°F15.4°C 52% 13.0 mph E20.9 kmh E 20.0 mph32.2 kmh 30.05 in1017.6 mb 0.00 in0.0 mm 0.00 in0.0 mm 0.00 in0.0 mm
12:54 PM 78.9°F26.1°C 60.3°F15.7°C 53% 11.0 mph E17.7 kmh E 14.0 mph22.5 kmh 30.05 in1017.6 mb 0.00 in0.0 mm 0.00 in0.0 mm 0.00 in0.0 mm
12:55 PM 78.9°F26.1°C 59.2°F15.1°C 51% 16.0 mph E25.7 kmh E 19.0 mph30.6 kmh 30.05 in1017.6 mb 0.00 in0.0 mm 0.00 in0.0 mm 0.00 in0.0 mm
12:56 PM 78.7°F25.9°C 59.6°F15.3°C 52% 14.0 mph E22.5 kmh E 17.0 mph27.4 kmh 30.05 in1017.6 mb 0.00 in0.0 mm 0.00 in0.0 mm 0.00 in0.0 mm
12:57 PM 78.7°F25.9°C 59.6°F15.3°C 52% 19.0 mph E30.6 kmh E 23.0 mph37.0 kmh 30.05 in1017.6 mb 0.00 in0.0 mm 0.00 in0.0 mm 0.00 in0.0 mm
12:58 PM 78.6°F25.9°C 59.5°F15.3°C 52% 16.0 mph E25.7 kmh E 20.0 mph32.2 kmh 30.05 in1017.6 mb 0.00 in0.0 mm 0.00 in0.0 mm 0.00 in0.0 mm
12:59 PM 78.5°F25.8°C 59.4°F15.2°C 52% 14.0 mph E22.5 kmh E 19.0 mph30.6 kmh 30.05 in1017.6 mb 0.00 in0.0 mm 0.00 in0.0 mm 0.00 in0.0 mm
01:00 PM 78.4°F25.8°C 59.8°F15.4°C 53% 12.0 mph E19.3 kmh E 14.0 mph22.5 kmh 30.05 in1017.6 mb 0.00 in0.0 mm 0.00 in0.0 mm 0.00 in0.0 mm
01:01 PM 78.5°F25.8°C 60.4°F15.8°C 54% 12.0 mph E19.3 kmh E 16.0 mph25.7 kmh 30.05 in1017.6 mb 0.00 in0.0 mm 0.00 in0.0 mm 0.00 in0.0 mm
01:02 PM 78.4°F25.8°C 59.8°F15.4°C 53% 13.0 mph ESE20.9 kmh ESE 16.0 mph25.7 kmh 30.05 in1017.6 mb 0.00 in0.0 mm 0.00 in0.0 mm 0.00 in0.0 mm
01:03 PM 78.5°F25.8°C 59.4°F15.2°C 52% 14.0 mph E22.5 kmh E 17.0 mph27.4 kmh 30.05 in1017.6 mb 0.00 in0.0 mm 0.00 in0.0 mm 0.00 in0.0 mm
01:04 PM 78.4°F25.8°C 59.8°F15.4°C 53% 10.0 mph E16.1 kmh E 15.0 mph24.1 kmh 30.05 in1017.6 mb 0.00 in0.0 mm 0.00 in0.0 mm 0.00 in0.0 mm
01:05 PM 78.6°F25.9°C 60.5°F15.8°C 54% 8.0 mph ESE12.9 kmh ESE 12.0 mph19.3 kmh 30.05 in1017.6 mb 0.00 in0.0 mm 0.00 in0.0 mm 0.00 in0.0 mm
01:06 PM 78.8°F26.0°C 60.2°F15.7°C 53% 7.0 mph E11.3 kmh E 10.0 mph16.1 kmh 30.05 in1017.6 mb 0.00 in0.0 mm 0.00 in0.0 mm 0.00 in0.0 mm
01:07 PM 79.0°F26.1°C 60.4°F15.8°C 53% 9.4 mph E15.1 kmh E 12.0 mph19.3 kmh 30.05 in1017.6 mb 0.00 in0.0 mm 0.00 in0.0 mm 0.00 in0.0 mm
01:08 PM 79.2°F26.2°C 60.6°F15.9°C 53% 11.0 mph ESE17.7 kmh ESE 16.0 mph25.7 kmh 30.05 in1017.6 mb 0.00 in0.0 mm 0.00 in0.0 mm 0.00 in0.0 mm
01:09 PM 79.1°F26.2°C 59.9°F15.5°C 52% 13.0 mph E20.9 kmh E 16.0 mph25.7 kmh 30.06 in1017.9 mb 0.00 in0.0 mm 0.00 in0.0 mm 0.00 in0.0 mm
01:10 PM 79.2°F26.2°C 60.6°F15.9°C 53% 10.9 mph E17.5 kmh E 13.0 mph20.9 kmh 30.05 in1017.6 mb 0.00 in0.0 mm 0.00 in0.0 mm 0.00 in0.0 mm
01:11 PM 79.1°F26.2°C 59.9°F15.5°C 52% 11.8 mph E19.0 kmh E 15.0 mph24.1 kmh 30.05 in1017.6 mb 0.00 in0.0 mm 0.00 in0.0 mm 0.00 in0.0 mm
01:12 PM 79.1°F26.2°C 60.5°F15.8°C 53% 10.0 mph E16.1 kmh E 14.0 mph22.5 kmh 30.06 in1017.9 mb 0.00 in0.0 mm 0.00 in0.0 mm 0.00 in0.0 mm
01:13 PM 78.9°F26.1°C 59.8°F15.4°C 52% 11.0 mph E17.7 kmh E 16.0 mph25.7 kmh 30.06 in1017.9 mb 0.00 in0.0 mm 0.00 in0.0 mm 0.00 in0.0 mm
01:14 PM 78.9°F26.1°C 59.8°F15.4°C 52% 10.0 mph E16.1 kmh E 13.0 mph20.9 kmh 30.06 in1017.9 mb 0.00 in0.0 mm 0.00 in0.0 mm 0.00 in0.0 mm
01:15 PM 78.9°F26.1°C 60.3°F15.7°C 53% 12.0 mph ESE19.3 kmh ESE 14.0 mph22.5 kmh 30.06 in1017.9 mb 0.00 in0.0 mm 0.00 in0.0 mm 0.00 in0.0 mm
01:16 PM 78.8°F26.0°C 60.2°F15.7°C 53% 9.0 mph ESE14.5 kmh ESE 12.0 mph19.3 kmh 30.06 in1017.9 mb 0.00 in0.0 mm 0.00 in0.0 mm 0.00 in0.0 mm
01:17 PM 78.9°F26.1°C 60.3°F15.7°C 53% 11.0 mph E17.7 kmh E 16.0 mph25.7 kmh 30.06 in1017.9 mb 0.00 in0.0 mm 0.00 in0.0 mm 0.00 in0.0 mm
01:18 PM 79.0°F26.1°C 59.8°F15.4°C 52% 15.0 mph E24.1 kmh E 19.0 mph30.6 kmh 30.06 in1017.9 mb 0.00 in0.0 mm 0.00 in0.0 mm 0.00 in0.0 mm
01:19 PM 79.0°F26.1°C 59.8°F15.4°C 52% 11.0 mph ESE17.7 kmh ESE 14.0 mph22.5 kmh 30.06 in1017.9 mb 0.00 in0.0 mm 0.00 in0.0 mm 0.00 in0.0 mm
01:20 PM 78.9°F26.1°C 59.8°F15.4°C 52% 15.0 mph E24.1 kmh E 18.0 mph29.0 kmh 30.06 in1017.9 mb 0.00 in0.0 mm 0.00 in0.0 mm 0.00 in0.0 mm
01:21 PM 78.7°F25.9°C 59.0°F15.0°C 51% 9.4 mph E15.1 kmh E 11.0 mph17.7 kmh 30.06 in1017.9 mb 0.00 in0.0 mm 0.00 in0.0 mm 0.00 in0.0 mm
01:22 PM 78.7°F25.9°C 59.6°F15.3°C 52% 10.0 mph ESE16.1 kmh ESE 15.0 mph24.1 kmh 30.06 in1017.9 mb 0.00 in0.0 mm 0.00 in0.0 mm 0.00 in0.0 mm
01:23 PM 78.8°F26.0°C 60.2°F15.7°C 53% 10.0 mph E16.1 kmh E 15.0 mph24.1 kmh 30.06 in1017.9 mb 0.00 in0.0 mm 0.00 in0.0 mm 0.00 in0.0 mm
01:24 PM 78.9°F26.1°C 60.3°F15.7°C 53% 13.0 mph E20.9 kmh E 17.0 mph27.4 kmh 30.06 in1017.9 mb 0.00 in0.0 mm 0.00 in0.0 mm 0.00 in0.0 mm
01:25 PM 78.9°F26.1°C 59.8°F15.4°C 52% 13.0 mph E20.9 kmh E 16.0 mph25.7 kmh 30.06 in1017.9 mb 0.00 in0.0 mm 0.00 in0.0 mm 0.00 in0.0 mm
01:26 PM 78.9°F26.1°C 59.8°F15.4°C 52% 9.7 mph E15.6 kmh E 11.0 mph17.7 kmh 30.06 in1017.9 mb 0.00 in0.0 mm 0.00 in0.0 mm 0.00 in0.0 mm
01:27 PM 79.0°F26.1°C 60.4°F15.8°C 53% 13.0 mph E20.9 kmh E 16.0 mph25.7 kmh 30.06 in1017.9 mb 0.00 in0.0 mm 0.00 in0.0 mm 0.00 in0.0 mm
01:28 PM 79.0°F26.1°C 59.8°F15.4°C 52% 14.0 mph E22.5 kmh E 16.0 mph25.7 kmh 30.06 in1017.9 mb 0.00 in0.0 mm 0.00 in0.0 mm 0.00 in0.0 mm
01:29 PM 79.0°F26.1°C 59.3°F15.2°C 51% 12.0 mph E19.3 kmh E 16.0 mph25.7 kmh 30.05 in1017.6 mb 0.00 in0.0 mm 0.00 in0.0 mm 0.00 in0.0 mm
01:30 PM 79.0°F26.1°C 59.3°F15.2°C 51% 11.0 mph ESE17.7 kmh ESE 15.0 mph24.1 kmh 30.06 in1017.9 mb 0.00 in0.0 mm 0.00 in0.0 mm 0.00 in0.0 mm
01:31 PM 79.1°F26.2°C 59.9°F15.5°C 52% 11.0 mph ESE17.7 kmh ESE 13.0 mph20.9 kmh 30.06 in1017.9 mb 0.00 in0.0 mm 0.00 in0.0 mm 0.00 in0.0 mm
01:32 PM 79.2°F26.2°C 60.0°F15.6°C 52% 8.3 mph ESE13.4 kmh ESE 10.0 mph16.1 kmh 30.05 in1017.6 mb 0.00 in0.0 mm 0.00 in0.0 mm 0.00 in0.0 mm
01:33 PM 79.4°F26.3°C 60.2°F15.7°C 52% 11.0 mph ESE17.7 kmh ESE 14.0 mph22.5 kmh 30.05 in1017.6 mb 0.00 in0.0 mm 0.00 in0.0 mm 0.00 in0.0 mm
01:34 PM 79.4°F26.3°C 59.7°F15.4°C 51% 12.0 mph ESE19.3 kmh ESE 16.0 mph25.7 kmh 30.06 in1017.9 mb 0.00 in0.0 mm 0.00 in0.0 mm 0.00 in0.0 mm
01:35 PM 79.4°F26.3°C 59.1°F15.1°C 50% 9.7 mph E15.6 kmh E 11.0 mph17.7 kmh 30.06 in1017.9 mb 0.00 in0.0 mm 0.00 in0.0 mm 0.00 in0.0 mm
01:36 PM 79.4°F26.3°C 60.2°F15.7°C 52% 9.0 mph E14.5 kmh E 12.0 mph19.3 kmh 30.06 in1017.9 mb 0.00 in0.0 mm 0.00 in0.0 mm 0.00 in0.0 mm
01:37 PM 79.4°F26.3°C 60.2°F15.7°C 52% 10.0 mph E16.1 kmh E 11.0 mph17.7 kmh 30.06 in1017.9 mb 0.00 in0.0 mm 0.00 in0.0 mm 0.00 in0.0 mm
01:38 PM 79.3°F26.3°C 60.1°F15.6°C 52% 9.5 mph E15.3 kmh E 13.0 mph20.9 kmh 30.06 in1017.9 mb 0.00 in0.0 mm 0.00 in0.0 mm 0.00 in0.0 mm
01:39 PM 79.3°F26.3°C 60.7°F15.9°C 53% 9.0 mph ESE14.5 kmh ESE 12.0 mph19.3 kmh 30.06 in1017.9 mb 0.00 in0.0 mm 0.00 in0.0 mm 0.00 in0.0 mm
01:40 PM 79.4°F26.3°C 60.2°F15.7°C 52% 13.0 mph E20.9 kmh E 17.0 mph27.4 kmh 30.06 in1017.9 mb 0.00 in0.0 mm 0.00 in0.0 mm 0.00 in0.0 mm
01:41 PM 79.3°F26.3°C 60.1°F15.6°C 52% 13.0 mph ESE20.9 kmh ESE 17.0 mph27.4 kmh 30.06 in1017.9 mb 0.00 in0.0 mm 0.00 in0.0 mm 0.00 in0.0 mm
01:42 PM 79.3°F26.3°C 59.6°F15.3°C 51% 8.0 mph ESE12.9 kmh ESE 12.0 mph19.3 kmh 30.06 in1017.9 mb 0.00 in0.0 mm 0.00 in0.0 mm 0.00 in0.0 mm
01:43 PM 79.3°F26.3°C 60.1°F15.6°C 52% 9.0 mph ESE14.5 kmh ESE 11.0 mph17.7 kmh 30.06 in1017.9 mb 0.00 in0.0 mm 0.00 in0.0 mm 0.00 in0.0 mm
01:44 PM 79.4°F26.3°C 60.8°F16.0°C 53% 8.0 mph ESE12.9 kmh ESE 11.0 mph17.7 kmh 30.06 in1017.9 mb 0.00 in0.0 mm 0.00 in0.0 mm 0.00 in0.0 mm
01:45 PM 79.5°F26.4°C 60.3°F15.7°C 52% 9.0 mph E14.5 kmh E 12.0 mph19.3 kmh 30.06 in1017.9 mb 0.00 in0.0 mm 0.00 in0.0 mm 0.00 in0.0 mm
01:46 PM 79.6°F26.4°C 60.4°F15.8°C 52% 8.0 mph ESE12.9 kmh ESE 11.0 mph17.7 kmh 30.06 in1017.9 mb 0.00 in0.0 mm 0.00 in0.0 mm 0.00 in0.0 mm
01:47 PM 79.7°F26.5°C 59.9°F15.5°C 51% 10.7 mph E17.2 kmh E 14.0 mph22.5 kmh 30.06 in1017.9 mb 0.00 in0.0 mm 0.00 in0.0 mm 0.00 in0.0 mm
01:48 PM 79.8°F26.6°C 60.0°F15.6°C 51% 10.8 mph E17.4 kmh E 15.0 mph24.1 kmh 30.06 in1017.9 mb 0.00 in0.0 mm 0.00 in0.0 mm 0.00 in0.0 mm
01:49 PM 79.9°F26.6°C 59.0°F15.0°C 49% 9.0 mph E14.5 kmh E 11.0 mph17.7 kmh 30.06 in1017.9 mb 0.00 in0.0 mm 0.00 in0.0 mm 0.00 in0.0 mm
01:50 PM 80.0°F26.7°C 60.8°F16.0°C 52% 10.0 mph ENE16.1 kmh ENE 14.0 mph22.5 kmh 30.06 in1017.9 mb 0.00 in0.0 mm 0.00 in0.0 mm 0.00 in0.0 mm
01:51 PM 80.1°F26.7°C 60.9°F16.1°C 52% 10.0 mph ENE16.1 kmh ENE 14.0 mph22.5 kmh 30.05 in1017.6 mb 0.00 in0.0 mm 0.00 in0.0 mm 0.00 in0.0 mm
01:52 PM 80.1°F26.7°C 61.4°F16.3°C 53% 10.0 mph E16.1 kmh E 12.0 mph19.3 kmh 30.06 in1017.9 mb 0.00 in0.0 mm 0.00 in0.0 mm 0.00 in0.0 mm
01:53 PM 80.1°F26.7°C 60.9°F16.1°C 52% 12.0 mph E19.3 kmh E 14.0 mph22.5 kmh 30.05 in1017.6 mb 0.00 in0.0 mm 0.00 in0.0 mm 0.00 in0.0 mm
01:54 PM 80.1°F26.7°C 60.9°F16.1°C 52% 8.0 mph ESE12.9 kmh ESE 11.0 mph17.7 kmh 30.05 in1017.6 mb 0.00 in0.0 mm 0.00 in0.0 mm 0.00 in0.0 mm
01:55 PM 80.1°F26.7°C 60.9°F16.1°C 52% 9.0 mph ESE14.5 kmh ESE 12.0 mph19.3 kmh 30.05 in1017.6 mb 0.00 in0.0 mm 0.00 in0.0 mm 0.00 in0.0 mm
01:56 PM 80.2°F26.8°C 60.4°F15.8°C 51% 8.0 mph ESE12.9 kmh ESE 14.0 mph22.5 kmh 30.06 in1017.9 mb 0.00 in0.0 mm 0.00 in0.0 mm 0.00 in0.0 mm
01:57 PM 80.4°F26.9°C 60.0°F15.6°C 50% 11.0 mph ESE17.7 kmh ESE 15.0 mph24.1 kmh 30.06 in1017.9 mb 0.00 in0.0 mm 0.00 in0.0 mm 0.00 in0.0 mm
01:58 PM 80.4°F26.9°C 59.5°F15.3°C 49% 10.0 mph ESE16.1 kmh ESE 12.0 mph19.3 kmh 30.06 in1017.9 mb 0.00 in0.0 mm 0.00 in0.0 mm 0.00 in0.0 mm
01:59 PM 80.4°F26.9°C 59.5°F15.3°C 49% 11.0 mph ESE17.7 kmh ESE 15.0 mph24.1 kmh 30.05 in1017.6 mb 0.00 in0.0 mm 0.00 in0.0 mm 0.00 in0.0 mm
02:00 PM 80.4°F26.9°C 59.5°F15.3°C 49% 12.0 mph ESE19.3 kmh ESE 15.0 mph24.1 kmh 30.05 in1017.6 mb 0.00 in0.0 mm 0.00 in0.0 mm 0.00 in0.0 mm
02:01 PM 80.3°F26.8°C 59.9°F15.5°C 50% 8.0 mph ESE12.9 kmh ESE 11.0 mph17.7 kmh 30.05 in1017.6 mb 0.00 in0.0 mm 0.00 in0.0 mm 0.00 in0.0 mm
02:02 PM 80.4°F26.9°C 60.0°F15.6°C 50% 8.0 mph ESE12.9 kmh ESE 10.0 mph16.1 kmh 30.05 in1017.6 mb 0.00 in0.0 mm 0.00 in0.0 mm 0.00 in0.0 mm
02:03 PM 80.5°F26.9°C 60.1°F15.6°C 50% 10.0 mph E16.1 kmh E 14.0 mph22.5 kmh 30.05 in1017.6 mb 0.00 in0.0 mm 0.00 in0.0 mm 0.00 in0.0 mm
02:04 PM 80.5°F26.9°C 59.0°F15.0°C 48% 10.0 mph ESE16.1 kmh ESE 13.0 mph20.9 kmh 30.05 in1017.6 mb 0.00 in0.0 mm 0.00 in0.0 mm 0.00 in0.0 mm
02:05 PM 80.5°F26.9°C 59.6°F15.3°C 49% 10.0 mph ESE16.1 kmh ESE 15.0 mph24.1 kmh 30.05 in1017.6 mb 0.00 in0.0 mm 0.00 in0.0 mm 0.00 in0.0 mm
02:06 PM 80.5°F26.9°C 59.0°F15.0°C 48% 14.3 mph E23.0 kmh E 16.0 mph25.7 kmh 30.05 in1017.6 mb 0.00 in0.0 mm 0.00 in0.0 mm 0.00 in0.0 mm
02:07 PM 80.5°F26.9°C 59.0°F15.0°C 48% 10.7 mph E17.2 kmh E 16.0 mph25.7 kmh 30.05 in1017.6 mb 0.00 in0.0 mm 0.00 in0.0 mm 0.00 in0.0 mm
02:08 PM 80.4°F26.9°C 59.5°F15.3°C 49% 11.0 mph E17.7 kmh E 13.0 mph20.9 kmh 30.05 in1017.6 mb 0.00 in0.0 mm 0.00 in0.0 mm 0.00 in0.0 mm
02:09 PM 80.4°F26.9°C 59.5°F15.3°C 49% 11.0 mph ESE17.7 kmh ESE 14.0 mph22.5 kmh 30.05 in1017.6 mb 0.00 in0.0 mm 0.00 in0.0 mm 0.00 in0.0 mm
02:10 PM 80.4°F26.9°C 58.9°F14.9°C 48% 11.0 mph ESE17.7 kmh ESE 13.0 mph20.9 kmh 30.05 in1017.6 mb 0.00 in0.0 mm 0.00 in0.0 mm 0.00 in0.0 mm
02:11 PM 80.3°F26.8°C 58.8°F14.9°C 48% 10.0 mph ESE16.1 kmh ESE 15.0 mph24.1 kmh 30.05 in1017.6 mb 0.00 in0.0 mm 0.00 in0.0 mm 0.00 in0.0 mm
02:12 PM 80.3°F26.8°C 59.4°F15.2°C 49% 7.0 mph ESE11.3 kmh ESE 11.0 mph17.7 kmh 30.05 in1017.6 mb 0.00 in0.0 mm 0.00 in0.0 mm 0.00 in0.0 mm
02:13 PM 80.4°F26.9°C 59.5°F15.3°C 49% 7.0 mph ESE11.3 kmh ESE 11.0 mph17.7 kmh 30.05 in1017.6 mb 0.00 in0.0 mm 0.00 in0.0 mm 0.00 in0.0 mm
02:14 PM 80.4°F26.9°C 59.5°F15.3°C 49% 8.0 mph ESE12.9 kmh ESE 11.0 mph17.7 kmh 30.05 in1017.6 mb 0.00 in0.0 mm 0.00 in0.0 mm 0.00 in0.0 mm
02:15 PM 80.6°F27.0°C 60.8°F16.0°C 51% 9.0 mph E14.5 kmh E 12.0 mph19.3 kmh 30.05 in1017.6 mb 0.00 in0.0 mm 0.00 in0.0 mm 0.00 in0.0 mm
02:16 PM 80.6°F27.0°C 60.2°F15.7°C 50% 7.0 mph ESE11.3 kmh ESE 9.0 mph14.5 kmh 30.05 in1017.6 mb 0.00 in0.0 mm 0.00 in0.0 mm 0.00 in0.0 mm
02:17 PM 80.8°F27.1°C 59.8°F15.4°C 49% 6.0 mph ESE9.7 kmh ESE 9.0 mph14.5 kmh 30.05 in1017.6 mb 0.00 in0.0 mm 0.00 in0.0 mm 0.00 in0.0 mm
02:18 PM 80.9°F27.2°C 59.9°F15.5°C 49% 5.0 mph E8.0 kmh E 8.0 mph12.9 kmh 30.05 in1017.6 mb 0.00 in0.0 mm 0.00 in0.0 mm 0.00 in0.0 mm
02:19 PM 81.0°F27.2°C 60.0°F15.6°C 49% 8.0 mph ESE12.9 kmh ESE 10.0 mph16.1 kmh 30.05 in1017.6 mb 0.00 in0.0 mm 0.00 in0.0 mm 0.00 in0.0 mm
02:20 PM 81.0°F27.2°C 60.0°F15.6°C 49% 10.0 mph ESE16.1 kmh ESE 13.0 mph20.9 kmh 30.05 in1017.6 mb 0.00 in0.0 mm 0.00 in0.0 mm 0.00 in0.0 mm
02:21 PM 80.9°F27.2°C 59.9°F15.5°C 49% 9.0 mph ESE14.5 kmh ESE 12.0 mph19.3 kmh 30.05 in1017.6 mb 0.00 in0.0 mm 0.00 in0.0 mm 0.00 in0.0 mm
02:22 PM 80.9°F27.2°C 60.5°F15.8°C 50% 6.0 mph E9.7 kmh E 9.0 mph14.5 kmh 30.05 in1017.6 mb 0.00 in0.0 mm 0.00 in0.0 mm 0.00 in0.0 mm
02:23 PM 80.9°F27.2°C 60.5°F15.8°C 50% 9.0 mph ENE14.5 kmh ENE 12.0 mph19.3 kmh 30.05 in1017.6 mb 0.00 in0.0 mm 0.00 in0.0 mm 0.00 in0.0 mm
02:24 PM 80.9°F27.2°C 58.8°F14.9°C 47% 12.0 mph E19.3 kmh E 14.0 mph22.5 kmh 30.05 in1017.6 mb 0.00 in0.0 mm 0.00 in0.0 mm 0.00 in0.0 mm
02:25 PM 80.8°F27.1°C 58.7°F14.8°C 47% 11.0 mph E17.7 kmh E 13.0 mph20.9 kmh 30.05 in1017.6 mb 0.00 in0.0 mm 0.00 in0.0 mm 0.00 in0.0 mm
02:26 PM 80.9°F27.2°C 59.3°F15.2°C 48% 7.0 mph ESE11.3 kmh ESE 12.0 mph19.3 kmh 30.05 in1017.6 mb 0.00 in0.0 mm 0.00 in0.0 mm 0.00 in0.0 mm
02:27 PM 80.9°F27.2°C 58.2°F14.6°C 46% 8.0 mph E12.9 kmh E 10.0 mph16.1 kmh 30.05 in1017.6 mb 0.00 in0.0 mm 0.00 in0.0 mm 0.00 in0.0 mm
02:28 PM 80.8°F27.1°C 59.3°F15.2°C 48% 10.0 mph ESE16.1 kmh ESE 12.0 mph19.3 kmh 30.05 in1017.6 mb 0.00 in0.0 mm 0.00 in0.0 mm 0.00 in0.0 mm
02:29 PM 80.8°F27.1°C 58.7°F14.8°C 47% 11.0 mph ESE17.7 kmh ESE 13.0 mph20.9 kmh 30.05 in1017.6 mb 0.00 in0.0 mm 0.00 in0.0 mm 0.00 in0.0 mm
02:30 PM 80.8°F27.1°C 59.3°F15.2°C 48% 8.0 mph ENE12.9 kmh ENE 11.0 mph17.7 kmh 30.05 in1017.6 mb 0.00 in0.0 mm 0.00 in0.0 mm 0.00 in0.0 mm
02:31 PM 80.9°F27.2°C 59.3°F15.2°C 48% 10.0 mph E16.1 kmh E 12.0 mph19.3 kmh 30.05 in1017.6 mb 0.00 in0.0 mm 0.00 in0.0 mm 0.00 in0.0 mm
02:32 PM 81.0°F27.2°C 59.4°F15.2°C 48% 10.0 mph ESE16.1 kmh ESE 15.0 mph24.1 kmh 30.05 in1017.6 mb 0.00 in0.0 mm 0.00 in0.0 mm 0.00 in0.0 mm
02:33 PM 81.0°F27.2°C 58.8°F14.9°C 47% 9.0 mph ESE14.5 kmh ESE 14.0 mph22.5 kmh 30.05 in1017.6 mb 0.00 in0.0 mm 0.00 in0.0 mm 0.00 in0.0 mm
02:34 PM 81.1°F27.3°C 60.1°F15.6°C 49% 11.0 mph E17.7 kmh E 13.0 mph20.9 kmh 30.05 in1017.6 mb 0.00 in0.0 mm 0.00 in0.0 mm 0.00 in0.0 mm
02:35 PM 81.1°F27.3°C 59.5°F15.3°C 48% 9.0 mph ENE14.5 kmh ENE 12.0 mph19.3 kmh 30.05 in1017.6 mb 0.00 in0.0 mm 0.00 in0.0 mm 0.00 in0.0 mm
02:36 PM 81.2°F27.3°C 59.6°F15.3°C 48% 10.0 mph E16.1 kmh E 11.0 mph17.7 kmh 30.05 in1017.6 mb 0.00 in0.0 mm 0.00 in0.0 mm 0.00 in0.0 mm
02:37 PM 81.1°F27.3°C 59.5°F15.3°C 48% 8.0 mph ESE12.9 kmh ESE 11.0 mph17.7 kmh 30.05 in1017.6 mb 0.00 in0.0 mm 0.00 in0.0 mm 0.00 in0.0 mm
02:38 PM 81.0°F27.2°C 60.0°F15.6°C 49% 9.0 mph ESE14.5 kmh ESE 12.0 mph19.3 kmh 30.05 in1017.6 mb 0.00 in0.0 mm 0.00 in0.0 mm 0.00 in0.0 mm
02:39 PM 81.0°F27.2°C 58.8°F14.9°C 47% 11.0 mph E17.7 kmh E 15.0 mph24.1 kmh 30.05 in1017.6 mb 0.00 in0.0 mm 0.00 in0.0 mm 0.00 in0.0 mm
02:40 PM 80.9°F27.2°C 58.8°F14.9°C 47% 11.0 mph E17.7 kmh E 15.0 mph24.1 kmh 30.05 in1017.6 mb 0.00 in0.0 mm 0.00 in0.0 mm 0.00 in0.0 mm
02:41 PM 80.9°F27.2°C 59.3°F15.2°C 48% 10.0 mph E16.1 kmh E 13.0 mph20.9 kmh 30.05 in1017.6 mb 0.00 in0.0 mm 0.00 in0.0 mm 0.00 in0.0 mm
02:42 PM 80.8°F27.1°C 59.3°F15.2°C 48% 13.0 mph E20.9 kmh E 17.0 mph27.4 kmh 30.05 in1017.6 mb 0.00 in0.0 mm 0.00 in0.0 mm 0.00 in0.0 mm
02:43 PM 80.8°F27.1°C 59.8°F15.4°C 49% 12.2 mph E19.6 kmh E 13.0 mph20.9 kmh 30.05 in1017.6 mb 0.00 in0.0 mm 0.00 in0.0 mm 0.00 in0.0 mm
02:44 PM 80.8°F27.1°C 59.3°F15.2°C 48% 9.0 mph E14.5 kmh E 13.0 mph20.9 kmh 30.05 in1017.6 mb 0.00 in0.0 mm 0.00 in0.0 mm 0.00 in0.0 mm
02:45 PM 80.7°F27.1°C 59.2°F15.1°C 48% 8.0 mph ESE12.9 kmh ESE 10.0 mph16.1 kmh 30.05 in1017.6 mb 0.00 in0.0 mm 0.00 in0.0 mm 0.00 in0.0 mm
02:46 PM 80.7°F27.1°C 59.7°F15.4°C 49% 8.0 mph E12.9 kmh E 10.0 mph16.1 kmh 30.05 in1017.6 mb 0.00 in0.0 mm 0.00 in0.0 mm 0.00 in0.0 mm
02:47 PM 80.8°F27.1°C 59.8°F15.4°C 49% 9.0 mph ENE14.5 kmh ENE 16.0 mph25.7 kmh 30.05 in1017.6 mb 0.00 in0.0 mm 0.00 in0.0 mm 0.00 in0.0 mm
02:48 PM 80.9°F27.2°C 59.9°F15.5°C 49% 13.0 mph ENE20.9 kmh ENE 22.0 mph35.4 kmh 30.04 in1017.3 mb 0.00 in0.0 mm 0.00 in0.0 mm 0.00 in0.0 mm
02:49 PM 81.0°F27.2°C 60.0°F15.6°C 49% 11.0 mph E17.7 kmh E 15.0 mph24.1 kmh 30.04 in1017.3 mb 0.00 in0.0 mm 0.00 in0.0 mm 0.00 in0.0 mm
02:50 PM 81.0°F27.2°C 60.0°F15.6°C 49% 11.0 mph ENE17.7 kmh ENE 13.0 mph20.9 kmh 30.04 in1017.3 mb 0.00 in0.0 mm 0.00 in0.0 mm 0.00 in0.0 mm
02:51 PM 81.0°F27.2°C 60.0°F15.6°C 49% 11.0 mph E17.7 kmh E 16.0 mph25.7 kmh 30.04 in1017.3 mb 0.00 in0.0 mm 0.00 in0.0 mm 0.00 in0.0 mm
02:52 PM 81.0°F27.2°C 60.0°F15.6°C 49% 12.0 mph ENE19.3 kmh ENE 16.0 mph25.7 kmh 30.04 in1017.3 mb 0.00 in0.0 mm 0.00 in0.0 mm 0.00 in0.0 mm
02:53 PM 81.0°F27.2°C 60.6°F15.9°C 50% 12.0 mph ENE19.3 kmh ENE 17.0 mph27.4 kmh 30.04 in1017.3 mb 0.00 in0.0 mm 0.00 in0.0 mm 0.00 in0.0 mm
02:54 PM 80.9°F27.2°C 59.9°F15.5°C 49% 15.0 mph E24.1 kmh E 20.0 mph32.2 kmh 30.04 in1017.3 mb 0.00 in0.0 mm 0.00 in0.0 mm 0.00 in0.0 mm
02:55 PM 80.9°F27.2°C 59.9°F15.5°C 49% 15.0 mph E24.1 kmh E 17.0 mph27.4 kmh 30.04 in1017.3 mb 0.00 in0.0 mm 0.00 in0.0 mm 0.00 in0.0 mm
02:56 PM 80.7°F27.1°C 59.2°F15.1°C 48% 12.0 mph E19.3 kmh E 15.0 mph24.1 kmh 30.04 in1017.3 mb 0.00 in0.0 mm 0.00 in0.0 mm 0.00 in0.0 mm
02:57 PM 80.7°F27.1°C 59.2°F15.1°C 48% 14.0 mph E22.5 kmh E 16.0 mph25.7 kmh 30.04 in1017.3 mb 0.00 in0.0 mm 0.00 in0.0 mm 0.00 in0.0 mm
02:58 PM 80.7°F27.1°C 59.7°F15.4°C 49% 13.0 mph ESE20.9 kmh ESE 17.0 mph27.4 kmh 30.04 in1017.3 mb 0.00 in0.0 mm 0.00 in0.0 mm 0.00 in0.0 mm
02:59 PM 80.7°F27.1°C 59.2°F15.1°C 48% 14.0 mph E22.5 kmh E 17.0 mph27.4 kmh 30.04 in1017.3 mb 0.00 in0.0 mm 0.00 in0.0 mm 0.00 in0.0 mm
03:00 PM 80.6°F27.0°C 59.1°F15.1°C 48% 14.0 mph E22.5 kmh E 16.0 mph25.7 kmh 30.04 in1017.3 mb 0.00 in0.0 mm 0.00 in0.0 mm 0.00 in0.0 mm
03:01 PM 80.5°F26.9°C 59.0°F15.0°C 48% 11.0 mph ESE17.7 kmh ESE 13.0 mph20.9 kmh 30.04 in1017.3 mb 0.00 in0.0 mm 0.00 in0.0 mm 0.00 in0.0 mm
03:02 PM 80.5°F26.9°C 59.6°F15.3°C 49% 12.0 mph SE19.3 kmh SE 14.0 mph22.5 kmh 30.04 in1017.3 mb 0.00 in0.0 mm 0.00 in0.0 mm 0.00 in0.0 mm
03:03 PM 80.6°F27.0°C 59.1°F15.1°C 48% 10.1 mph ESE16.3 kmh ESE 14.0 mph22.5 kmh 30.04 in1017.3 mb 0.00 in0.0 mm 0.00 in0.0 mm 0.00 in0.0 mm
03:04 PM 80.7°F27.1°C 59.7°F15.4°C 49% 6.0 mph ESE9.7 kmh ESE 9.0 mph14.5 kmh 30.04 in1017.3 mb 0.00 in0.0 mm 0.00 in0.0 mm 0.00 in0.0 mm
03:05 PM 80.9°F27.2°C 59.9°F15.5°C 49% 12.0 mph E19.3 kmh E 20.0 mph32.2 kmh 30.04 in1017.3 mb 0.00 in0.0 mm 0.00 in0.0 mm 0.00 in0.0 mm
03:06 PM 80.9°F27.2°C 59.3°F15.2°C 48% 14.0 mph E22.5 kmh E 19.0 mph30.6 kmh 30.04 in1017.3 mb 0.00 in0.0 mm 0.00 in0.0 mm 0.00 in0.0 mm
03:07 PM 80.9°F27.2°C 59.3°F15.2°C 48% 12.0 mph ENE19.3 kmh ENE 18.0 mph29.0 kmh 30.04 in1017.3 mb 0.00 in0.0 mm 0.00 in0.0 mm 0.00 in0.0 mm
03:08 PM 80.9°F27.2°C 59.3°F15.2°C 48% 12.0 mph E19.3 kmh E 17.0 mph27.4 kmh 30.04 in1017.3 mb 0.00 in0.0 mm 0.00 in0.0 mm 0.00 in0.0 mm
03:09 PM 80.9°F27.2°C 59.3°F15.2°C 48% 12.0 mph E19.3 kmh E 17.0 mph27.4 kmh 30.04 in1017.3 mb 0.00 in0.0 mm 0.00 in0.0 mm 0.00 in0.0 mm
03:10 PM 80.9°F27.2°C 59.3°F15.2°C 48% 13.7 mph E22.0 kmh E 16.0 mph25.7 kmh 30.04 in1017.3 mb 0.00 in0.0 mm 0.00 in0.0 mm 0.00 in0.0 mm
03:11 PM 80.8°F27.1°C 59.3°F15.2°C 48% 11.0 mph E17.7 kmh E 14.0 mph22.5 kmh 30.04 in1017.3 mb 0.00 in0.0 mm 0.00 in0.0 mm 0.00 in0.0 mm
03:12 PM 80.9°F27.2°C 59.9°F15.5°C 49% 10.0 mph E16.1 kmh E 14.0 mph22.5 kmh 30.03 in1016.9 mb 0.00 in0.0 mm 0.00 in0.0 mm 0.00 in0.0 mm
03:13 PM 80.9°F27.2°C 59.9°F15.5°C 49% 9.0 mph E14.5 kmh E 14.0 mph22.5 kmh 30.03 in1016.9 mb 0.00 in0.0 mm 0.00 in0.0 mm 0.00 in0.0 mm
03:14 PM 81.1°F27.3°C 60.1°F15.6°C 49% 12.0 mph E19.3 kmh E 20.0 mph32.2 kmh 30.03 in1016.9 mb 0.00 in0.0 mm 0.00 in0.0 mm 0.00 in0.0 mm
03:15 PM 81.1°F27.3°C 60.1°F15.6°C 49% 15.0 mph ENE24.1 kmh ENE 19.0 mph30.6 kmh 30.03 in1016.9 mb 0.00 in0.0 mm 0.00 in0.0 mm 0.00 in0.0 mm
03:16 PM 81.1°F27.3°C 59.5°F15.3°C 48% 13.0 mph ENE20.9 kmh ENE 16.0 mph25.7 kmh 30.03 in1016.9 mb 0.00 in0.0 mm 0.00 in0.0 mm 0.00 in0.0 mm
03:17 PM 81.1°F27.3°C 60.1°F15.6°C 49% 15.0 mph E24.1 kmh E 19.0 mph30.6 kmh 30.03 in1016.9 mb 0.00 in0.0 mm 0.00 in0.0 mm 0.00 in0.0 mm
03:18 PM 81.1°F27.3°C 59.5°F15.3°C 48% 15.0 mph E24.1 kmh E 17.0 mph27.4 kmh 30.03 in1016.9 mb 0.00 in0.0 mm 0.00 in0.0 mm 0.00 in0.0 mm
03:19 PM 81.0°F27.2°C 59.4°F15.2°C 48% 14.0 mph E22.5 kmh E 15.0 mph24.1 kmh 30.03 in1016.9 mb 0.00 in0.0 mm 0.00 in0.0 mm 0.00 in0.0 mm
03:20 PM 81.0°F27.2°C 59.4°F15.2°C 48% 10.0 mph E16.1 kmh E 16.0 mph25.7 kmh 30.03 in1016.9 mb 0.00 in0.0 mm 0.00 in0.0 mm 0.00 in0.0 mm
03:21 PM 81.1°F27.3°C 58.9°F14.9°C 47% 17.0 mph E27.4 kmh E 19.0 mph30.6 kmh 30.03 in1016.9 mb 0.00 in0.0 mm 0.00 in0.0 mm 0.00 in0.0 mm
03:22 PM 81.0°F27.2°C 58.8°F14.9°C 47% 14.0 mph E22.5 kmh E 19.0 mph30.6 kmh 30.03 in1016.9 mb 0.00 in0.0 mm 0.00 in0.0 mm 0.00 in0.0 mm
03:23 PM 81.0°F27.2°C 58.8°F14.9°C 47% 12.0 mph E19.3 kmh E 15.0 mph24.1 kmh 30.03 in1016.9 mb 0.00 in0.0 mm 0.00 in0.0 mm 0.00 in0.0 mm
03:24 PM 81.0°F27.2°C 58.8°F14.9°C 47% 11.0 mph E17.7 kmh E 13.0 mph20.9 kmh 30.03 in1016.9 mb 0.00 in0.0 mm 0.00 in0.0 mm 0.00 in0.0 mm
03:25 PM 81.1°F27.3°C 58.9°F14.9°C 47% 10.0 mph E16.1 kmh E 12.0 mph19.3 kmh 30.03 in1016.9 mb 0.00 in0.0 mm 0.00 in0.0 mm 0.00 in0.0 mm
03:26 PM 81.2°F27.3°C 59.6°F15.3°C 48% 13.0 mph E20.9 kmh E 18.0 mph29.0 kmh 30.03 in1016.9 mb 0.00 in0.0 mm 0.00 in0.0 mm 0.00 in0.0 mm
03:27 PM 81.2°F27.3°C 59.0°F15.0°C 47% 13.0 mph E20.9 kmh E 17.0 mph27.4 kmh 30.03 in1016.9 mb 0.00 in0.0 mm 0.00 in0.0 mm 0.00 in0.0 mm
03:28 PM 81.2°F27.3°C 59.0°F15.0°C 47% 10.7 mph E17.2 kmh E 12.0 mph19.3 kmh 30.03 in1016.9 mb 0.00 in0.0 mm 0.00 in0.0 mm 0.00 in0.0 mm
03:29 PM 81.3°F27.4°C 59.7°F15.4°C 48% 10.0 mph E16.1 kmh E 13.0 mph20.9 kmh 30.03 in1016.9 mb 0.00 in0.0 mm 0.00 in0.0 mm 0.00 in0.0 mm
03:30 PM 81.2°F27.3°C 59.0°F15.0°C 47% 13.0 mph E20.9 kmh E 18.0 mph29.0 kmh 30.03 in1016.9 mb 0.00 in0.0 mm 0.00 in0.0 mm 0.00 in0.0 mm
03:31 PM 81.3°F27.4°C 59.1°F15.1°C 47% 12.0 mph E19.3 kmh E 16.0 mph25.7 kmh 30.03 in1016.9 mb 0.00 in0.0 mm 0.00 in0.0 mm 0.00 in0.0 mm
03:32 PM 81.3°F27.4°C 59.7°F15.4°C 48% 10.0 mph ESE16.1 kmh ESE 12.0 mph19.3 kmh 30.03 in1016.9 mb 0.00 in0.0 mm 0.00 in0.0 mm 0.00 in0.0 mm
03:33 PM 81.4°F27.4°C 59.8°F15.4°C 48% 11.0 mph ESE17.7 kmh ESE 13.0 mph20.9 kmh 30.03 in1016.9 mb 0.00 in0.0 mm 0.00 in0.0 mm 0.00 in0.0 mm
03:34 PM 81.5°F27.5°C 59.9°F15.5°C 48% 11.0 mph ESE17.7 kmh ESE 15.0 mph24.1 kmh 30.03 in1016.9 mb 0.00 in0.0 mm 0.00 in0.0 mm 0.00 in0.0 mm
03:35 PM 81.5°F27.5°C 59.3°F15.2°C 47% 11.0 mph ESE17.7 kmh ESE 11.0 mph17.7 kmh 30.03 in1016.9 mb 0.00 in0.0 mm 0.00 in0.0 mm 0.00 in0.0 mm
03:36 PM 81.6°F27.6°C 59.4°F15.2°C 47% 11.0 mph E17.7 kmh E 14.0 mph22.5 kmh 30.02 in1016.6 mb 0.00 in0.0 mm 0.00 in0.0 mm 0.00 in0.0 mm
03:37 PM 81.6°F27.6°C 59.4°F15.2°C 47% 13.0 mph E20.9 kmh E 19.0 mph30.6 kmh 30.02 in1016.6 mb 0.00 in0.0 mm 0.00 in0.0 mm 0.00 in0.0 mm
03:38 PM 81.6°F27.6°C 58.8°F14.9°C 46% 13.7 mph E22.0 kmh E 18.0 mph29.0 kmh 30.03 in1016.9 mb 0.00 in0.0 mm 0.00 in0.0 mm 0.00 in0.0 mm
03:39 PM 81.6°F27.6°C 59.4°F15.2°C 47% 14.0 mph E22.5 kmh E 20.0 mph32.2 kmh 30.02 in1016.6 mb 0.00 in0.0 mm 0.00 in0.0 mm 0.00 in0.0 mm
03:40 PM 81.5°F27.5°C 58.7°F14.8°C 46% 16.0 mph E25.7 kmh E 20.0 mph32.2 kmh 30.02 in1016.6 mb 0.00 in0.0 mm 0.00 in0.0 mm 0.00 in0.0 mm
03:41 PM 81.3°F27.4°C 58.5°F14.7°C 46% 14.0 mph E22.5 kmh E 16.0 mph25.7 kmh 30.02 in1016.6 mb 0.00 in0.0 mm 0.00 in0.0 mm 0.00 in0.0 mm
03:42 PM 81.3°F27.4°C 58.5°F14.7°C 46% 9.0 mph E14.5 kmh E 14.0 mph22.5 kmh 30.02 in1016.6 mb 0.00 in0.0 mm 0.00 in0.0 mm 0.00 in0.0 mm
03:43 PM 81.3°F27.4°C 59.1°F15.1°C 47% 11.0 mph E17.7 kmh E 13.0 mph20.9 kmh 30.02 in1016.6 mb 0.00 in0.0 mm 0.00 in0.0 mm 0.00 in0.0 mm
03:44 PM 81.3°F27.4°C 59.1°F15.1°C 47% 9.0 mph ESE14.5 kmh ESE 12.0 mph19.3 kmh 30.02 in1016.6 mb 0.00 in0.0 mm 0.00 in0.0 mm 0.00 in0.0 mm
03:45 PM 81.5°F27.5°C 59.9°F15.5°C 48% 12.0 mph E19.3 kmh E 16.0 mph25.7 kmh 30.02 in1016.6 mb 0.00 in0.0 mm 0.00 in0.0 mm 0.00 in0.0 mm
03:46 PM 81.5°F27.5°C 58.7°F14.8°C 46% 15.0 mph E24.1 kmh E 19.0 mph30.6 kmh 30.02 in1016.6 mb 0.00 in0.0 mm 0.00 in0.0 mm 0.00 in0.0 mm
03:47 PM 81.5°F27.5°C 58.7°F14.8°C 46% 15.0 mph ESE24.1 kmh ESE 20.0 mph32.2 kmh 30.02 in1016.6 mb 0.00 in0.0 mm 0.00 in0.0 mm 0.00 in0.0 mm
03:48 PM 81.4°F27.4°C 58.6°F14.8°C 46% 15.0 mph ESE24.1 kmh ESE 20.0 mph32.2 kmh 30.02 in1016.6 mb 0.00 in0.0 mm 0.00 in0.0 mm 0.00 in0.0 mm
03:49 PM 81.3°F27.4°C 58.5°F14.7°C 46% 12.0 mph E19.3 kmh E 16.0 mph25.7 kmh 30.02 in1016.6 mb 0.00 in0.0 mm 0.00 in0.0 mm 0.00 in0.0 mm
03:50 PM 81.3°F27.4°C 58.5°F14.7°C 46% 13.0 mph SE20.9 kmh SE 15.0 mph24.1 kmh 30.02 in1016.6 mb 0.00 in0.0 mm 0.00 in0.0 mm 0.00 in0.0 mm
03:51 PM 81.3°F27.4°C 59.1°F15.1°C 47% 12.2 mph SE19.6 kmh SE 13.0 mph20.9 kmh 30.02 in1016.6 mb 0.00 in0.0 mm 0.00 in0.0 mm 0.00 in0.0 mm
03:52 PM 81.4°F27.4°C 58.6°F14.8°C 46% 14.0 mph E22.5 kmh E 17.0 mph27.4 kmh 30.02 in1016.6 mb 0.00 in0.0 mm 0.00 in0.0 mm 0.00 in0.0 mm
03:53 PM 81.4°F27.4°C 58.6°F14.8°C 46% 11.0 mph E17.7 kmh E 15.0 mph24.1 kmh 30.02 in1016.6 mb 0.00 in0.0 mm 0.00 in0.0 mm 0.00 in0.0 mm
03:54 PM 81.4°F27.4°C 59.2°F15.1°C 47% 11.0 mph E17.7 kmh E 13.0 mph20.9 kmh 30.02 in1016.6 mb 0.00 in0.0 mm 0.00 in0.0 mm 0.00 in0.0 mm
03:55 PM 81.4°F27.4°C 59.8°F15.4°C 48% 11.0 mph E17.7 kmh E 14.0 mph22.5 kmh 30.02 in1016.6 mb 0.00 in0.0 mm 0.00 in0.0 mm 0.00 in0.0 mm
03:56 PM 81.4°F27.4°C 59.2°F15.1°C 47% 12.0 mph E19.3 kmh E 17.0 mph27.4 kmh 30.02 in1016.6 mb 0.00 in0.0 mm 0.00 in0.0 mm 0.00 in0.0 mm
03:57 PM 81.4°F27.4°C 59.2°F15.1°C 47% 15.0 mph E24.1 kmh E 18.0 mph29.0 kmh 30.02 in1016.6 mb 0.00 in0.0 mm 0.00 in0.0 mm 0.00 in0.0 mm
03:58 PM 81.3°F27.4°C 59.7°F15.4°C 48% 12.0 mph E19.3 kmh E 15.0 mph24.1 kmh 30.02 in1016.6 mb 0.00 in0.0 mm 0.00 in0.0 mm 0.00 in0.0 mm
03:59 PM 81.3°F27.4°C 59.7°F15.4°C 48% 13.0 mph E20.9 kmh E 16.0 mph25.7 kmh 30.02 in1016.6 mb 0.00 in0.0 mm 0.00 in0.0 mm 0.00 in0.0 mm
04:00 PM 81.2°F27.3°C 59.6°F15.3°C 48% 11.2 mph E18.0 kmh E 14.0 mph22.5 kmh 30.02 in1016.6 mb 0.00 in0.0 mm 0.00 in0.0 mm 0.00 in0.0 mm
04:01 PM 81.2°F27.3°C 60.2°F15.7°C 49% 11.0 mph E17.7 kmh E 19.0 mph30.6 kmh 30.02 in1016.6 mb 0.00 in0.0 mm 0.00 in0.0 mm 0.00 in0.0 mm
04:02 PM 81.3°F27.4°C 59.7°F15.4°C 48% 15.0 mph E24.1 kmh E 19.0 mph30.6 kmh 30.02 in1016.6 mb 0.00 in0.0 mm 0.00 in0.0 mm 0.00 in0.0 mm
04:03 PM 81.2°F27.3°C 59.6°F15.3°C 48% 14.0 mph E22.5 kmh E 17.0 mph27.4 kmh 30.02 in1016.6 mb 0.00 in0.0 mm 0.00 in0.0 mm 0.00 in0.0 mm
04:04 PM 81.2°F27.3°C 60.2°F15.7°C 49% 11.0 mph E17.7 kmh E 16.0 mph25.7 kmh 30.02 in1016.6 mb 0.00 in0.0 mm 0.00 in0.0 mm 0.00 in0.0 mm
04:05 PM 81.1°F27.3°C 59.5°F15.3°C 48% 13.0 mph E20.9 kmh E 18.0 mph29.0 kmh 30.02 in1016.6 mb 0.00 in0.0 mm 0.00 in0.0 mm 0.00 in0.0 mm
04:06 PM 81.1°F27.3°C 60.1°F15.6°C 49% 17.0 mph E27.4 kmh E 21.0 mph33.8 kmh 30.02 in1016.6 mb 0.00 in0.0 mm 0.00 in0.0 mm 0.00 in0.0 mm
04:07 PM 81.1°F27.3°C 60.1°F15.6°C 49% 15.0 mph E24.1 kmh E 19.0 mph30.6 kmh 30.02 in1016.6 mb 0.00 in0.0 mm 0.00 in0.0 mm 0.00 in0.0 mm
04:08 PM 81.0°F27.2°C 60.0°F15.6°C 49% 12.0 mph E19.3 kmh E 15.0 mph24.1 kmh 30.02 in1016.6 mb 0.00 in0.0 mm 0.00 in0.0 mm 0.00 in0.0 mm
04:09 PM 81.1°F27.3°C 59.5°F15.3°C 48% 14.0 mph E22.5 kmh E 17.0 mph27.4 kmh 30.02 in1016.6 mb 0.00 in0.0 mm 0.00 in0.0 mm 0.00 in0.0 mm
04:10 PM 81.0°F27.2°C 59.4°F15.2°C 48% 16.0 mph ESE25.7 kmh ESE 20.0 mph32.2 kmh 30.02 in1016.6 mb 0.00 in0.0 mm 0.00 in0.0 mm 0.00 in0.0 mm
04:11 PM 81.0°F27.2°C 59.4°F15.2°C 48% 16.0 mph E25.7 kmh E 22.0 mph35.4 kmh 30.02 in1016.6 mb 0.00 in0.0 mm 0.00 in0.0 mm 0.00 in0.0 mm
04:12 PM 81.0°F27.2°C 58.8°F14.9°C 47% 19.0 mph E30.6 kmh E 24.0 mph38.6 kmh 30.02 in1016.6 mb 0.00 in0.0 mm 0.00 in0.0 mm 0.00 in0.0 mm
04:13 PM 80.9°F27.2°C 58.8°F14.9°C 47% 16.0 mph ESE25.7 kmh ESE 20.0 mph32.2 kmh 30.02 in1016.6 mb 0.00 in0.0 mm 0.00 in0.0 mm 0.00 in0.0 mm
04:14 PM 80.9°F27.2°C 58.8°F14.9°C 47% 12.0 mph ESE19.3 kmh ESE 15.0 mph24.1 kmh 30.02 in1016.6 mb 0.00 in0.0 mm 0.00 in0.0 mm 0.00 in0.0 mm
04:15 PM 81.1°F27.3°C 58.9°F14.9°C 47% 12.0 mph ESE19.3 kmh ESE 15.0 mph24.1 kmh 30.02 in1016.6 mb 0.00 in0.0 mm 0.00 in0.0 mm 0.00 in0.0 mm
04:16 PM 81.1°F27.3°C 58.9°F14.9°C 47% 9.0 mph ESE14.5 kmh ESE 13.0 mph20.9 kmh 30.02 in1016.6 mb 0.00 in0.0 mm 0.00 in0.0 mm 0.00 in0.0 mm
04:17 PM 81.2°F27.3°C 59.6°F15.3°C 48% 10.0 mph E16.1 kmh E 13.0 mph20.9 kmh 30.02 in1016.6 mb 0.00 in0.0 mm 0.00 in0.0 mm 0.00 in0.0 mm
04:18 PM 81.2°F27.3°C 59.6°F15.3°C 48% 11.0 mph E17.7 kmh E 15.0 mph24.1 kmh 30.02 in1016.6 mb 0.00 in0.0 mm 0.00 in0.0 mm 0.00 in0.0 mm
04:19 PM 81.3°F27.4°C 59.7°F15.4°C 48% 11.0 mph ENE17.7 kmh ENE 15.0 mph24.1 kmh 30.02 in1016.6 mb 0.00 in0.0 mm 0.00 in0.0 mm 0.00 in0.0 mm
04:20 PM 81.4°F27.4°C 59.8°F15.4°C 48% 12.0 mph E19.3 kmh E 16.0 mph25.7 kmh 30.02 in1016.6 mb 0.00 in0.0 mm 0.00 in0.0 mm 0.00 in0.0 mm
04:21 PM 81.4°F27.4°C 59.8°F15.4°C 48% 11.0 mph ENE17.7 kmh ENE 15.0 mph24.1 kmh 30.02 in1016.6 mb 0.00 in0.0 mm 0.00 in0.0 mm 0.00 in0.0 mm
04:22 PM 81.5°F27.5°C 59.3°F15.2°C 47% 12.0 mph E19.3 kmh E 16.0 mph25.7 kmh 30.02 in1016.6 mb 0.00 in0.0 mm 0.00 in0.0 mm 0.00 in0.0 mm
04:23 PM 81.5°F27.5°C 59.9°F15.5°C 48% 11.0 mph E17.7 kmh E 14.0 mph22.5 kmh 30.02 in1016.6 mb 0.00 in0.0 mm 0.00 in0.0 mm 0.00 in0.0 mm
04:24 PM 81.5°F27.5°C 59.9°F15.5°C 48% 14.0 mph E22.5 kmh E 19.0 mph30.6 kmh 30.01 in1016.3 mb 0.00 in0.0 mm 0.00 in0.0 mm 0.00 in0.0 mm
04:25 PM 81.5°F27.5°C 59.3°F15.2°C 47% 14.0 mph E22.5 kmh E 17.0 mph27.4 kmh 30.01 in1016.3 mb 0.00 in0.0 mm 0.00 in0.0 mm 0.00 in0.0 mm
04:26 PM 81.5°F27.5°C 58.7°F14.8°C 46% 13.0 mph E20.9 kmh E 16.0 mph25.7 kmh 30.01 in1016.3 mb 0.00 in0.0 mm 0.00 in0.0 mm 0.00 in0.0 mm
04:27 PM 81.6°F27.6°C 59.4°F15.2°C 47% 11.0 mph ESE17.7 kmh ESE 16.0 mph25.7 kmh 30.01 in1016.3 mb 0.00 in0.0 mm 0.00 in0.0 mm 0.00 in0.0 mm
04:28 PM 81.5°F27.5°C 59.3°F15.2°C 47% 13.0 mph E20.9 kmh E 19.0 mph30.6 kmh 30.01 in1016.3 mb 0.00 in0.0 mm 0.00 in0.0 mm 0.00 in0.0 mm
04:29 PM 81.6°F27.6°C 59.4°F15.2°C 47% 12.0 mph E19.3 kmh E 16.0 mph25.7 kmh 30.01 in1016.3 mb 0.00 in0.0 mm 0.00 in0.0 mm 0.00 in0.0 mm
04:30 PM 81.6°F27.6°C 58.8°F14.9°C 46% 14.0 mph E22.5 kmh E 20.0 mph32.2 kmh 30.01 in1016.3 mb 0.00 in0.0 mm 0.00 in0.0 mm 0.00 in0.0 mm
04:31 PM 81.5°F27.5°C 58.7°F14.8°C 46% 15.0 mph E24.1 kmh E 19.0 mph30.6 kmh 30.01 in1016.3 mb 0.00 in0.0 mm 0.00 in0.0 mm 0.00 in0.0 mm
04:32 PM 81.5°F27.5°C 58.7°F14.8°C 46% 11.0 mph ESE17.7 kmh ESE 15.0 mph24.1 kmh 30.01 in1016.3 mb 0.00 in0.0 mm 0.00 in0.0 mm 0.00 in0.0 mm
04:33 PM 81.5°F27.5°C 59.3°F15.2°C 47% 10.0 mph E16.1 kmh E 15.0 mph24.1 kmh 30.01 in1016.3 mb 0.00 in0.0 mm 0.00 in0.0 mm 0.00 in0.0 mm
04:34 PM 81.6°F27.6°C 58.8°F14.9°C 46% 10.0 mph ESE16.1 kmh ESE 13.0 mph20.9 kmh 30.01 in1016.3 mb 0.00 in0.0 mm 0.00 in0.0 mm 0.00 in0.0 mm
04:35 PM 81.7°F27.6°C 58.9°F14.9°C 46% 11.0 mph ESE17.7 kmh ESE 15.0 mph24.1 kmh 30.02 in1016.6 mb 0.00 in0.0 mm 0.00 in0.0 mm 0.00 in0.0 mm
04:36 PM 81.8°F27.7°C 58.4°F14.7°C 45% 11.0 mph ESE17.7 kmh ESE 16.0 mph25.7 kmh 30.01 in1016.3 mb 0.00 in0.0 mm 0.00 in0.0 mm 0.00 in0.0 mm
04:37 PM 81.8°F27.7°C 58.4°F14.7°C 45% 15.0 mph ESE24.1 kmh ESE 17.0 mph27.4 kmh 30.01 in1016.3 mb 0.00 in0.0 mm 0.00 in0.0 mm 0.00 in0.0 mm
04:38 PM 81.7°F27.6°C 58.3°F14.6°C 45% 14.0 mph ESE22.5 kmh ESE 16.0 mph25.7 kmh 30.02 in1016.6 mb 0.00 in0.0 mm 0.00 in0.0 mm 0.00 in0.0 mm
04:39 PM 81.6°F27.6°C 58.2°F14.6°C 45% 8.0 mph E12.9 kmh E 11.0 mph17.7 kmh 30.02 in1016.6 mb 0.00 in0.0 mm 0.00 in0.0 mm 0.00 in0.0 mm
04:40 PM 81.7°F27.6°C 58.9°F14.9°C 46% 8.0 mph ESE12.9 kmh ESE 12.0 mph19.3 kmh 30.01 in1016.3 mb 0.00 in0.0 mm 0.00 in0.0 mm 0.00 in0.0 mm
04:41 PM 81.8°F27.7°C 59.0°F15.0°C 46% 8.0 mph E12.9 kmh E 14.0 mph22.5 kmh 30.01 in1016.3 mb 0.00 in0.0 mm 0.00 in0.0 mm 0.00 in0.0 mm
04:42 PM 81.8°F27.7°C 58.4°F14.7°C 45% 14.0 mph E22.5 kmh E 19.0 mph30.6 kmh 30.02 in1016.6 mb 0.00 in0.0 mm 0.00 in0.0 mm 0.00 in0.0 mm
04:43 PM 81.7°F27.6°C 58.3°F14.6°C 45% 13.0 mph E20.9 kmh E 19.0 mph30.6 kmh 30.01 in1016.3 mb 0.00 in0.0 mm 0.00 in0.0 mm 0.00 in0.0 mm
04:44 PM 81.7°F27.6°C 58.3°F14.6°C 45% 14.0 mph E22.5 kmh E 18.0 mph29.0 kmh 30.01 in1016.3 mb 0.00 in0.0 mm 0.00 in0.0 mm 0.00 in0.0 mm
04:45 PM 81.6°F27.6°C 58.2°F14.6°C 45% 11.0 mph E17.7 kmh E 17.0 mph27.4 kmh 30.01 in1016.3 mb 0.00 in0.0 mm 0.00 in0.0 mm 0.00 in0.0 mm
04:46 PM 81.7°F27.6°C 58.3°F14.6°C 45% 11.0 mph ESE17.7 kmh ESE 15.0 mph24.1 kmh 30.01 in1016.3 mb 0.00 in0.0 mm 0.00 in0.0 mm 0.00 in0.0 mm
04:47 PM 81.7°F27.6°C 58.3°F14.6°C 45% 12.0 mph ESE19.3 kmh ESE 14.0 mph22.5 kmh 30.01 in1016.3 mb 0.00 in0.0 mm 0.00 in0.0 mm 0.00 in0.0 mm
04:48 PM 81.6°F27.6°C 58.2°F14.6°C 45% 11.0 mph ESE17.7 kmh ESE 15.0 mph24.1 kmh 30.01 in1016.3 mb 0.00 in0.0 mm 0.00 in0.0 mm 0.00 in0.0 mm
04:49 PM 81.7°F27.6°C 58.9°F14.9°C 46% 10.0 mph E16.1 kmh E 13.0 mph20.9 kmh 30.01 in1016.3 mb 0.00 in0.0 mm 0.00 in0.0 mm 0.00 in0.0 mm
04:50 PM 81.7°F27.6°C 58.9°F14.9°C 46% 11.0 mph E17.7 kmh E 16.0 mph25.7 kmh 30.01 in1016.3 mb 0.00 in0.0 mm 0.00 in0.0 mm 0.00 in0.0 mm
04:51 PM 81.8°F27.7°C 59.0°F15.0°C 46% 10.0 mph E16.1 kmh E 16.0 mph25.7 kmh 30.01 in1016.3 mb 0.00 in0.0 mm 0.00 in0.0 mm 0.00 in0.0 mm
04:52 PM 81.8°F27.7°C 59.0°F15.0°C 46% 11.0 mph E17.7 kmh E 13.0 mph20.9 kmh 30.01 in1016.3 mb 0.00 in0.0 mm 0.00 in0.0 mm 0.00 in0.0 mm
04:53 PM 81.7°F27.6°C 58.9°F14.9°C 46% 10.0 mph E16.1 kmh E 11.0 mph17.7 kmh 30.01 in1016.3 mb 0.00 in0.0 mm 0.00 in0.0 mm 0.00 in0.0 mm
04:54 PM 81.8°F27.7°C 58.4°F14.7°C 45% 10.0 mph E16.1 kmh E 13.0 mph20.9 kmh 30.01 in1016.3 mb 0.00 in0.0 mm 0.00 in0.0 mm 0.00 in0.0 mm
04:55 PM 81.8°F27.7°C 59.0°F15.0°C 46% 9.0 mph E14.5 kmh E 11.0 mph17.7 kmh 30.01 in1016.3 mb 0.00 in0.0 mm 0.00 in0.0 mm 0.00 in0.0 mm
04:56 PM 81.8°F27.7°C 59.0°F15.0°C 46% 9.0 mph E14.5 kmh E 13.0 mph20.9 kmh 30.01 in1016.3 mb 0.00 in0.0 mm 0.00 in0.0 mm 0.00 in0.0 mm
04:57 PM 81.9°F27.7°C 59.1°F15.1°C 46% 10.0 mph E16.1 kmh E 15.0 mph24.1 kmh 30.01 in1016.3 mb 0.00 in0.0 mm 0.00 in0.0 mm 0.00 in0.0 mm
04:58 PM 81.9°F27.7°C 59.1°F15.1°C 46% 12.0 mph E19.3 kmh E 15.0 mph24.1 kmh 30.01 in1016.3 mb 0.00 in0.0 mm 0.00 in0.0 mm 0.00 in0.0 mm
04:59 PM 81.8°F27.7°C 59.0°F15.0°C 46% 10.0 mph E16.1 kmh E 14.0 mph22.5 kmh 30.01 in1016.3 mb 0.00 in0.0 mm 0.00 in0.0 mm 0.00 in0.0 mm
05:00 PM 81.7°F27.6°C 59.5°F15.3°C 47% 10.0 mph ESE16.1 kmh ESE 13.0 mph20.9 kmh 30.01 in1016.3 mb 0.00 in0.0 mm 0.00 in0.0 mm 0.00 in0.0 mm
05:01 PM 81.7°F27.6°C 58.9°F14.9°C 46% 15.0 mph E24.1 kmh E 19.0 mph30.6 kmh 30.01 in1016.3 mb 0.00 in0.0 mm 0.00 in0.0 mm 0.00 in0.0 mm
05:02 PM 81.6°F27.6°C 58.8°F14.9°C 46% 12.0 mph E19.3 kmh E 16.0 mph25.7 kmh 30.01 in1016.3 mb 0.00 in0.0 mm 0.00 in0.0 mm 0.00 in0.0 mm
05:03 PM 81.5°F27.5°C 59.3°F15.2°C 47% 14.0 mph E22.5 kmh E 18.0 mph29.0 kmh 30.01 in1016.3 mb 0.00 in0.0 mm 0.00 in0.0 mm 0.00 in0.0 mm
05:04 PM 81.4°F27.4°C 58.6°F14.8°C 46% 15.0 mph E24.1 kmh E 20.0 mph32.2 kmh 30.01 in1016.3 mb 0.00 in0.0 mm 0.00 in0.0 mm 0.00 in0.0 mm
05:05 PM 81.4°F27.4°C 58.6°F14.8°C 46% 12.0 mph ESE19.3 kmh ESE 17.0 mph27.4 kmh 30.01 in1016.3 mb 0.00 in0.0 mm 0.00 in0.0 mm 0.00 in0.0 mm
05:06 PM 81.4°F27.4°C 59.2°F15.1°C 47% 11.0 mph E17.7 kmh E 16.0 mph25.7 kmh 30.01 in1016.3 mb 0.00 in0.0 mm 0.00 in0.0 mm 0.00 in0.0 mm
05:07 PM 81.4°F27.4°C 58.6°F14.8°C 46% 14.0 mph E22.5 kmh E 18.0 mph29.0 kmh 30.01 in1016.3 mb 0.00 in0.0 mm 0.00 in0.0 mm 0.00 in0.0 mm
05:08 PM 81.4°F27.4°C 58.6°F14.8°C 46% 14.0 mph E22.5 kmh E 19.0 mph30.6 kmh 30.01 in1016.3 mb 0.00 in0.0 mm 0.00 in0.0 mm 0.00 in0.0 mm
05:09 PM 81.3°F27.4°C 58.5°F14.7°C 46% 13.0 mph E20.9 kmh E 17.0 mph27.4 kmh 30.01 in1016.3 mb 0.00 in0.0 mm 0.00 in0.0 mm 0.00 in0.0 mm
05:10 PM 81.3°F27.4°C 59.1°F15.1°C 47% 10.0 mph E16.1 kmh E 13.0 mph20.9 kmh 30.01 in1016.3 mb 0.00 in0.0 mm 0.00 in0.0 mm 0.00 in0.0 mm
05:11 PM 81.3°F27.4°C 58.5°F14.7°C 46% 12.0 mph E19.3 kmh E 18.0 mph29.0 kmh 30.01 in1016.3 mb 0.00 in0.0 mm 0.00 in0.0 mm 0.00 in0.0 mm
05:12 PM 81.3°F27.4°C 58.5°F14.7°C 46% 14.0 mph E22.5 kmh E 20.0 mph32.2 kmh 30.01 in1016.3 mb 0.00 in0.0 mm 0.00 in0.0 mm 0.00 in0.0 mm
05:13 PM 81.2°F27.3°C 58.4°F14.7°C 46% 15.0 mph E24.1 kmh E 20.0 mph32.2 kmh 30.01 in1016.3 mb 0.00 in0.0 mm 0.00 in0.0 mm 0.00 in0.0 mm
05:14 PM 81.1°F27.3°C 58.3°F14.6°C 46% 17.0 mph E27.4 kmh E 21.0 mph33.8 kmh 30.01 in1016.3 mb 0.00 in0.0 mm 0.00 in0.0 mm 0.00 in0.0 mm
05:15 PM 81.1°F27.3°C 58.3°F14.6°C 46% 13.0 mph E20.9 kmh E 17.0 mph27.4 kmh 30.01 in1016.3 mb 0.00 in0.0 mm 0.00 in0.0 mm 0.00 in0.0 mm
05:16 PM 81.1°F27.3°C 58.3°F14.6°C 46% 8.0 mph ESE12.9 kmh ESE 11.0 mph17.7 kmh 30.01 in1016.3 mb 0.00 in0.0 mm 0.00 in0.0 mm 0.00 in0.0 mm
05:17 PM 81.1°F27.3°C 58.9°F14.9°C 47% 8.0 mph E12.9 kmh E 12.0 mph19.3 kmh 30.01 in1016.3 mb 0.00 in0.0 mm 0.00 in0.0 mm 0.00 in0.0 mm
05:18 PM 81.2°F27.3°C 59.0°F15.0°C 47% 8.0 mph ESE12.9 kmh ESE 12.0 mph19.3 kmh 30.01 in1016.3 mb 0.00 in0.0 mm 0.00 in0.0 mm 0.00 in0.0 mm
05:19 PM 81.3°F27.4°C 58.5°F14.7°C 46% 8.0 mph E12.9 kmh E 11.0 mph17.7 kmh 30.01 in1016.3 mb 0.00 in0.0 mm 0.00 in0.0 mm 0.00 in0.0 mm
05:20 PM 81.4°F27.4°C 58.6°F14.8°C 46% 9.0 mph ESE14.5 kmh ESE 14.0 mph22.5 kmh 30.01 in1016.3 mb 0.00 in0.0 mm 0.00 in0.0 mm 0.00 in0.0 mm
05:21 PM 81.4°F27.4°C 58.0°F14.4°C 45% 14.0 mph E22.5 kmh E 18.0 mph29.0 kmh 30.01 in1016.3 mb 0.00 in0.0 mm 0.00 in0.0 mm 0.00 in0.0 mm
05:22 PM 81.4°F27.4°C 56.7°F13.7°C 43% 16.0 mph E25.7 kmh E 19.0 mph30.6 kmh 30.01 in1016.3 mb 0.00 in0.0 mm 0.00 in0.0 mm 0.00 in0.0 mm
05:23 PM 81.3°F27.4°C 57.9°F14.4°C 45% 14.0 mph ESE22.5 kmh ESE 21.0 mph33.8 kmh 30.01 in1016.3 mb 0.00 in0.0 mm 0.00 in0.0 mm 0.00 in0.0 mm
05:24 PM 81.3°F27.4°C 57.9°F14.4°C 45% 10.0 mph E16.1 kmh E 12.0 mph19.3 kmh 30.01 in1016.3 mb 0.00 in0.0 mm 0.00 in0.0 mm 0.00 in0.0 mm
05:25 PM 81.3°F27.4°C 57.9°F14.4°C 45% 13.0 mph E20.9 kmh E 16.0 mph25.7 kmh 30.01 in1016.3 mb 0.00 in0.0 mm 0.00 in0.0 mm 0.00 in0.0 mm
05:26 PM 81.3°F27.4°C 57.3°F14.1°C 44% 14.0 mph E22.5 kmh E 16.0 mph25.7 kmh 30.01 in1016.3 mb 0.00 in0.0 mm 0.00 in0.0 mm 0.00 in0.0 mm
05:27 PM 81.2°F27.3°C 57.8°F14.3°C 45% 12.0 mph E19.3 kmh E 15.0 mph24.1 kmh 30.01 in1016.3 mb 0.00 in0.0 mm 0.00 in0.0 mm 0.00 in0.0 mm
05:28 PM 81.3°F27.4°C 57.9°F14.4°C 45% 12.0 mph E19.3 kmh E 15.0 mph24.1 kmh 30.01 in1016.3 mb 0.00 in0.0 mm 0.00 in0.0 mm 0.00 in0.0 mm
05:29 PM 81.3°F27.4°C 57.9°F14.4°C 45% 15.0 mph E24.1 kmh E 20.0 mph32.2 kmh 30.01 in1016.3 mb 0.00 in0.0 mm 0.00 in0.0 mm 0.00 in0.0 mm
05:30 PM 81.3°F27.4°C 57.9°F14.4°C 45% 10.0 mph E16.1 kmh E 14.0 mph22.5 kmh 30.01 in1016.3 mb 0.00 in0.0 mm 0.00 in0.0 mm 0.00 in0.0 mm
05:31 PM 81.3°F27.4°C 57.9°F14.4°C 45% 14.0 mph E22.5 kmh E 20.0 mph32.2 kmh 30.01 in1016.3 mb 0.00 in0.0 mm 0.00 in0.0 mm 0.00 in0.0 mm
05:32 PM 81.2°F27.3°C 57.2°F14.0°C 44% 16.0 mph E25.7 kmh E 21.0 mph33.8 kmh 30.01 in1016.3 mb 0.00 in0.0 mm 0.00 in0.0 mm 0.00 in0.0 mm
05:33 PM 81.2°F27.3°C 57.2°F14.0°C 44% 16.0 mph E25.7 kmh E 21.0 mph33.8 kmh 30.01 in1016.3 mb 0.00 in0.0 mm 0.00 in0.0 mm 0.00 in0.0 mm
05:34 PM 81.2°F27.3°C 57.8°F14.3°C 45% 13.0 mph E20.9 kmh E 17.0 mph27.4 kmh 30.01 in1016.3 mb 0.00 in0.0 mm 0.00 in0.0 mm 0.00 in0.0 mm
05:35 PM 81.2°F27.3°C 57.8°F14.3°C 45% 14.0 mph E22.5 kmh E 18.0 mph29.0 kmh 30.01 in1016.3 mb 0.00 in0.0 mm 0.00 in0.0 mm 0.00 in0.0 mm
05:36 PM 81.1°F27.3°C 57.1°F13.9°C 44% 14.0 mph ESE22.5 kmh ESE 18.0 mph29.0 kmh 30.01 in1016.3 mb 0.00 in0.0 mm 0.00 in0.0 mm 0.00 in0.0 mm
05:37 PM 81.1°F27.3°C 57.1°F13.9°C 44% 14.0 mph E22.5 kmh E 22.0 mph35.4 kmh 30.01 in1016.3 mb 0.00 in0.0 mm 0.00 in0.0 mm 0.00 in0.0 mm
05:38 PM 81.1°F27.3°C 57.1°F13.9°C 44% 13.0 mph E20.9 kmh E 17.0 mph27.4 kmh 30.01 in1016.3 mb 0.00 in0.0 mm 0.00 in0.0 mm 0.00 in0.0 mm
05:39 PM 81.1°F27.3°C 57.1°F13.9°C 44% 13.0 mph E20.9 kmh E 16.0 mph25.7 kmh 30.01 in1016.3 mb 0.00 in0.0 mm 0.00 in0.0 mm 0.00 in0.0 mm
05:40 PM 81.1°F27.3°C 57.1°F13.9°C 44% 12.0 mph E19.3 kmh E 15.0 mph24.1 kmh 30.01 in1016.3 mb 0.00 in0.0 mm 0.00 in0.0 mm 0.00 in0.0 mm
05:41 PM 81.1°F27.3°C 57.1°F13.9°C 44% 12.0 mph ESE19.3 kmh ESE 16.0 mph25.7 kmh 30.01 in1016.3 mb 0.00 in0.0 mm 0.00 in0.0 mm 0.00 in0.0 mm
05:42 PM 81.1°F27.3°C 57.1°F13.9°C 44% 13.0 mph E20.9 kmh E 17.0 mph27.4 kmh 30.01 in1016.3 mb 0.00 in0.0 mm 0.00 in0.0 mm 0.00 in0.0 mm
05:43 PM 81.1°F27.3°C 57.7°F14.3°C 45% 9.0 mph E14.5 kmh E 13.0 mph20.9 kmh 30.01 in1016.3 mb 0.00 in0.0 mm 0.00 in0.0 mm 0.00 in0.0 mm
05:44 PM 81.1°F27.3°C 57.1°F13.9°C 44% 10.0 mph ESE16.1 kmh ESE 14.0 mph22.5 kmh 30.01 in1016.3 mb 0.00 in0.0 mm 0.00 in0.0 mm 0.00 in0.0 mm
05:45 PM 81.1°F27.3°C 57.1°F13.9°C 44% 15.0 mph E24.1 kmh E 20.0 mph32.2 kmh 30.01 in1016.3 mb 0.00 in0.0 mm 0.00 in0.0 mm 0.00 in0.0 mm
05:46 PM 81.1°F27.3°C 57.1°F13.9°C 44% 16.0 mph E25.7 kmh E 19.0 mph30.6 kmh 30.01 in1016.3 mb 0.00 in0.0 mm 0.00 in0.0 mm 0.00 in0.0 mm
05:47 PM 81.0°F27.2°C 57.0°F13.9°C 44% 16.0 mph E25.7 kmh E 18.0 mph29.0 kmh 30.01 in1016.3 mb 0.00 in0.0 mm 0.00 in0.0 mm 0.00 in0.0 mm
05:48 PM 81.1°F27.3°C 56.5°F13.6°C 43% 16.0 mph E25.7 kmh E 20.0 mph32.2 kmh 30.01 in1016.3 mb 0.00 in0.0 mm 0.00 in0.0 mm 0.00 in0.0 mm
05:50 PM 80.9°F27.2°C 56.3°F13.5°C 43% 15.0 mph E24.1 kmh E 18.0 mph29.0 kmh 30.01 in1016.3 mb 0.00 in0.0 mm 0.00 in0.0 mm 0.00 in0.0 mm
05:51 PM 80.9°F27.2°C 56.9°F13.8°C 44% 10.0 mph E16.1 kmh E 15.0 mph24.1 kmh 30.01 in1016.3 mb 0.00 in0.0 mm 0.00 in0.0 mm 0.00 in0.0 mm
05:52 PM 80.9°F27.2°C 57.5°F14.2°C 45% 8.0 mph E12.9 kmh E 10.0 mph16.1 kmh 30.01 in1016.3 mb 0.00 in0.0 mm 0.00 in0.0 mm 0.00 in0.0 mm
05:53 PM 81.0°F27.2°C 57.6°F14.2°C 45% 9.0 mph E14.5 kmh E 12.0 mph19.3 kmh 30.01 in1016.3 mb 0.00 in0.0 mm 0.00 in0.0 mm 0.00 in0.0 mm
05:54 PM 81.0°F27.2°C 57.6°F14.2°C 45% 10.0 mph E16.1 kmh E 12.0 mph19.3 kmh 30.01 in1016.3 mb 0.00 in0.0 mm 0.00 in0.0 mm 0.00 in0.0 mm
05:55 PM 81.1°F27.3°C 57.1°F13.9°C 44% 11.0 mph E17.7 kmh E 17.0 mph27.4 kmh 30.01 in1016.3 mb 0.00 in0.0 mm 0.00 in0.0 mm 0.00 in0.0 mm
05:56 PM 81.1°F27.3°C 57.1°F13.9°C 44% 10.0 mph ESE16.1 kmh ESE 12.0 mph19.3 kmh 30.01 in1016.3 mb 0.00 in0.0 mm 0.00 in0.0 mm 0.00 in0.0 mm
05:57 PM 81.1°F27.3°C 57.1°F13.9°C 44% 11.0 mph E17.7 kmh E 14.0 mph22.5 kmh 30.01 in1016.3 mb 0.00 in0.0 mm 0.00 in0.0 mm 0.00 in0.0 mm
05:58 PM 81.1°F27.3°C 57.1°F13.9°C 44% 13.0 mph ESE20.9 kmh ESE 15.0 mph24.1 kmh 30.01 in1016.3 mb 0.00 in0.0 mm 0.00 in0.0 mm 0.00 in0.0 mm
05:59 PM 81.1°F27.3°C 57.1°F13.9°C 44% 12.0 mph ESE19.3 kmh ESE 15.0 mph24.1 kmh 30.01 in1016.3 mb 0.00 in0.0 mm 0.00 in0.0 mm 0.00 in0.0 mm
06:00 PM 81.1°F27.3°C 57.1°F13.9°C 44% 9.0 mph ESE14.5 kmh ESE 12.0 mph19.3 kmh 30.01 in1016.3 mb 0.00 in0.0 mm 0.00 in0.0 mm 0.00 in0.0 mm
06:01 PM 81.0°F27.2°C 57.0°F13.9°C 44% 13.0 mph ESE20.9 kmh ESE 15.0 mph24.1 kmh 30.01 in1016.3 mb 0.00 in0.0 mm 0.00 in0.0 mm 0.00 in0.0 mm
06:02 PM 81.0°F27.2°C 57.0°F13.9°C 44% 10.0 mph ESE16.1 kmh ESE 13.0 mph20.9 kmh 30.01 in1016.3 mb 0.00 in0.0 mm 0.00 in0.0 mm 0.00 in0.0 mm
06:03 PM 81.0°F27.2°C 57.6°F14.2°C 45% 6.0 mph ESE9.7 kmh ESE 10.0 mph16.1 kmh 30.01 in1016.3 mb 0.00 in0.0 mm 0.00 in0.0 mm 0.00 in0.0 mm
06:04 PM 81.1°F27.3°C 57.7°F14.3°C 45% 8.0 mph ESE12.9 kmh ESE 13.0 mph20.9 kmh 30.01 in1016.3 mb 0.00 in0.0 mm 0.00 in0.0 mm 0.00 in0.0 mm
06:05 PM 81.1°F27.3°C 57.7°F14.3°C 45% 8.0 mph E12.9 kmh E 13.0 mph20.9 kmh 30.01 in1016.3 mb 0.00 in0.0 mm 0.00 in0.0 mm 0.00 in0.0 mm
06:06 PM 81.1°F27.3°C 57.7°F14.3°C 45% 9.0 mph E14.5 kmh E 14.0 mph22.5 kmh 30.01 in1016.3 mb 0.00 in0.0 mm 0.00 in0.0 mm 0.00 in0.0 mm
06:07 PM 81.1°F27.3°C 57.1°F13.9°C 44% 15.0 mph E24.1 kmh E 20.0 mph32.2 kmh 30.01 in1016.3 mb 0.00 in0.0 mm 0.00 in0.0 mm 0.00 in0.0 mm
06:08 PM 81.0°F27.2°C 57.0°F13.9°C 44% 11.0 mph ESE17.7 kmh ESE 13.0 mph20.9 kmh 30.01 in1016.3 mb 0.00 in0.0 mm 0.00 in0.0 mm 0.00 in0.0 mm
06:09 PM 81.0°F27.2°C 57.0°F13.9°C 44% 9.0 mph E14.5 kmh E 11.0 mph17.7 kmh 30.01 in1016.3 mb 0.00 in0.0 mm 0.00 in0.0 mm 0.00 in0.0 mm
06:10 PM 81.0°F27.2°C 57.0°F13.9°C 44% 9.0 mph E14.5 kmh E 14.0 mph22.5 kmh 30.01 in1016.3 mb 0.00 in0.0 mm 0.00 in0.0 mm 0.00 in0.0 mm
06:11 PM 81.0°F27.2°C 57.0°F13.9°C 44% 10.0 mph ESE16.1 kmh ESE 14.0 mph22.5 kmh 30.01 in1016.3 mb 0.00 in0.0 mm 0.00 in0.0 mm 0.00 in0.0 mm
06:12 PM 81.0°F27.2°C 57.0°F13.9°C 44% 13.0 mph E20.9 kmh E 17.0 mph27.4 kmh 30.01 in1016.3 mb 0.00 in0.0 mm 0.00 in0.0 mm 0.00 in0.0 mm
06:13 PM 80.9°F27.2°C 56.9°F13.8°C 44% 10.0 mph ESE16.1 kmh ESE 13.0 mph20.9 kmh 30.01 in1016.3 mb 0.00 in0.0 mm 0.00 in0.0 mm 0.00 in0.0 mm
06:14 PM 80.9°F27.2°C 56.9°F13.8°C 44% 8.0 mph E12.9 kmh E 13.0 mph20.9 kmh 30.01 in1016.3 mb 0.00 in0.0 mm 0.00 in0.0 mm 0.00 in0.0 mm
06:15 PM 80.9°F27.2°C 56.9°F13.8°C 44% 9.0 mph E14.5 kmh E 11.0 mph17.7 kmh 30.01 in1016.3 mb 0.00 in0.0 mm 0.00 in0.0 mm 0.00 in0.0 mm
06:16 PM 80.9°F27.2°C 56.9°F13.8°C 44% 11.0 mph ESE17.7 kmh ESE 15.0 mph24.1 kmh 30.01 in1016.3 mb 0.00 in0.0 mm 0.00 in0.0 mm 0.00 in0.0 mm
06:17 PM 80.9°F27.2°C 57.5°F14.2°C 45% 10.0 mph E16.1 kmh E 13.0 mph20.9 kmh 30.01 in1016.3 mb 0.00 in0.0 mm 0.00 in0.0 mm 0.00 in0.0 mm
06:18 PM 80.9°F27.2°C 56.9°F13.8°C 44% 10.0 mph E16.1 kmh E 12.0 mph19.3 kmh 30.01 in1016.3 mb 0.00 in0.0 mm 0.00 in0.0 mm 0.00 in0.0 mm
06:19 PM 80.8°F27.1°C 56.8°F13.8°C 44% 11.0 mph ESE17.7 kmh ESE 15.0 mph24.1 kmh 30.01 in1016.3 mb 0.00 in0.0 mm 0.00 in0.0 mm 0.00 in0.0 mm
06:20 PM 80.8°F27.1°C 57.4°F14.1°C 45% 9.0 mph E14.5 kmh E 13.0 mph20.9 kmh 30.01 in1016.3 mb 0.00 in0.0 mm 0.00 in0.0 mm 0.00 in0.0 mm
06:21 PM 80.7°F27.1°C 56.7°F13.7°C 44% 10.0 mph E16.1 kmh E 16.0 mph25.7 kmh 30.01 in1016.3 mb 0.00 in0.0 mm 0.00 in0.0 mm 0.00 in0.0 mm
06:22 PM 80.8°F27.1°C 57.4°F14.1°C 45% 10.0 mph ESE16.1 kmh ESE 14.0 mph22.5 kmh 30.01 in1016.3 mb 0.00 in0.0 mm 0.00 in0.0 mm 0.00 in0.0 mm
06:23 PM 80.7°F27.1°C 56.7°F13.7°C 44% 11.0 mph E17.7 kmh E 15.0 mph24.1 kmh 30.01 in1016.3 mb 0.00 in0.0 mm 0.00 in0.0 mm 0.00 in0.0 mm
06:24 PM 80.7°F27.1°C 57.4°F14.1°C 45% 8.0 mph E12.9 kmh E 11.0 mph17.7 kmh 30.01 in1016.3 mb 0.00 in0.0 mm 0.00 in0.0 mm 0.00 in0.0 mm
06:25 PM 80.7°F27.1°C 57.4°F14.1°C 45% 6.0 mph ESE9.7 kmh ESE 9.0 mph14.5 kmh 30.01 in1016.3 mb 0.00 in0.0 mm 0.00 in0.0 mm 0.00 in0.0 mm
06:26 PM 80.7°F27.1°C 57.4°F14.1°C 45% 9.0 mph ESE14.5 kmh ESE 15.0 mph24.1 kmh 30.01 in1016.3 mb 0.00 in0.0 mm 0.00 in0.0 mm 0.00 in0.0 mm
06:27 PM 80.7°F27.1°C 57.4°F14.1°C 45% 7.0 mph E11.3 kmh E 10.0 mph16.1 kmh 30.01 in1016.3 mb 0.00 in0.0 mm 0.00 in0.0 mm 0.00 in0.0 mm
06:28 PM 80.7°F27.1°C 57.4°F14.1°C 45% 9.0 mph ESE14.5 kmh ESE 10.0 mph16.1 kmh 30.01 in1016.3 mb 0.00 in0.0 mm 0.00 in0.0 mm 0.00 in0.0 mm
06:29 PM 80.7°F27.1°C 58.0°F14.4°C 46% 10.0 mph E16.1 kmh E 14.0 mph22.5 kmh 30.01 in1016.3 mb 0.00 in0.0 mm 0.00 in0.0 mm 0.00 in0.0 mm
06:30 PM 80.7°F27.1°C 57.4°F14.1°C 45% 7.0 mph SE11.3 kmh SE 8.0 mph12.9 kmh 30.01 in1016.3 mb 0.00 in0.0 mm 0.00 in0.0 mm 0.00 in0.0 mm
06:31 PM 80.7°F27.1°C 57.4°F14.1°C 45% 11.0 mph ESE17.7 kmh ESE 15.0 mph24.1 kmh 30.01 in1016.3 mb 0.00 in0.0 mm 0.00 in0.0 mm 0.00 in0.0 mm
06:32 PM 80.6°F27.0°C 57.9°F14.4°C 46% 10.0 mph E16.1 kmh E 13.0 mph20.9 kmh 30.01 in1016.3 mb 0.00 in0.0 mm 0.00 in0.0 mm 0.00 in0.0 mm
06:33 PM 80.5°F26.9°C 57.2°F14.0°C 45% 12.0 mph E19.3 kmh E 15.0 mph24.1 kmh 30.01 in1016.3 mb 0.00 in0.0 mm 0.00 in0.0 mm 0.00 in0.0 mm
06:34 PM 80.5°F26.9°C 57.8°F14.3°C 46% 10.0 mph E16.1 kmh E 15.0 mph24.1 kmh 30.01 in1016.3 mb 0.00 in0.0 mm 0.00 in0.0 mm 0.00 in0.0 mm
06:35 PM 80.5°F26.9°C 58.4°F14.7°C 47% 10.0 mph E16.1 kmh E 15.0 mph24.1 kmh 30.01 in1016.3 mb 0.00 in0.0 mm 0.00 in0.0 mm 0.00 in0.0 mm
06:36 PM 80.4°F26.9°C 57.7°F14.3°C 46% 12.0 mph E19.3 kmh E 14.0 mph22.5 kmh 30.01 in1016.3 mb 0.00 in0.0 mm 0.00 in0.0 mm 0.00 in0.0 mm
06:37 PM 80.3°F26.8°C 57.6°F14.2°C 46% 11.0 mph E17.7 kmh E 13.0 mph20.9 kmh 30.01 in1016.3 mb 0.00 in0.0 mm 0.00 in0.0 mm 0.00 in0.0 mm
06:38 PM 80.3°F26.8°C 57.6°F14.2°C 46% 8.0 mph E12.9 kmh E 12.0 mph19.3 kmh 30.01 in1016.3 mb 0.00 in0.0 mm 0.00 in0.0 mm 0.00 in0.0 mm
06:39 PM 80.3°F26.8°C 58.2°F14.6°C 47% 9.0 mph E14.5 kmh E 12.0 mph19.3 kmh 30.01 in1016.3 mb 0.00 in0.0 mm 0.00 in0.0 mm 0.00 in0.0 mm
06:40 PM 80.3°F26.8°C 58.2°F14.6°C 47% 9.0 mph E14.5 kmh E 12.0 mph19.3 kmh 30.01 in1016.3 mb 0.00 in0.0 mm 0.00 in0.0 mm 0.00 in0.0 mm
06:41 PM 80.3°F26.8°C 58.8°F14.9°C 48% 6.0 mph E9.7 kmh E 8.0 mph12.9 kmh 30.01 in1016.3 mb 0.00 in0.0 mm 0.00 in0.0 mm 0.00 in0.0 mm
06:42 PM 80.2°F26.8°C 58.7°F14.8°C 48% 10.0 mph E16.1 kmh E 12.0 mph19.3 kmh 30.01 in1016.3 mb 0.00 in0.0 mm 0.00 in0.0 mm 0.00 in0.0 mm
06:43 PM 80.2°F26.8°C 58.1°F14.5°C 47% 12.0 mph E19.3 kmh E 14.0 mph22.5 kmh 30.01 in1016.3 mb 0.00 in0.0 mm 0.00 in0.0 mm 0.00 in0.0 mm
06:44 PM 80.1°F26.7°C 58.0°F14.4°C 47% 9.0 mph E14.5 kmh E 11.0 mph17.7 kmh 30.01 in1016.3 mb 0.00 in0.0 mm 0.00 in0.0 mm 0.00 in0.0 mm
06:45 PM 80.1°F26.7°C 58.0°F14.4°C 47% 10.0 mph E16.1 kmh E 12.0 mph19.3 kmh 30.01 in1016.3 mb 0.00 in0.0 mm 0.00 in0.0 mm 0.00 in0.0 mm
06:46 PM 80.0°F26.7°C 58.5°F14.7°C 48% 9.0 mph E14.5 kmh E 13.0 mph20.9 kmh 30.01 in1016.3 mb 0.00 in0.0 mm 0.00 in0.0 mm 0.00 in0.0 mm
06:47 PM 80.0°F26.7°C 58.5°F14.7°C 48% 10.0 mph E16.1 kmh E 14.0 mph22.5 kmh 30.01 in1016.3 mb 0.00 in0.0 mm 0.00 in0.0 mm 0.00 in0.0 mm
06:48 PM 80.0°F26.7°C 58.5°F14.7°C 48% 9.0 mph E14.5 kmh E 11.0 mph17.7 kmh 30.01 in1016.3 mb 0.00 in0.0 mm 0.00 in0.0 mm 0.00 in0.0 mm
06:49 PM 80.0°F26.7°C 58.5°F14.7°C 48% 7.0 mph E11.3 kmh E 9.0 mph14.5 kmh 30.01 in1016.3 mb 0.00 in0.0 mm 0.00 in0.0 mm 0.00 in0.0 mm
06:50 PM 79.9°F26.6°C 58.4°F14.7°C 48% 9.0 mph E14.5 kmh E 12.0 mph19.3 kmh 30.01 in1016.3 mb 0.00 in0.0 mm 0.00 in0.0 mm 0.00 in0.0 mm
06:51 PM 79.9°F26.6°C 58.4°F14.7°C 48% 7.2 mph E11.6 kmh E 9.0 mph14.5 kmh 30.01 in1016.3 mb 0.00 in0.0 mm 0.00 in0.0 mm 0.00 in0.0 mm
06:52 PM 79.8°F26.6°C 58.9°F14.9°C 49% 7.0 mph E11.3 kmh E 10.0 mph16.1 kmh 30.01 in1016.3 mb 0.00 in0.0 mm 0.00 in0.0 mm 0.00 in0.0 mm
06:53 PM 79.8°F26.6°C 58.3°F14.6°C 48% 9.0 mph E14.5 kmh E 11.0 mph17.7 kmh 30.01 in1016.3 mb 0.00 in0.0 mm 0.00 in0.0 mm 0.00 in0.0 mm
06:54 PM 79.8°F26.6°C 58.3°F14.6°C 48% 8.0 mph E12.9 kmh E 10.0 mph16.1 kmh 30.01 in1016.3 mb 0.00 in0.0 mm 0.00 in0.0 mm 0.00 in0.0 mm
06:55 PM 79.7°F26.5°C 58.8°F14.9°C 49% 8.0 mph E12.9 kmh E 11.0 mph17.7 kmh 30.01 in1016.3 mb 0.00 in0.0 mm 0.00 in0.0 mm 0.00 in0.0 mm
06:56 PM 79.7°F26.5°C 58.2°F14.6°C 48% 9.0 mph E14.5 kmh E 13.0 mph20.9 kmh 30.01 in1016.3 mb 0.00 in0.0 mm 0.00 in0.0 mm 0.00 in0.0 mm
06:57 PM 79.7°F26.5°C 58.2°F14.6°C 48% 9.0 mph E14.5 kmh E 12.0 mph19.3 kmh 30.01 in1016.3 mb 0.00 in0.0 mm 0.00 in0.0 mm 0.00 in0.0 mm
06:58 PM 79.6°F26.4°C 58.2°F14.6°C 48% 9.0 mph E14.5 kmh E 13.0 mph20.9 kmh 30.01 in1016.3 mb 0.00 in0.0 mm 0.00 in0.0 mm 0.00 in0.0 mm
06:59 PM 79.6°F26.4°C 58.2°F14.6°C 48% 11.0 mph E17.7 kmh E 13.0 mph20.9 kmh 30.01 in1016.3 mb 0.00 in0.0 mm 0.00 in0.0 mm 0.00 in0.0 mm
07:00 PM 79.6°F26.4°C 58.2°F14.6°C 48% 10.0 mph E16.1 kmh E 12.0 mph19.3 kmh 30.01 in1016.3 mb 0.00 in0.0 mm 0.00 in0.0 mm 0.00 in0.0 mm
07:01 PM 79.5°F26.4°C 58.1°F14.5°C 48% 10.0 mph E16.1 kmh E 12.0 mph19.3 kmh 30.01 in1016.3 mb 0.00 in0.0 mm 0.00 in0.0 mm 0.00 in0.0 mm
07:02 PM 79.5°F26.4°C 58.1°F14.5°C 48% 9.0 mph E14.5 kmh E 12.0 mph19.3 kmh 30.01 in1016.3 mb 0.00 in0.0 mm 0.00 in0.0 mm 0.00 in0.0 mm
07:03 PM 79.4°F26.3°C 58.0°F14.4°C 48% 10.0 mph E16.1 kmh E 13.0 mph20.9 kmh 30.01 in1016.3 mb 0.00 in0.0 mm 0.00 in0.0 mm 0.00 in0.0 mm
07:04 PM 79.4°F26.3°C 58.0°F14.4°C 48% 9.0 mph E14.5 kmh E 13.0 mph20.9 kmh 30.01 in1016.3 mb 0.00 in0.0 mm 0.00 in0.0 mm 0.00 in0.0 mm
07:05 PM 79.3°F26.3°C 58.5°F14.7°C 49% 7.0 mph E11.3 kmh E 10.0 mph16.1 kmh 30.01 in1016.3 mb 0.00 in0.0 mm 0.00 in0.0 mm 0.00 in0.0 mm
07:06 PM 79.3°F26.3°C 58.5°F14.7°C 49% 8.0 mph E12.9 kmh E 9.0 mph14.5 kmh 30.01 in1016.3 mb 0.00 in0.0 mm 0.00 in0.0 mm 0.00 in0.0 mm
07:07 PM 79.3°F26.3°C 58.5°F14.7°C 49% 7.0 mph E11.3 kmh E 8.0 mph12.9 kmh 30.01 in1016.3 mb 0.00 in0.0 mm 0.00 in0.0 mm 0.00 in0.0 mm
07:08 PM 79.2°F26.2°C 58.4°F14.7°C 49% 9.0 mph E14.5 kmh E 12.0 mph19.3 kmh 30.01 in1016.3 mb 0.00 in0.0 mm 0.00 in0.0 mm 0.00 in0.0 mm
07:09 PM 79.2°F26.2°C 58.4°F14.7°C 49% 7.0 mph E11.3 kmh E 11.0 mph17.7 kmh 30.01 in1016.3 mb 0.00 in0.0 mm 0.00 in0.0 mm 0.00 in0.0 mm
07:10 PM 79.2°F26.2°C 58.4°F14.7°C 49% 7.0 mph E11.3 kmh E 9.0 mph14.5 kmh 30.01 in1016.3 mb 0.00 in0.0 mm 0.00 in0.0 mm 0.00 in0.0 mm
07:11 PM 79.2°F26.2°C 58.4°F14.7°C 49% 7.0 mph E11.3 kmh E 9.0 mph14.5 kmh 30.01 in1016.3 mb 0.00 in0.0 mm 0.00 in0.0 mm 0.00 in0.0 mm
07:12 PM 79.2°F26.2°C 58.4°F14.7°C 49% 6.0 mph E9.7 kmh E 9.0 mph14.5 kmh 30.01 in1016.3 mb 0.00 in0.0 mm 0.00 in0.0 mm 0.00 in0.0 mm
07:13 PM 79.1°F26.2°C 58.3°F14.6°C 49% 7.0 mph E11.3 kmh E 9.0 mph14.5 kmh 30.01 in1016.3 mb 0.00 in0.0 mm 0.00 in0.0 mm 0.00 in0.0 mm
07:14 PM 79.1°F26.2°C 58.3°F14.6°C 49% 6.0 mph E9.7 kmh E 8.0 mph12.9 kmh 30.01 in1016.3 mb 0.00 in0.0 mm 0.00 in0.0 mm 0.00 in0.0 mm
07:15 PM 79.1°F26.2°C 58.3°F14.6°C 49% 7.0 mph ESE11.3 kmh ESE 10.0 mph16.1 kmh 30.01 in1016.3 mb 0.00 in0.0 mm 0.00 in0.0 mm 0.00 in0.0 mm
07:16 PM 79.0°F26.1°C 58.2°F14.6°C 49% 9.0 mph E14.5 kmh E 11.0 mph17.7 kmh 30.01 in1016.3 mb 0.00 in0.0 mm 0.00 in0.0 mm 0.00 in0.0 mm
07:17 PM 78.9°F26.1°C 58.1°F14.5°C 49% 8.0 mph E12.9 kmh E 14.0 mph22.5 kmh 30.01 in1016.3 mb 0.00 in0.0 mm 0.00 in0.0 mm 0.00 in0.0 mm
07:18 PM 78.9°F26.1°C 58.1°F14.5°C 49% 6.0 mph E9.7 kmh E 8.0 mph12.9 kmh 30.01 in1016.3 mb 0.00 in0.0 mm 0.00 in0.0 mm 0.00 in0.0 mm
07:19 PM 78.9°F26.1°C 58.1°F14.5°C 49% 6.0 mph E9.7 kmh E 10.0 mph16.1 kmh 30.01 in1016.3 mb 0.00 in0.0 mm 0.00 in0.0 mm 0.00 in0.0 mm
07:20 PM 78.9°F26.1°C 58.7°F14.8°C 50% 7.0 mph E11.3 kmh E 10.0 mph16.1 kmh 30.01 in1016.3 mb 0.00 in0.0 mm 0.00 in0.0 mm 0.00 in0.0 mm
07:21 PM 78.8°F26.0°C 58.6°F14.8°C 50% 8.0 mph E12.9 kmh E 12.0 mph19.3 kmh 30.01 in1016.3 mb 0.00 in0.0 mm 0.00 in0.0 mm 0.00 in0.0 mm
07:22 PM 78.8°F26.0°C 58.6°F14.8°C 50% 8.0 mph E12.9 kmh E 11.0 mph17.7 kmh 30.01 in1016.3 mb 0.00 in0.0 mm 0.00 in0.0 mm 0.00 in0.0 mm
07:23 PM 78.7°F25.9°C 58.5°F14.7°C 50% 9.0 mph E14.5 kmh E 14.0 mph22.5 kmh 30.01 in1016.3 mb 0.00 in0.0 mm 0.00 in0.0 mm 0.00 in0.0 mm
07:24 PM 78.6°F25.9°C 58.4°F14.7°C 50% 7.0 mph E11.3 kmh E 10.0 mph16.1 kmh 30.01 in1016.3 mb 0.00 in0.0 mm 0.00 in0.0 mm 0.00 in0.0 mm
07:25 PM 78.6°F25.9°C 58.4°F14.7°C 50% 8.0 mph E12.9 kmh E 11.0 mph17.7 kmh 30.01 in1016.3 mb 0.00 in0.0 mm 0.00 in0.0 mm 0.00 in0.0 mm
07:26 PM 78.6°F25.9°C 58.4°F14.7°C 50% 9.0 mph E14.5 kmh E 11.0 mph17.7 kmh 30.01 in1016.3 mb 0.00 in0.0 mm 0.00 in0.0 mm 0.00 in0.0 mm
07:27 PM 78.5°F25.8°C 58.8°F14.9°C 51% 7.0 mph E11.3 kmh E 10.0 mph16.1 kmh 30.01 in1016.3 mb 0.00 in0.0 mm 0.00 in0.0 mm 0.00 in0.0 mm
07:28 PM 78.5°F25.8°C 58.8°F14.9°C 51% 7.0 mph E11.3 kmh E 9.0 mph14.5 kmh 30.01 in1016.3 mb 0.00 in0.0 mm 0.00 in0.0 mm 0.00 in0.0 mm
07:29 PM 78.4°F25.8°C 58.8°F14.9°C 51% 6.0 mph E9.7 kmh E 7.0 mph11.3 kmh 30.01 in1016.3 mb 0.00 in0.0 mm 0.00 in0.0 mm 0.00 in0.0 mm
07:30 PM 78.3°F25.7°C 58.7°F14.8°C 51% 8.0 mph E12.9 kmh E 11.0 mph17.7 kmh 30.01 in1016.3 mb 0.00 in0.0 mm 0.00 in0.0 mm 0.00 in0.0 mm
07:31 PM 78.3°F25.7°C 58.7°F14.8°C 51% 6.0 mph ENE9.7 kmh ENE 7.0 mph11.3 kmh 30.01 in1016.3 mb 0.00 in0.0 mm 0.00 in0.0 mm 0.00 in0.0 mm
07:32 PM 78.2°F25.7°C 58.6°F14.8°C 51% 10.0 mph E16.1 kmh E 12.0 mph19.3 kmh 30.01 in1016.3 mb 0.00 in0.0 mm 0.00 in0.0 mm 0.00 in0.0 mm
07:33 PM 78.1°F25.6°C 58.5°F14.7°C 51% 8.0 mph E12.9 kmh E 11.0 mph17.7 kmh 30.01 in1016.3 mb 0.00 in0.0 mm 0.00 in0.0 mm 0.00 in0.0 mm
07:34 PM 78.0°F25.6°C 58.4°F14.7°C 51% 9.0 mph E14.5 kmh E 10.0 mph16.1 kmh 30.01 in1016.3 mb 0.00 in0.0 mm 0.00 in0.0 mm 0